KL612 / PH-BQD 7700 Squawk Report (19th of September, 2019)

Aircraft B772 Reg No. PH-BQD Age 15 years old
Model 777 Jet engines 2 First flight 12-12-03
Registered 23-12-03 Rollout 28-11-03 Delivered 22-12-03
Construction No. 33713 Line No. 0465 Series 206(ER)
ADSHEX 48436B Airline name KLM Royal Dutch Airlines Owner N/A
Airfield based Amsterdam-Schiphol~Noord-Holland~PH First tracked 2017-07-13 08:42:00

Flight history for PH-BQD

Route Flight No Date Playback
Schiphol (AMS) - Kuala Lumpur Intl (KUL) - Soekarno Hatta Intl (CGK) KL809 2019-10-21 22:39:00
Soekarno Hatta Intl (CGK) - Kuala Lumpur Intl (KUL) - Schiphol (AMS) KL810 2019-10-21 03:59:00
Schiphol (AMS) - Kuala Lumpur Intl (KUL) - Soekarno Hatta Intl (CGK) KL809 2019-10-20 10:00:00
Schiphol (AMS) - Mariscal Sucre Intl (UIO) - Jose Joaquin De Olmedo Intl (GYE) - Schiphol (AMS) KL755 2019-10-19 19:03:00
Schiphol (AMS) - Mariscal Sucre Intl (UIO) - Jose Joaquin De Olmedo Intl (GYE) - Schiphol (AMS) KL755 2019-10-19 08:40:00
Washington Dulles International (IAD) - Schiphol (AMS) KL652 2019-10-18 08:39:00
???? N/A 2019-10-17 20:04:00
Guarulhos Gov Andre Franco Montoro (GRU) - Schiphol (AMS) KL792 2019-10-17 09:49:00
Schiphol (AMS) - Guarulhos Gov Andre Franco Montoro (GRU) KL791 2019-10-16 22:23:00
Washington Dulles International (IAD) - Schiphol (AMS) KL652 2019-10-16 08:16:00
Schiphol (AMS) - Washington Dulles International (IAD) KL651 2019-10-15 22:23:00
John F Kennedy Intl (JFK) - Schiphol (AMS) KL644 2019-10-15 11:48:00
Schiphol (AMS) - John F Kennedy Intl (JFK) KL643 2019-10-14 23:46:00
Kansai (KIX) - Schiphol (AMS) KL868 2019-10-14 15:55:00
Schiphol (AMS) - Kansai (KIX) KL867 2019-10-13 23:47:00
Tocumen Intl (PTY) - Schiphol (AMS) KL758 2019-10-13 13:08:00
Schiphol (AMS) - Tocumen Intl (PTY) KL757 2019-10-12 21:07:00
O. R. Tambo International Airport (JNB) - Schiphol (AMS) KL592 2019-10-12 10:56:00
Schiphol (AMS) - O. R. Tambo International Airport (JNB) KL591 2019-10-11 21:06:00
Chicago Ohare Intl (ORD) - Schiphol (AMS) KL612 2019-10-11 04:52:00
Time Lat Lon Altitude Heading Speed Vertical Rate
2019-09-20 04:43:52 GMT 52.310806 4.772127 0 272 16 0
2019-09-20 04:43:37 GMT 52.310760 4.773884 0 272 14 0
2019-09-20 04:42:46 GMT 52.308346 4.776039 0 2 24 0
2019-09-20 04:42:41 GMT 52.307804 4.775992 0 2 24 0
2019-09-20 04:42:34 GMT 52.307095 4.775933 0 2 22 0
2019-09-20 04:42:27 GMT 52.306442 4.775835 0 11 20 0
2019-09-20 04:42:18 GMT 52.305748 4.775028 0 56 14 0
2019-09-20 04:42:02 GMT 52.305359 4.774036 0 343 13 0
2019-09-20 04:41:56 GMT 52.305069 4.773854 0 348 11 0
2019-09-20 04:41:48 GMT 52.304626 4.774187 0 0 14 0
2019-09-20 04:41:42 GMT 52.304268 4.774070 0 22 16 0
2019-09-20 04:41:34 GMT 52.303734 4.773658 0 28 25 0
2019-09-20 04:41:19 GMT 52.302277 4.771480 0 56 34 0
2019-09-20 04:41:09 GMT 52.301342 4.769039 0 59 51 0
2019-09-20 04:41:05 GMT 52.300816 4.767666 0 59 59 0
2019-09-20 04:41:01 GMT 52.300079 4.765751 0 57 137 0
2019-09-20 04:40:50 GMT 52.298435 4.761448 0 59 78 0
2019-09-20 04:40:46 GMT 52.297459 4.758944 0 59 98 0
2019-09-20 04:40:35 GMT 52.295120 4.752823 0 59 110 0
2019-09-20 04:40:25 GMT 52.292221 4.745231 -500 57 135 -256
2019-09-20 04:40:15 GMT 52.288376 4.735413 -375 58 137 -576
2019-09-20 04:40:10 GMT 52.287186 4.732285 -325 58 136 -768
2019-09-20 04:40:07 GMT 52.285892 4.728908 -275 58 137 -768
2019-09-20 04:40:04 GMT 52.285034 4.726639 675 57 137 -768
2019-09-20 04:40:01 GMT 52.284027 4.724043 -175 57 137 -768
2019-09-20 04:39:57 GMT 52.282959 4.721218 -150 58 136 -704
2019-09-20 04:39:54 GMT 52.281750 4.718079 -125 58 136 -704
2019-09-20 04:39:50 GMT 52.280365 4.714355 -25 57 137 -768
2019-09-20 04:39:45 GMT 52.278763 4.710159 25 57 137 -768
2019-09-20 04:39:39 GMT 52.276814 4.705130 50 57 137 -768
2019-09-20 04:39:36 GMT 52.275742 4.702305 125 57 136 -704
2019-09-20 04:39:33 GMT 52.274765 4.699873 125 57 136 -704
2019-09-20 04:39:29 GMT 52.273499 4.696579 225 56 178 -1216
2019-09-20 04:39:26 GMT 52.272308 4.693451 225 58 136 -768
2019-09-20 04:39:18 GMT 52.269829 4.687003 525 57 137 -768
2019-09-20 04:39:15 GMT 52.268620 4.683864 350 57 137 -768
2019-09-20 04:39:10 GMT 52.266815 4.679184 725 57 136 -704
2019-09-20 04:39:07 GMT 52.265919 4.676880 450 57 136 -704
2019-09-20 04:39:04 GMT 52.265129 4.674840 475 57 136 -704
2019-09-20 04:39:01 GMT 52.263565 4.670868 525 57 136 -768
2019-09-20 04:38:58 GMT 52.263081 4.669582 575 57 137 -768
2019-09-20 04:38:55 GMT 52.262104 4.667149 600 58 136 -832
2019-09-20 04:38:52 GMT 52.260864 4.663849 650 58 136 -832
2019-09-20 04:38:49 GMT 52.259766 4.661102 675 58 136 -768
2019-09-20 04:38:45 GMT 52.258518 4.657811 700 58 136 -704
2019-09-20 04:38:39 GMT 52.256516 4.652553 875 58 136 -832
2019-09-20 04:38:36 GMT 52.255447 4.649728 975 58 137 -768
2019-09-20 04:38:32 GMT 52.253956 4.645883 925 58 137 -768
2019-09-20 04:38:27 GMT 52.252327 4.641645 975 57 141 -768
2019-09-20 04:38:24 GMT 52.251255 4.638742 1,000 57 143 -704
2019-09-20 04:38:19 GMT 52.249741 4.634857 1,300 56 178 -1216
2019-09-20 04:38:15 GMT 52.247910 4.630203 1,100 57 155 -768
2019-09-20 04:38:09 GMT 52.245808 4.624852 1,275 57 163 -960
2019-09-20 04:38:06 GMT 52.244614 4.621811 1,225 57 161 -960
2019-09-20 04:38:03 GMT 52.243469 4.618988 1,250 57 161 -960
2019-09-20 04:38:00 GMT 52.242371 4.616089 1,375 57 165 -896
2019-09-20 04:37:57 GMT 52.241154 4.612924 1,400 58 170 -640
2019-09-20 04:37:54 GMT 52.239899 4.609756 1,425 57 167 -832
2019-09-20 04:37:50 GMT 52.238361 4.605626 1,475 58 174 -640
2019-09-20 04:37:47 GMT 52.236824 4.601702 1,500 57 177 -1152
2019-09-20 04:37:44 GMT 52.235615 4.598563 1,500 57 177 -1152
2019-09-20 04:37:40 GMT 52.234032 4.594482 1,650 56 178 -1216
2019-09-20 04:37:37 GMT 52.232357 4.590480 1,650 55 180 -1472
2019-09-20 04:37:34 GMT 52.230927 4.587097 1,825 55 181 -1664
2019-09-20 04:37:30 GMT 52.229145 4.582868 1,900 55 180 -1792
2019-09-20 04:37:26 GMT 52.227280 4.578317 2,025 56 181 -1536
2019-09-20 04:37:23 GMT 52.225979 4.575178 2,050 56 181 -1536
2019-09-20 04:37:19 GMT 52.223743 4.569685 2,200 56 183 -1088
2019-09-20 04:37:16 GMT 52.222393 4.566467 2,225 55 184 -1024
2019-09-20 04:37:13 GMT 52.221462 4.564192 2,275 55 184 -896
2019-09-20 04:37:09 GMT 52.219208 4.558945 2,325 55 186 -704
2019-09-20 04:37:06 GMT 52.217693 4.555481 2,350 56 187 -768
2019-09-20 04:37:03 GMT 52.215958 4.550934 2,425 67 189 -1088
2019-09-20 04:36:58 GMT 52.214355 4.545822 2,575 68 189 -1152
2019-09-20 04:36:55 GMT 52.213131 4.540806 2,575 71 189 -1088
2019-09-20 04:36:52 GMT 52.212479 4.537811 2,600 72 189 -1024
2019-09-20 04:36:49 GMT 52.211517 4.532318 2,675 75 190 -832
2019-09-20 04:36:46 GMT 52.210754 4.527623 2,700 76 192 -704
2019-09-20 04:36:43 GMT 52.210430 4.525347 2,725 77 193 -704
2019-09-20 04:36:40 GMT 52.209778 4.520874 2,750 77 193 -704
2019-09-20 04:36:36 GMT 52.209080 4.515145 2,800 80 195 -768
2019-09-20 04:36:33 GMT 52.208633 4.510727 2,850 84 196 -832
2019-09-20 04:36:30 GMT 52.208427 4.506278 2,925 90 199 -1088
2019-09-20 04:36:27 GMT 52.208336 4.502119 2,975 91 199 -1024
2019-09-20 04:36:24 GMT 52.208382 4.496783 3,000 92 199 -960
2019-09-20 04:36:21 GMT 52.208496 4.493484 3,025 94 199 -960
2019-09-20 04:36:17 GMT 52.208908 4.486237 3,125 101 200 -1472
2019-09-20 04:36:14 GMT 52.209312 4.482422 3,275 106 201 -1280
2019-09-20 04:36:11 GMT 52.209915 4.478891 3,225 109 202 -1152
2019-09-20 04:36:08 GMT 52.211014 4.474030 3,300 116 203 -896
2019-09-20 04:36:05 GMT 52.213028 4.468155 6,450 125 207 -512
2019-09-20 04:36:02 GMT 52.214127 4.465637 6,450 135 281 -1600
2019-09-20 04:35:58 GMT 52.216644 4.460831 3,400 133 212 -448
2019-09-20 04:35:55 GMT 52.218716 4.457389 3,625 135 224 -1152
2019-09-20 04:35:52 GMT 52.221359 4.452972 3,450 134 217 -512
2019-09-20 04:35:49 GMT 52.222904 4.450483 3,475 134 222 -704
2019-09-20 04:35:46 GMT 52.225067 4.446945 3,500 134 220 -640
2019-09-20 04:35:43 GMT 52.227036 4.443665 3,625 135 224 -1152
2019-09-20 04:35:40 GMT 52.229237 4.440125 3,575 134 223 -768
2019-09-20 04:35:37 GMT 52.231564 4.436279 3,850 135 225 -1408
2019-09-20 04:35:34 GMT 52.233891 4.432434 3,650 135 224 -1152
2019-09-20 04:35:31 GMT 52.235504 4.429779 3,725 135 224 -1408
2019-09-20 04:35:28 GMT 52.237839 4.425964 3,850 135 225 -1408
2019-09-20 04:35:25 GMT 52.240036 4.422389 3,850 135 225 -1408
2019-09-20 04:35:22 GMT 52.242413 4.418544 3,875 135 226 -1344
2019-09-20 04:35:19 GMT 52.244179 4.415641 3,925 135 227 -1280
2019-09-20 04:35:16 GMT 52.247810 4.409912 5,025 135 227 -1600
2019-09-20 04:35:13 GMT 52.249302 4.407479 4,100 135 228 -1600
2019-09-20 04:35:10 GMT 52.250931 4.404831 4,150 135 229 -1536
2019-09-20 04:35:05 GMT 52.255234 4.397964 4,275 135 232 -1344
2019-09-20 04:35:02 GMT 52.257706 4.394073 4,400 135 237 -1280
2019-09-20 04:34:59 GMT 52.260658 4.389274 4,450 135 239 -1344
2019-09-20 04:34:56 GMT 52.262100 4.386978 4,500 135 241 -1408
2019-09-20 04:34:53 GMT 52.264984 4.382401 4,600 135 246 -1216
2019-09-20 04:34:46 GMT 52.272858 4.369736 4,725 135 255 -896
2019-09-20 04:34:43 GMT 52.272858 4.369736 4,750 135 258 -768
2019-09-20 04:34:40 GMT 52.275238 4.365997 4,775 135 259 -704
2019-09-20 04:34:36 GMT 52.279186 4.359689 4,825 135 264 -448
2019-09-20 04:34:33 GMT 52.281654 4.355765 4,850 135 265 -320
2019-09-20 04:34:30 GMT 52.284302 4.351501 4,875 135 270 -448
2019-09-20 04:34:26 GMT 52.288971 4.344101 4,900 135 273 -768
2019-09-20 04:34:23 GMT 52.290756 4.341202 4,900 135 274 -960
2019-09-20 04:34:20 GMT 52.293106 4.337481 4,950 135 275 -1280
2019-09-20 04:34:17 GMT 52.295471 4.333649 5,050 135 276 -1472
2019-09-20 04:34:14 GMT 52.298225 4.329320 5,150 135 276 -1472
2019-09-20 04:34:11 GMT 52.301533 4.324062 5,175 135 276 -1472
2019-09-20 04:34:08 GMT 52.304626 4.319077 5,225 135 277 -1536
2019-09-20 04:34:04 GMT 52.307922 4.313812 5,375 135 277 -1536
2019-09-20 04:34:01 GMT 52.310898 4.309158 5,425 135 278 -1600
2019-09-20 04:33:58 GMT 52.313095 4.305649 5,525 135 279 -1600
2019-09-20 04:33:55 GMT 52.316025 4.300919 5,625 135 279 -1600
2019-09-20 04:33:52 GMT 52.318802 4.296518 5,675 135 279 -1600
2019-09-20 04:33:49 GMT 52.321411 4.292358 5,725 135 280 -1600
2019-09-20 04:33:45 GMT 52.326004 4.284973 5,875 135 280 -1536
2019-09-20 04:33:42 GMT 52.328247 4.281464 5,925 135 280 -1536
2019-09-20 04:33:39 GMT 52.330444 4.277878 5,975 135 280 -1536
2019-09-20 04:33:35 GMT 52.335251 4.270096 6,150 135 281 -1664
2019-09-20 04:33:32 GMT 52.338181 4.265366 6,225 135 281 -1664
2019-09-20 04:33:28 GMT 52.340961 4.260890 6,250 135 282 -1728
2019-09-20 04:33:25 GMT 52.343571 4.256653 6,375 135 282 -1728
2019-09-20 04:33:22 GMT 52.346741 4.251556 6,425 135 282 -1792
2019-09-20 04:33:19 GMT 52.349529 4.247079 6,600 135 284 -1728
2019-09-20 04:33:16 GMT 52.352325 4.242554 6,675 135 284 -1728
2019-09-20 04:33:13 GMT 52.354614 4.238968 6,700 135 284 -1728
2019-09-20 04:33:10 GMT 52.358559 4.232640 6,775 135 285 -1728
2019-09-20 04:33:07 GMT 52.360466 4.229579 6,850 135 286 -1792
2019-09-20 04:33:04 GMT 52.363865 4.224165 7,025 135 286 -2048
2019-09-20 04:33:01 GMT 52.367432 4.218445 7,125 135 286 -2048
2019-09-20 04:32:58 GMT 52.369171 4.215768 7,200 135 286 -2048
2019-09-20 04:32:55 GMT 52.371780 4.211530 7,300 135 286 -2048
2019-09-20 04:32:52 GMT 52.378418 4.200897 7,425 135 287 -2048
2019-09-20 04:32:49 GMT 52.378418 4.200897 7,500 135 287 -2048
2019-09-20 04:32:45 GMT 52.381649 4.195757 7,625 135 287 -2048
2019-09-20 04:32:42 GMT 52.383884 4.192069 7,700 135 287 -1984
2019-09-20 04:32:38 GMT 52.388073 4.185399 7,875 135 287 -1984
2019-09-20 04:32:35 GMT 52.391098 4.180455 8,100 135 289 -1984
2019-09-20 04:32:32 GMT 52.393936 4.175949 8,025 135 287 -1984
2019-09-20 04:32:28 GMT 52.397736 4.169769 8,200 135 289 -1984
2019-09-20 04:32:24 GMT 52.404366 4.159031 8,350 135 289 -1984
2019-09-20 04:32:18 GMT 52.407257 4.154434 8,575 135 291 -2112
2019-09-20 04:32:15 GMT 52.410091 4.149772 8,575 135 290 -2048
2019-09-20 04:32:12 GMT 52.412792 4.145455 8,650 135 291 -2176
2019-09-20 04:32:09 GMT 52.418289 4.136505 8,800 135 289 -2304
2019-09-20 04:32:06 GMT 52.418289 4.136505 9,600 135 292 -1344
2019-09-20 04:32:03 GMT 52.422134 4.130325 9,000 135 292 -1344
2019-09-20 04:32:00 GMT 52.424244 4.126936 9,075 135 294 -1344
2019-09-20 04:31:57 GMT 52.426945 4.122541 9,100 135 294 -1344
2019-09-20 04:31:53 GMT 52.431381 4.115372 9,200 135 294 -1344
2019-09-20 04:31:50 GMT 52.434036 4.110947 9,275 135 294 -1344
2019-09-20 04:31:47 GMT 52.436954 4.106219 9,325 135 294 -1280
2019-09-20 04:31:44 GMT 52.439236 4.102452 9,375 135 295 -1280
2019-09-20 04:31:41 GMT 52.442551 4.097061 9,425 135 295 -1280
2019-09-20 04:31:38 GMT 52.445618 4.092026 9,525 134 296 -1344
2019-09-20 04:31:35 GMT 52.448872 4.086600 9,575 134 296 -1344
2019-09-20 04:31:30 GMT 52.453152 4.079616 9,675 134 296 -1344
2019-09-20 04:31:27 GMT 52.456642 4.073887 9,725 134 297 -1344
2019-09-20 04:31:24 GMT 52.458553 4.070670 9,775 134 297 -1344
2019-09-20 04:31:20 GMT 52.462837 4.063686 9,900 134 298 -1344
2019-09-20 04:31:17 GMT 52.466904 4.056931 9,950 134 298 -1344
2019-09-20 04:31:14 GMT 52.468460 4.054413 10,075 134 299 -1344
2019-09-20 04:31:11 GMT 52.472145 4.048305 10,100 134 299 -1344
2019-09-20 04:31:08 GMT 52.475266 4.043126 10,175 134 299 -1344
2019-09-20 04:31:05 GMT 52.477219 4.039908 10,200 134 299 -1344
2019-09-20 04:31:02 GMT 52.480911 4.033813 10,350 134 299 -1280
2019-09-20 04:30:58 GMT 52.484203 4.028294 10,350 134 301 -1344
2019-09-20 04:30:55 GMT 52.487137 4.023514 10,400 134 301 -1344
2019-09-20 04:30:52 GMT 52.491280 4.016680 10,525 134 301 -1344
2019-09-20 04:30:49 GMT 52.493042 4.013748 10,625 134 301 -1344
2019-09-20 04:30:46 GMT 52.496353 4.008205 10,600 134 302 -1344
2019-09-20 04:30:43 GMT 52.498535 4.004669 10,675 134 303 -1344
2019-09-20 04:30:40 GMT 52.504807 3.994217 11,050 134 305 -1024
2019-09-20 04:30:37 GMT 52.504807 3.994217 10,800 134 303 -1280
2019-09-20 04:30:34 GMT 52.507759 3.989293 10,875 134 304 -1216
2019-09-20 04:30:31 GMT 52.510551 3.984663 10,975 134 305 -1088
2019-09-20 04:30:28 GMT 52.516090 3.975481 11,025 134 306 -960
2019-09-20 04:30:22 GMT 52.523071 3.963928 11,125 135 325 -640
2019-09-20 04:30:19 GMT 52.523071 3.963928 11,100 134 309 -704
2019-09-20 04:30:16 GMT 52.525497 3.959885 11,125 134 311 -640
2019-09-20 04:30:13 GMT 52.528336 3.955231 11,150 134 311 -640
2019-09-20 04:30:10 GMT 52.532200 3.948800 11,200 134 315 -576
2019-09-20 04:30:07 GMT 52.535294 3.943710 11,225 134 317 -576
2019-09-20 04:30:04 GMT 52.537971 3.939305 11,250 134 318 -576
2019-09-20 04:30:01 GMT 52.541519 3.933487 11,275 134 320 -576
2019-09-20 04:29:58 GMT 52.543991 3.929367 11,300 135 321 -640
2019-09-20 04:29:55 GMT 52.547607 3.923532 11,350 135 323 -640
2019-09-20 04:29:52 GMT 52.550121 3.919373 11,375 135 325 -640
2019-09-20 04:29:49 GMT 52.554611 3.911972 11,400 135 328 -640
2019-09-20 04:29:46 GMT 52.557175 3.907776 11,450 135 330 -640
2019-09-20 04:29:43 GMT 52.560410 3.902501 11,475 135 331 -640
2019-09-20 04:29:39 GMT 52.564087 3.896408 11,525 135 334 -704
2019-09-20 04:29:36 GMT 52.568024 3.889999 11,550 135 335 -640
2019-09-20 04:29:33 GMT 52.570885 3.885315 11,575 135 337 -640
2019-09-20 04:29:30 GMT 52.573792 3.880615 11,600 135 339 -576
2019-09-20 04:29:27 GMT 52.578232 3.873367 11,650 135 342 -576
2019-09-20 04:29:24 GMT 52.581390 3.868256 11,650 135 345 -576
2019-09-20 04:29:21 GMT 52.585464 3.861618 11,700 135 346 -576
2019-09-20 04:29:18 GMT 52.587708 3.857880 11,700 135 347 -640
2019-09-20 04:29:15 GMT 52.592064 3.850786 11,775 135 353 -768
2019-09-20 04:29:12 GMT 52.594810 3.846313 12,225 134 370 -768
2019-09-20 04:29:09 GMT 52.597607 3.841762 11,825 135 354 -768
2019-09-20 04:29:06 GMT 52.601795 3.834935 11,825 135 355 -768
2019-09-20 04:29:03 GMT 52.605286 3.829193 11,900 135 358 -832
2019-09-20 04:29:00 GMT 52.609756 3.821908 11,950 135 361 -1024
2019-09-20 04:28:56 GMT 52.613991 3.814924 12,000 135 363 -1280
2019-09-20 04:28:52 GMT 52.618275 3.807940 12,075 135 363 -1472
2019-09-20 04:28:49 GMT 52.621578 3.802447 12,500 134 372 -832
2019-09-20 04:28:46 GMT 52.625908 3.795384 12,250 134 366 -1344
2019-09-20 04:28:43 GMT 52.634056 3.781887 12,300 134 367 -1152
2019-09-20 04:28:40 GMT 52.634056 3.781887 12,325 134 369 -896
2019-09-20 04:28:37 GMT 52.636185 3.778305 12,400 134 370 -768
2019-09-20 04:28:34 GMT 52.640030 3.771820 12,450 134 373 -832
2019-09-20 04:28:31 GMT 52.644112 3.764936 12,475 134 374 -832
2019-09-20 04:28:28 GMT 52.647972 3.758423 12,500 133 375 -896
2019-09-20 04:28:25 GMT 52.650349 3.754264 12,575 133 377 -896
2019-09-20 04:28:22 GMT 52.654449 3.747253 12,600 133 377 -960
2019-09-20 04:28:19 GMT 52.658077 3.741080 12,625 133 379 -960
2019-09-20 04:28:16 GMT 52.661472 3.735195 12,675 133 379 -1024
2019-09-20 04:28:13 GMT 52.664871 3.729388 12,750 133 380 -1024
2019-09-20 04:28:09 GMT 52.669968 3.720551 12,775 133 384 -1088
2019-09-20 04:28:05 GMT 52.674866 3.712082 12,850 133 386 -1280
2019-09-20 04:28:02 GMT 52.677841 3.706970 12,900 133 386 -1408
2019-09-20 04:27:59 GMT 52.682785 3.698502 13,000 133 388 -1920
2019-09-20 04:27:56 GMT 52.686985 3.691249 13,075 133 389 -1600
2019-09-20 04:27:53 GMT 52.689964 3.686070 13,150 133 389 -1472
2019-09-20 04:27:50 GMT 52.693455 3.680106 13,200 133 392 -896
2019-09-20 04:27:47 GMT 52.698761 3.670959 13,275 133 395 -896
2019-09-20 04:27:44 GMT 52.701279 3.666611 13,300 133 398 -960
2019-09-20 04:27:41 GMT 52.704582 3.660880 13,325 133 398 -960
2019-09-20 04:27:38 GMT 52.708679 3.653896 13,450 133 403 -1408
2019-09-20 04:27:34 GMT 52.714050 3.644562 13,475 133 403 -1664
2019-09-20 04:27:31 GMT 52.717667 3.638306 13,625 133 406 -1728
2019-09-20 04:27:28 GMT 52.721527 3.631609 13,650 133 412 -2496
2019-09-20 04:27:25 GMT 52.724648 3.626273 13,750 133 408 -1792
2019-09-20 04:27:22 GMT 52.729065 3.618622 13,875 133 410 -2112
2019-09-20 04:27:19 GMT 52.734001 3.610029 13,950 133 410 -2240
2019-09-20 04:27:15 GMT 52.737946 3.603287 14,100 133 410 -2240
2019-09-20 04:27:12 GMT 52.742382 3.595590 14,150 133 410 -2368
2019-09-20 04:27:09 GMT 52.746323 3.588791 14,300 133 411 -2432
2019-09-20 04:27:06 GMT 52.751038 3.580627 14,750 133 412 -2496
2019-09-20 04:27:02 GMT 52.759460 3.566132 14,600 133 412 -2496
2019-09-20 04:26:59 GMT 52.759460 3.566132 14,725 133 412 -2432
2019-09-20 04:26:56 GMT 52.763378 3.559335 14,925 133 413 -2432
2019-09-20 04:26:53 GMT 52.767334 3.552475 14,925 133 413 -2432
2019-09-20 04:26:50 GMT 52.771042 3.546143 15,025 133 413 -2368
2019-09-20 04:26:47 GMT 52.774967 3.539246 15,150 133 413 -2304
2019-09-20 04:26:44 GMT 52.779205 3.532026 15,250 133 414 -2048
2019-09-20 04:26:41 GMT 52.782669 3.526077 15,475 133 416 -1600
2019-09-20 04:26:38 GMT 52.787430 3.517761 15,450 133 418 -1728
2019-09-20 04:26:35 GMT 52.794937 3.504944 16,400 133 421 -2368
2019-09-20 04:26:32 GMT 52.794937 3.504944 15,625 133 418 -2304
2019-09-20 04:26:29 GMT 52.800293 3.495712 15,900 133 420 -2304
2019-09-20 04:26:26 GMT 52.802948 3.491058 15,900 133 420 -2304
2019-09-20 04:26:23 GMT 52.808067 3.482274 16,025 133 420 -2368
2019-09-20 04:26:20 GMT 52.811279 3.476702 16,075 133 420 -2368
2019-09-20 04:26:16 GMT 52.817192 3.466500 16,250 133 421 -2432
2019-09-20 04:26:12 GMT 52.822033 3.458104 16,575 133 423 -2304
2019-09-20 04:26:09 GMT 52.825756 3.451590 16,975 133 425 -2368
2019-09-20 04:26:06 GMT 52.834076 3.437042 16,625 133 423 -2304
2019-09-20 04:26:03 GMT 52.834076 3.437042 16,800 133 423 -2304
2019-09-20 04:26:00 GMT 52.838379 3.429489 16,850 133 425 -2368
2019-09-20 04:25:57 GMT 52.843231 3.421021 17,000 133 425 -2368
2019-09-20 04:25:54 GMT 52.846481 3.415375 17,075 133 425 -2368
2019-09-20 04:25:51 GMT 52.850281 3.408813 17,225 133 429 -2496
2019-09-20 04:25:48 GMT 52.855682 3.399353 17,325 133 426 -2368
2019-09-20 04:25:45 GMT 52.858383 3.394623 17,375 133 427 -2368
2019-09-20 04:25:42 GMT 52.862488 3.387556 17,450 133 427 -2368
2019-09-20 04:25:39 GMT 52.865746 3.381906 17,600 133 428 -2432
2019-09-20 04:25:36 GMT 52.871750 3.371469 17,775 133 428 -2432
2019-09-20 04:25:33 GMT 52.874451 3.366682 17,875 133 428 -2496
2019-09-20 04:25:30 GMT 52.879337 3.358128 18,000 133 429 -2560
2019-09-20 04:25:27 GMT 52.885071 3.348160 18,175 133 429 -2496
2019-09-20 04:25:24 GMT 52.887268 3.344345 18,250 133 430 -2368
2019-09-20 04:25:21 GMT 52.890564 3.338547 18,475 133 431 -2368
2019-09-20 04:25:18 GMT 52.895462 3.330002 18,400 133 430 -2304
2019-09-20 04:25:15 GMT 52.903404 3.316066 18,650 133 432 -2368
2019-09-20 04:25:12 GMT 52.903404 3.316066 18,675 133 432 -2368
2019-09-20 04:25:09 GMT 52.907547 3.308868 18,925 133 434 -2368
2019-09-20 04:25:06 GMT 52.911694 3.301705 18,850 133 433 -2368
2019-09-20 04:25:03 GMT 52.919933 3.287266 19,925 133 459 -2432
2019-09-20 04:25:00 GMT 52.919933 3.287266 19,650 133 438 -2304
2019-09-20 04:24:57 GMT 52.924072 3.279953 19,250 133 435 -2496
2019-09-20 04:24:54 GMT 52.927414 3.274155 19,300 133 435 -2496
2019-09-20 04:24:51 GMT 52.932404 3.265457 19,600 133 437 -2304
2019-09-20 04:24:48 GMT 52.936249 3.258667 19,925 133 440 -2432
2019-09-20 04:24:45 GMT 52.940414 3.251325 19,700 133 438 -2304
2019-09-20 04:24:42 GMT 52.944885 3.243556 19,925 133 440 -2368
2019-09-20 04:24:39 GMT 52.949863 3.234767 20,000 133 440 -2432
2019-09-20 04:24:36 GMT 52.952957 3.229370 20,075 133 440 -2432
2019-09-20 04:24:33 GMT 52.957127 3.221976 20,175 133 441 -2368
2019-09-20 04:24:30 GMT 52.961597 3.214129 20,350 133 442 -2304
2019-09-20 04:24:27 GMT 52.966064 3.206281 20,450 133 442 -2368
2019-09-20 04:24:24 GMT 52.969975 3.199376 20,575 133 449 -2432
2019-09-20 04:24:21 GMT 52.975891 3.189011 20,600 133 443 -2368
2019-09-20 04:24:18 GMT 52.978134 3.185043 20,725 133 444 -2432
2019-09-20 04:24:15 GMT 52.987434 3.168692 21,100 133 449 -2432
2019-09-20 04:24:12 GMT 52.987434 3.168692 20,975 133 445 -2432
2019-09-20 04:24:09 GMT 52.990829 3.162728 21,250 133 446 -2432
2019-09-20 04:24:06 GMT 52.999306 3.147818 21,425 133 447 -2368
2019-09-20 04:24:03 GMT 52.999306 3.147818 21,425 133 449 -2432
2019-09-20 04:24:00 GMT 53.005280 3.137360 21,475 133 449 -2368
2019-09-20 04:23:57 GMT 53.008667 3.131332 21,525 133 449 -2432
2019-09-20 04:23:54 GMT 53.012100 3.125381 21,625 133 449 -2432
2019-09-20 04:23:51 GMT 53.020950 3.109837 21,950 133 451 -2432
2019-09-20 04:23:48 GMT 53.020950 3.109837 21,925 133 452 -2432
2019-09-20 04:23:45 GMT 53.025238 3.102264 22,000 133 452 -2432
2019-09-20 04:23:42 GMT 53.034126 3.086609 22,225 133 453 -2432
2019-09-20 04:23:39 GMT 53.034126 3.086609 22,350 133 454 -2432
2019-09-20 04:23:35 GMT 53.039566 3.077011 22,425 133 454 -2432
2019-09-20 04:23:32 GMT 53.044144 3.068924 22,475 133 454 -2432
2019-09-20 04:23:29 GMT 53.049316 3.059769 22,700 133 455 -2432
2019-09-20 04:23:26 GMT 53.053940 3.051605 22,800 133 456 -2432
2019-09-20 04:23:23 GMT 53.056515 3.047058 23,050 133 457 -2432
2019-09-20 04:23:20 GMT 53.061447 3.038330 23,000 133 457 -2432
2019-09-20 04:23:17 GMT 53.066338 3.029637 23,400 133 457 -2432
2019-09-20 04:23:14 GMT 53.070099 3.022995 23,250 133 459 -2432
2019-09-20 04:23:11 GMT 53.074440 3.015276 23,300 133 459 -2432
2019-09-20 04:23:08 GMT 53.078487 3.008135 23,400 133 459 -2432
2019-09-20 04:23:05 GMT 53.084015 2.998352 23,625 133 461 -2432
2019-09-20 04:23:02 GMT 53.087799 2.991656 23,700 133 461 -2432
2019-09-20 04:22:58 GMT 53.093060 2.982396 23,800 133 461 -2368
2019-09-20 04:22:55 GMT 53.097473 2.974627 24,000 133 462 -2432
2019-09-20 04:22:52 GMT 53.102142 2.966387 24,150 133 463 -2432
2019-09-20 04:22:49 GMT 53.107121 2.957584 24,275 133 464 -2432
2019-09-20 04:22:46 GMT 53.110931 2.950849 24,325 133 464 -2432
2019-09-20 04:22:43 GMT 53.115646 2.942531 24,425 133 465 -2432
2019-09-20 04:22:40 GMT 53.120361 2.934134 24,575 133 466 -2432
2019-09-20 04:22:37 GMT 53.122993 2.929472 24,650 133 467 -2432
2019-09-20 04:22:34 GMT 53.128006 2.920558 24,800 133 467 -2432
2019-09-20 04:22:31 GMT 53.132442 2.912750 24,900 133 467 -2432
2019-09-20 04:22:27 GMT 53.138309 2.902249 25,000 133 469 -2432
2019-09-20 04:22:24 GMT 53.143936 2.892308 25,250 133 470 -2368
2019-09-20 04:22:21 GMT 53.147202 2.886496 25,300 133 469 -2432
2019-09-20 04:22:18 GMT 53.152554 2.877045 25,400 133 470 -2368
2019-09-20 04:22:15 GMT 53.155838 2.871277 25,475 133 470 -2368
2019-09-20 04:22:12 GMT 53.161446 2.861211 25,925 133 473 -2432
2019-09-20 04:22:09 GMT 53.166843 2.851679 25,825 133 472 -2432
2019-09-20 04:22:06 GMT 53.170120 2.845851 25,875 133 473 -2432
2019-09-20 04:22:03 GMT 53.175179 2.836815 26,050 133 473 -2432
2019-09-20 04:22:00 GMT 53.178452 2.830941 26,125 133 474 -2432
2019-09-20 04:21:57 GMT 53.182953 2.823002 26,225 133 474 -2432
2019-09-20 04:21:54 GMT 53.188019 2.813913 26,300 132 475 -2432
2019-09-20 04:21:51 GMT 53.196442 2.798924 27,550 132 476 -2496
2019-09-20 04:21:48 GMT 53.196442 2.798924 26,575 132 476 -2496
2019-09-20 04:21:45 GMT 53.203033 2.787074 26,900 132 481 0
2019-09-20 04:21:42 GMT 53.206009 2.781738 26,900 132 481 0
2019-09-20 04:21:39 GMT 53.211117 2.772594 27,050 132 479 -2432
2019-09-20 04:21:36 GMT 53.216263 2.763375 27,125 132 480 -2432
2019-09-20 04:21:32 GMT 53.220798 2.755226 27,175 132 480 -2432
2019-09-20 04:21:29 GMT 53.225327 2.747131 27,450 132 481 -2432
2019-09-20 04:21:26 GMT 53.230133 2.738421 27,475 132 481 -2432
2019-09-20 04:21:23 GMT 53.234066 2.731395 27,575 132 482 -2432
2019-09-20 04:21:20 GMT 53.238647 2.723197 27,775 132 483 -2432
2019-09-20 04:21:17 GMT 53.243191 2.714996 27,800 132 484 -2432
2019-09-20 04:21:14 GMT 53.248352 2.705776 27,975 132 484 -2496
2019-09-20 04:21:11 GMT 53.252918 2.697547 28,125 132 486 -2432
2019-09-20 04:21:08 GMT 53.257202 2.689873 28,275 133 486 -2496
2019-09-20 04:21:05 GMT 53.261810 2.681684 28,300 132 487 -2496
2019-09-20 04:21:02 GMT 53.266708 2.672895 28,500 132 488 -2496
2019-09-20 04:20:59 GMT 53.271606 2.664028 28,625 132 491 -2496
2019-09-20 04:20:56 GMT 53.275314 2.657436 28,975 132 491 -2432
2019-09-20 04:20:53 GMT 53.279922 2.649159 28,800 132 491 -2432
2019-09-20 04:20:50 GMT 53.289742 2.631387 29,025 132 491 -2432
2019-09-20 04:20:47 GMT 53.289742 2.631387 29,125 132 492 -2432
2019-09-20 04:20:44 GMT 53.294403 2.623064 29,175 132 494 -2432
2019-09-20 04:20:41 GMT 53.299660 2.613534 29,525 132 496 -2496
2019-09-20 04:20:35 GMT 53.308640 2.597325 29,500 132 496 -2432
2019-09-20 04:20:32 GMT 53.312393 2.590655 29,675 132 496 -2560
2019-09-20 04:20:29 GMT 53.317978 2.580532 29,850 132 497 -2816
2019-09-20 04:20:26 GMT 53.322048 2.573224 29,975 132 498 -2944
2019-09-20 04:20:23 GMT 53.328289 2.561996 30,100 132 498 -3136
2019-09-20 04:20:20 GMT 53.331455 2.556341 30,175 132 493 -3456
2019-09-20 04:20:17 GMT 53.335831 2.548424 30,275 132 498 -3392
2019-09-20 04:20:14 GMT 53.341141 2.538862 30,575 132 497 -3392
2019-09-20 04:20:11 GMT 53.346725 2.528739 30,750 132 497 -3328
2019-09-20 04:20:08 GMT 53.359524 2.505691 31,025 132 497 -3328
2019-09-20 04:20:04 GMT 53.359524 2.505691 31,275 132 496 -3328
2019-09-20 04:20:01 GMT 53.367626 2.491069 32,425 132 496 -3392
2019-09-20 04:19:58 GMT 53.367626 2.491069 31,475 132 496 -3392
2019-09-20 04:19:55 GMT 53.371395 2.484283 31,625 132 496 -3392
2019-09-20 04:19:52 GMT 53.375427 2.477025 31,775 132 496 -3392
2019-09-20 04:19:49 GMT 53.381058 2.466902 31,950 132 496 -3392
2019-09-20 04:19:43 GMT 53.393463 2.444458 32,275 132 495 -3456
2019-09-20 04:19:40 GMT 53.393463 2.444458 32,400 132 494 -3456
2019-09-20 04:19:37 GMT 53.398117 2.436057 35,075 132 493 -3456
2019-09-20 04:19:34 GMT 53.403397 2.426566 32,825 132 493 -3328
2019-09-20 04:19:31 GMT 53.407700 2.418719 33,200 132 493 -3264
2019-09-20 04:19:28 GMT 53.411407 2.412048 33,075 132 493 -3264
2019-09-20 04:19:25 GMT 53.418182 2.399728 33,275 132 491 -3264
2019-09-20 04:19:22 GMT 53.421890 2.392979 33,775 132 491 -3200
2019-09-20 04:19:19 GMT 53.427120 2.383468 33,600 132 491 -3200
2019-09-20 04:19:16 GMT 53.429901 2.378462 33,725 132 491 -3200
2019-09-20 04:19:13 GMT 53.436337 2.366665 33,925 132 491 -3200
2019-09-20 04:19:10 GMT 53.440014 2.359960 34,025 132 491 -3200
2019-09-20 04:19:07 GMT 53.444595 2.351624 34,175 132 490 -3200
2019-09-20 04:19:04 GMT 53.454391 2.333732 34,450 132 489 -3264
2019-09-20 04:19:01 GMT 53.454391 2.333732 34,550 132 489 -3264
2019-09-20 04:18:58 GMT 53.458355 2.326517 34,725 132 489 -3264
2019-09-20 04:18:55 GMT 53.467525 2.309875 34,975 132 488 -3264
2019-09-20 04:18:52 GMT 53.467525 2.309875 35,075 132 486 -3264
2019-09-20 04:18:49 GMT 53.472973 2.299859 35,200 132 486 -3200
2019-09-20 04:18:46 GMT 53.476650 2.293234 35,850 132 485 -2880
2019-09-20 04:18:43 GMT 53.485775 2.276674 35,575 132 485 -2880
2019-09-20 04:18:40 GMT 53.485775 2.276674 35,750 132 485 -2816
2019-09-20 04:18:37 GMT 53.490616 2.267788 35,850 132 485 -2688
2019-09-20 04:18:34 GMT 53.495178 2.259495 35,900 132 485 -2560
2019-09-20 04:18:31 GMT 53.499741 2.251228 35,975 132 486 -2560
2019-09-20 04:18:28 GMT 53.503979 2.243473 36,225 132 486 -2176
2019-09-20 04:18:25 GMT 53.508259 2.235718 36,300 132 486 -2176
2019-09-20 04:18:22 GMT 53.512802 2.227400 36,575 132 491 -1344
2019-09-20 04:18:19 GMT 53.518593 2.216815 36,500 132 489 -1664
2019-09-20 04:18:16 GMT 53.523193 2.208487 36,600 132 490 -1536
2019-09-20 04:18:13 GMT 53.527161 2.201224 36,675 132 491 -1344
2019-09-20 04:18:10 GMT 53.533306 2.189995 36,750 132 492 -1280
2019-09-20 04:18:07 GMT 53.536377 2.184341 36,750 132 492 -1280
2019-09-20 04:18:04 GMT 53.541916 2.174243 36,875 132 494 -960
2019-09-20 04:18:01 GMT 53.546200 2.166326 36,900 132 495 -832
2019-09-20 04:17:58 GMT 53.550842 2.157872 36,950 132 496 -704
2019-09-20 04:17:55 GMT 53.553650 2.152755 36,975 132 497 -384
2019-09-20 04:17:52 GMT 53.560135 2.140765 37,000 132 498 -64
2019-09-20 04:17:49 GMT 53.564171 2.133367 37,000 132 498 0
2019-09-20 04:17:46 GMT 53.568878 2.124834 37,000 132 499 0
2019-09-20 04:17:43 GMT 53.574131 2.115111 37,000 132 500 0
2019-09-20 04:17:40 GMT 53.577251 2.109375 37,000 132 500 0
2019-09-20 04:17:37 GMT 53.581627 2.101378 37,000 132 500 0
2019-09-20 04:17:34 GMT 53.587212 2.091118 37,000 132 500 0
2019-09-20 04:17:31 GMT 53.592239 2.081909 37,000 132 500 0
2019-09-20 04:17:27 GMT 53.600647 2.066450 37,000 132 500 0
2019-09-20 04:17:24 GMT 53.607468 2.053894 37,000 132 499 0
2019-09-20 04:17:21 GMT 53.607468 2.053894 37,000 132 500 0
2019-09-20 04:17:18 GMT 53.613373 2.042972 37,000 132 500 0
2019-09-20 04:17:15 GMT 53.618042 2.034354 37,000 132 500 0
2019-09-20 04:17:11 GMT 53.624908 2.021720 37,000 132 500 0
2019-09-20 04:17:08 GMT 53.628922 2.014295 37,000 132 500 0
2019-09-20 04:17:05 GMT 53.637955 1.997628 37,000 132 500 0
2019-09-20 04:17:02 GMT 53.637955 1.997628 37,000 132 500 0
2019-09-20 04:16:59 GMT 53.641708 1.990723 37,000 132 500 0
2019-09-20 04:16:56 GMT 53.651001 1.973458 37,000 132 500 0
2019-09-20 04:16:50 GMT 53.656296 1.963725 37,000 132 500 0
2019-09-20 04:16:47 GMT 53.660339 1.956273 37,000 132 500 0
2019-09-20 04:16:44 GMT 53.666260 1.945388 37,000 132 500 0
2019-09-20 04:16:41 GMT 53.675568 1.928101 37,000 132 499 0
2019-09-20 04:16:38 GMT 53.675568 1.928101 37,000 132 499 0
2019-09-20 04:16:35 GMT 53.679611 1.920646 37,000 132 499 0
2019-09-20 04:16:31 GMT 53.684879 1.910894 37,000 132 499 0
2019-09-20 04:16:28 GMT 53.690186 1.901106 37,000 132 499 0
2019-09-20 04:16:25 GMT 53.694489 1.893023 37,000 132 499 0
2019-09-20 04:16:22 GMT 53.701031 1.880924 37,000 132 499 0
2019-09-20 04:16:19 GMT 53.703499 1.876319 37,000 132 499 0
2019-09-20 04:16:16 GMT 53.708771 1.866577 37,000 132 499 0
2019-09-20 04:16:13 GMT 53.713120 1.858494 37,000 132 499 0
2019-09-20 04:16:10 GMT 53.717468 1.850490 37,000 132 499 0
2019-09-20 04:16:07 GMT 53.722725 1.840695 37,000 132 499 0
2019-09-20 04:16:04 GMT 53.726761 1.833147 37,000 132 499 0
2019-09-20 04:16:01 GMT 53.732300 1.822789 37,000 132 499 0
2019-09-20 04:15:58 GMT 53.737289 1.813607 37,000 132 499 0
2019-09-20 04:15:55 GMT 53.741299 1.806120 37,000 132 499 -64
2019-09-20 04:15:52 GMT 53.748749 1.792306 37,000 132 499 0
2019-09-20 04:15:49 GMT 53.750931 1.788260 37,000 132 499 0
2019-09-20 04:15:46 GMT 53.754639 1.781276 37,000 132 499 0
2019-09-20 04:15:43 GMT 53.760223 1.770918 37,000 132 499 0
2019-09-20 04:15:40 GMT 53.764572 1.762835 37,000 132 499 0
2019-09-20 04:15:37 GMT 53.768921 1.754830 37,000 132 499 0
2019-09-20 04:15:34 GMT 53.773560 1.746180 37,000 132 499 0
2019-09-20 04:15:31 GMT 53.778214 1.737488 37,000 132 499 0
2019-09-20 04:15:28 GMT 53.782825 1.728812 37,000 132 500 0
2019-09-20 04:15:25 GMT 53.787506 1.720145 37,000 132 500 0
2019-09-20 04:15:22 GMT 53.794281 1.707511 37,000 132 500 0
2019-09-20 04:15:19 GMT 53.801102 1.694798 37,000 132 499 0
2019-09-20 04:15:16 GMT 53.801102 1.694798 37,000 132 499 0
2019-09-20 04:15:13 GMT 53.807281 1.683184 37,000 132 499 0
2019-09-20 04:15:10 GMT 53.810989 1.676278 37,000 132 499 0
2019-09-20 04:15:07 GMT 53.815041 1.668791 37,000 132 499 0
2019-09-20 04:15:04 GMT 53.820282 1.658936 37,000 132 499 0
2019-09-20 04:15:01 GMT 53.825512 1.649161 37,000 132 499 0
2019-09-20 04:14:58 GMT 53.830170 1.640416 37,000 132 499 0
2019-09-20 04:14:55 GMT 53.833878 1.633510 37,000 132 499 0
2019-09-20 04:14:52 GMT 53.838821 1.624250 37,000 132 499 0
2019-09-20 04:14:49 GMT 53.844086 1.614425 37,000 132 499 0
2019-09-20 04:14:46 GMT 53.848068 1.606907 37,000 132 499 0
2019-09-20 04:14:43 GMT 53.852699 1.598188 37,000 132 499 0
2019-09-20 04:14:40 GMT 53.857361 1.589486 37,000 132 499 0
2019-09-20 04:14:37 GMT 53.861961 1.580820 37,000 132 499 0
2019-09-20 04:14:34 GMT 53.866295 1.572741 37,000 132 499 0
2019-09-20 04:14:31 GMT 53.872192 1.561707 37,000 132 499 0
2019-09-20 04:14:28 GMT 53.875557 1.555373 37,000 132 499 0
2019-09-20 04:14:25 GMT 53.880203 1.546640 37,000 132 499 0
2019-09-20 04:14:22 GMT 53.884506 1.538557 37,000 131 499 0
2019-09-20 04:14:19 GMT 53.891327 1.525766 37,000 131 499 0
2019-09-20 04:14:16 GMT 53.894691 1.519345 37,000 131 499 0
2019-09-20 04:14:13 GMT 53.898697 1.511797 37,000 131 499 0
2019-09-20 04:14:10 GMT 53.903954 1.501976 37,000 131 499 0
2019-09-20 04:14:07 GMT 53.907990 1.494376 37,000 131 499 0
2019-09-20 04:14:03 GMT 53.916897 1.477580 37,000 131 499 0
2019-09-20 04:14:00 GMT 53.920013 1.471764 37,000 131 499 0
2019-09-20 04:13:57 GMT 53.923084 1.465948 37,000 131 499 0
2019-09-20 04:13:54 GMT 53.928627 1.455446 37,000 131 499 0
2019-09-20 04:13:51 GMT 53.933258 1.446742 37,000 131 499 0
2019-09-20 04:13:48 GMT 53.942505 1.429243 37,000 131 500 0
2019-09-20 04:13:45 GMT 53.942505 1.429243 37,000 131 500 0
2019-09-20 04:13:42 GMT 53.947403 1.419904 37,000 131 500 0
2019-09-20 04:13:39 GMT 53.951111 1.412920 37,000 131 500 0
2019-09-20 04:13:36 GMT 53.960358 1.395421 37,000 131 500 0
2019-09-20 04:13:33 GMT 53.960358 1.395421 37,000 131 500 0
2019-09-20 04:13:30 GMT 53.965588 1.385570 37,000 131 499 0
2019-09-20 04:13:27 GMT 53.969265 1.378542 37,000 131 499 0
2019-09-20 04:13:24 GMT 53.975410 1.366909 37,000 131 499 0
2019-09-20 04:13:21 GMT 53.978485 1.361093 37,000 131 499 0
2019-09-20 04:13:18 GMT 53.984344 1.349984 37,000 131 499 0
2019-09-20 04:13:15 GMT 53.988052 1.343000 37,000 131 499 0
2019-09-20 04:13:12 GMT 53.992634 1.334273 37,000 131 499 0
2019-09-20 04:13:09 GMT 53.997253 1.325500 37,000 131 499 0
2019-09-20 04:13:06 GMT 54.002792 1.315063 37,000 131 499 0
2019-09-20 04:13:03 GMT 54.007393 1.306323 37,000 131 499 0
2019-09-20 04:13:00 GMT 54.011070 1.299295 37,000 131 499 0
2019-09-20 04:12:57 GMT 54.015701 1.290580 37,000 131 499 0
2019-09-20 04:12:54 GMT 54.020287 1.281846 37,000 131 499 0
2019-09-20 04:12:51 GMT 54.025497 1.271903 37,000 131 499 0
2019-09-20 04:12:48 GMT 54.028564 1.266096 37,000 131 499 0
2019-09-20 04:12:45 GMT 54.034744 1.254403 37,000 131 499 0
2019-09-20 04:12:42 GMT 54.037811 1.248518 37,000 131 499 0
2019-09-20 04:12:39 GMT 54.043945 1.236904 37,000 131 498 0
2019-09-20 04:12:36 GMT 54.048203 1.228742 37,000 131 498 0
2019-09-20 04:12:33 GMT 54.052505 1.220503 37,000 131 498 0
2019-09-20 04:12:30 GMT 54.061707 1.203003 37,000 131 498 0
2019-09-20 04:12:27 GMT 54.061707 1.203003 37,000 131 498 0
2019-09-20 04:12:24 GMT 54.066280 1.194278 37,000 131 498 0
2019-09-20 04:12:21 GMT 54.075806 1.176165 37,000 131 498 0
2019-09-20 04:12:18 GMT 54.075806 1.176165 37,000 131 498 0
2019-09-20 04:12:15 GMT 54.080387 1.167378 37,000 131 499 0
2019-09-20 04:12:12 GMT 54.086533 1.155665 37,000 131 498 0
2019-09-20 04:12:09 GMT 54.090813 1.147506 37,000 131 499 0
2019-09-20 04:12:06 GMT 54.093887 1.141690 37,000 131 499 0
2019-09-20 04:12:03 GMT 54.099380 1.131107 37,000 131 499 0
2019-09-20 04:12:00 GMT 54.104919 1.120605 37,000 131 499 0
2019-09-20 04:11:57 GMT 54.112564 1.106009 37,000 131 499 0
2019-09-20 04:11:54 GMT 54.112564 1.106009 37,000 131 499 0
2019-09-20 04:11:51 GMT 54.116867 1.097770 37,000 131 499 0
2019-09-20 04:11:48 GMT 54.123001 1.086077 37,000 131 500 0
2019-09-20 04:11:45 GMT 54.126022 1.080191 37,000 131 500 -64
2019-09-20 04:11:42 GMT 54.131561 1.069598 37,000 131 499 -64
2019-09-20 04:11:38 GMT 54.137054 1.059004 37,000 131 499 -64
2019-09-20 04:11:35 GMT 54.141953 1.049587 37,000 131 500 0
2019-09-20 04:11:32 GMT 54.146210 1.041425 37,000 131 500 0
2019-09-20 04:11:29 GMT 54.150513 1.033186 37,000 131 500 0
2019-09-20 04:11:26 GMT 54.157524 1.019628 37,000 131 499 0
2019-09-20 04:11:23 GMT 54.160904 1.013175 37,000 131 499 0
2019-09-20 04:11:20 GMT 54.165485 1.004360 37,000 131 498 0
2019-09-20 04:11:17 GMT 54.169464 0.996774 37,000 131 498 0
2019-09-20 04:11:14 GMT 54.173443 0.989173 37,000 131 498 0
2019-09-20 04:11:11 GMT 54.178619 0.979117 37,000 131 498 0
2019-09-20 04:11:08 GMT 54.182613 0.971563 37,000 131 498 0
2019-09-20 04:11:05 GMT 54.188416 0.960362 37,000 131 498 0
2019-09-20 04:11:01 GMT 54.193600 0.950398 37,000 131 498 0
2019-09-20 04:10:58 GMT 54.197571 0.942705 37,000 131 498 0
2019-09-20 04:10:55 GMT 54.203377 0.931576 37,000 131 499 0
2019-09-20 04:10:52 GMT 54.207962 0.922773 37,000 131 499 0
2019-09-20 04:10:49 GMT 54.212860 0.913356 37,000 131 499 0
2019-09-20 04:10:46 GMT 54.217117 0.905116 37,000 131 499 0
2019-09-20 04:10:43 GMT 54.221115 0.897486 37,000 131 499 0
2019-09-20 04:10:40 GMT 54.226002 0.888035 37,000 131 499 0
2019-09-20 04:10:37 GMT 54.230286 0.879795 37,000 131 499 0
2019-09-20 04:10:34 GMT 54.235474 0.869803 37,000 131 500 0
2019-09-20 04:10:31 GMT 54.239410 0.862104 37,000 131 500 0
2019-09-20 04:10:28 GMT 54.243988 0.853245 37,000 131 499 0
2019-09-20 04:10:25 GMT 54.248245 0.844927 37,000 131 499 0
2019-09-20 04:10:22 GMT 54.252815 0.836092 37,000 131 499 0
2019-09-20 04:10:19 GMT 54.258636 0.824838 37,000 131 500 0
2019-09-20 04:10:16 GMT 54.263199 0.815977 37,000 131 500 0
2019-09-20 04:10:13 GMT 54.271454 0.800040 37,000 131 500 0
2019-09-20 04:10:07 GMT 54.275711 0.791800 37,000 131 500 0
2019-09-20 04:10:04 GMT 54.280563 0.782291 37,000 131 500 0
2019-09-20 04:10:01 GMT 54.286057 0.771628 37,000 131 500 0
2019-09-20 04:09:58 GMT 54.290012 0.763966 37,000 131 500 0
2019-09-20 04:09:55 GMT 54.293381 0.757491 37,000 131 500 0
2019-09-20 04:09:52 GMT 54.298576 0.747403 37,000 131 500 0
2019-09-20 04:09:49 GMT 54.304070 0.736750 37,000 131 500 0
2019-09-20 04:09:46 GMT 54.311985 0.721352 37,000 131 500 0
2019-09-20 04:09:40 GMT 54.317184 0.711284 37,000 131 500 0
2019-09-20 04:09:37 GMT 54.321758 0.702376 37,000 131 500 0
2019-09-20 04:09:34 GMT 54.331490 0.683400 37,000 131 500 0
2019-09-20 04:09:31 GMT 54.331490 0.683400 37,000 131 500 0
2019-09-20 04:09:28 GMT 54.336090 0.674528 37,000 131 500 0
2019-09-20 04:09:25 GMT 54.340054 0.666837 37,000 131 500 0
2019-09-20 04:09:22 GMT 54.349178 0.648942 37,000 131 500 0
2019-09-20 04:09:19 GMT 54.349178 0.648942 37,000 131 500 0
2019-09-20 04:09:16 GMT 54.353760 0.640034 37,000 131 500 0
2019-09-20 04:09:13 GMT 54.358017 0.631714 37,000 131 501 0
2019-09-20 04:09:10 GMT 54.366821 0.614485 37,000 131 501 0
2019-09-20 04:09:04 GMT 54.372025 0.604410 37,000 131 501 0
2019-09-20 04:09:01 GMT 54.378113 0.592454 37,000 131 501 0
2019-09-20 04:08:58 GMT 54.381134 0.586557 37,000 131 501 0
2019-09-20 04:08:55 GMT 54.386330 0.576366 37,000 131 501 0
2019-09-20 04:08:52 GMT 54.390564 0.568043 37,000 131 501 0
2019-09-20 04:08:49 GMT 54.395451 0.558555 37,000 131 501 0
2019-09-20 04:08:46 GMT 54.399082 0.551397 37,000 131 501 0
2019-09-20 04:08:43 GMT 54.403656 0.542450 37,000 131 501 0
2019-09-20 04:08:40 GMT 54.408813 0.532254 37,000 131 501 0
2019-09-20 04:08:37 GMT 54.414001 0.522174 37,000 131 501 0
2019-09-20 04:08:33 GMT 54.418854 0.512641 37,000 131 501 0
2019-09-20 04:08:30 GMT 54.423431 0.503623 37,000 131 501 0
2019-09-20 04:08:27 GMT 54.428604 0.493496 37,000 131 500 0
2019-09-20 04:08:24 GMT 54.432552 0.485729 37,000 131 500 0
2019-09-20 04:08:21 GMT 54.436836 0.477406 37,000 131 501 0
2019-09-20 04:08:18 GMT 54.442612 0.466030 37,000 131 500 0
2019-09-20 04:08:15 GMT 54.445961 0.459511 37,000 131 501 0
2019-09-20 04:08:12 GMT 54.450485 0.450520 37,000 131 501 0
2019-09-20 04:08:09 GMT 54.455978 0.439776 37,000 131 501 0
2019-09-20 04:08:06 GMT 54.460533 0.430797 37,000 131 500 0
2019-09-20 04:08:03 GMT 54.465088 0.421843 37,000 131 501 0
2019-09-20 04:08:00 GMT 54.470215 0.411654 37,000 131 500 0
2019-09-20 04:07:57 GMT 54.474152 0.403909 37,000 131 500 0
2019-09-20 04:07:54 GMT 54.478733 0.394925 37,000 131 500 0
2019-09-20 04:07:51 GMT 54.483902 0.384764 37,000 131 500 0
2019-09-20 04:07:48 GMT 54.486923 0.378786 37,000 131 500 0
2019-09-20 04:07:45 GMT 54.491776 0.369173 37,000 131 501 0
2019-09-20 04:07:42 GMT 54.496033 0.360852 37,000 131 501 0
2019-09-20 04:07:39 GMT 54.502716 0.347685 37,000 131 501 0
2019-09-20 04:07:36 GMT 54.506378 0.340495 37,000 131 501 0
2019-09-20 04:07:33 GMT 54.515488 0.322481 37,000 131 501 0
2019-09-20 04:07:30 GMT 54.515488 0.322481 37,000 131 501 0
2019-09-20 04:07:27 GMT 54.519150 0.315291 37,000 130 501 0
2019-09-20 04:07:24 GMT 54.522766 0.308102 37,000 130 501 0
2019-09-20 04:07:21 GMT 54.528545 0.296714 37,000 130 501 0
2019-09-20 04:07:18 GMT 54.534897 0.284029 37,000 130 501 0
2019-09-20 04:07:15 GMT 54.537964 0.278051 37,000 130 501 0
2019-09-20 04:07:12 GMT 54.541904 0.270247 37,000 130 501 0
2019-09-20 04:07:09 GMT 54.546143 0.261841 37,000 130 501 0
2019-09-20 04:07:06 GMT 54.551285 0.251635 37,000 130 501 0
2019-09-20 04:07:03 GMT 54.555870 0.242615 37,000 130 501 0
2019-09-20 04:07:00 GMT 54.560108 0.234125 37,000 130 501 0
2019-09-20 04:06:57 GMT 54.565247 0.223927 37,000 130 501 0
2019-09-20 04:06:54 GMT 54.569229 0.216064 37,000 130 501 0
2019-09-20 04:06:51 GMT 54.574074 0.206493 37,000 130 501 0
2019-09-20 04:06:48 GMT 54.583153 0.188432 37,000 130 501 0
2019-09-20 04:06:42 GMT 54.588039 0.178778 37,000 130 501 0
2019-09-20 04:06:39 GMT 54.593765 0.167299 37,000 130 501 0
2019-09-20 04:06:36 GMT 54.596512 0.161882 37,000 130 501 0
2019-09-20 04:06:33 GMT 54.601044 0.152839 37,000 130 501 0
2019-09-20 04:06:30 GMT 54.605896 0.143226 37,000 130 501 0
2019-09-20 04:06:27 GMT 54.610432 0.134166 37,000 130 501 0
2019-09-20 04:06:24 GMT 54.614666 0.125677 37,000 130 501 0
2019-09-20 04:06:21 GMT 54.618298 0.118436 37,000 130 501 0
2019-09-20 04:06:18 GMT 54.625259 0.104532 37,000 130 501 0
2019-09-20 04:06:15 GMT 54.628281 0.098554 37,000 130 501 0
2019-09-20 04:06:12 GMT 54.634323 0.086437 37,000 130 501 0
2019-09-20 04:06:09 GMT 54.637344 0.080378 37,000 130 501 0
2019-09-20 04:06:06 GMT 54.641899 0.071328 37,000 130 501 0
2019-09-20 04:06:03 GMT 54.646408 0.062283 37,000 130 501 0
2019-09-20 04:06:00 GMT 54.651855 0.051377 37,000 130 501 0
2019-09-20 04:05:56 GMT 54.657303 0.040552 37,000 130 501 0
2019-09-20 04:05:53 GMT 54.661823 0.031461 37,000 130 501 0
2019-09-20 04:05:50 GMT 54.666367 0.022377 37,000 130 501 0
2019-09-20 04:05:47 GMT 54.674194 0.006624 37,000 130 501 0
2019-09-20 04:05:44 GMT 54.679325 -0.003662 37,000 130 501 0
2019-09-20 04:05:41 GMT 54.679325 -0.003662 37,000 130 501 0
2019-09-20 04:05:38 GMT 54.685089 -0.015187 37,000 130 501 0
2019-09-20 04:05:35 GMT 54.689301 -0.023669 37,000 130 501 0
2019-09-20 04:05:32 GMT 54.694458 -0.033958 37,000 130 501 0
2019-09-20 04:05:29 GMT 54.698364 -0.041764 37,000 130 501 0
2019-09-20 04:05:26 GMT 54.701981 -0.049035 37,000 130 501 0
2019-09-20 04:05:23 GMT 54.707428 -0.059940 37,000 130 501 0
2019-09-20 04:05:20 GMT 54.715897 -0.076904 37,000 130 501 0
2019-09-20 04:05:17 GMT 54.715897 -0.076904 37,000 130 501 0
2019-09-20 04:05:14 GMT 54.724960 -0.095080 37,000 130 501 0
2019-09-20 04:05:11 GMT 54.724960 -0.095080 37,000 130 501 0
2019-09-20 04:05:08 GMT 54.729767 -0.104774 37,000 130 502 0
2019-09-20 04:05:05 GMT 54.734306 -0.113858 37,000 130 502 0
2019-09-20 04:05:02 GMT 54.738831 -0.122950 37,000 130 501 0
2019-09-20 04:04:59 GMT 54.748177 -0.141824 37,000 130 502 0
2019-09-20 04:04:56 GMT 54.748177 -0.141824 37,000 130 502 0
2019-09-20 04:04:53 GMT 54.752701 -0.150900 37,000 130 502 0
2019-09-20 04:04:50 GMT 54.756912 -0.159383 37,000 130 502 0
2019-09-20 04:04:47 GMT 54.761448 -0.168457 37,000 130 502 0
2019-09-20 04:04:44 GMT 54.766289 -0.178195 37,000 130 502 0
2019-09-20 04:04:41 GMT 54.771687 -0.189181 37,000 130 502 0
2019-09-20 04:04:38 GMT 54.774994 -0.195815 37,000 130 502 0
2019-09-20 04:04:35 GMT 54.781036 -0.208013 37,000 130 502 0
2019-09-20 04:04:32 GMT 54.783463 -0.212860 37,000 130 502 0
2019-09-20 04:04:29 GMT 54.787674 -0.221342 37,000 130 502 0
2019-09-20 04:04:26 GMT 54.798222 -0.242698 37,000 130 502 0
2019-09-20 04:04:23 GMT 54.798222 -0.242698 37,000 130 502 0
2019-09-20 04:04:20 GMT 54.801498 -0.249373 37,000 130 502 0
2019-09-20 04:04:17 GMT 54.807255 -0.261009 37,000 130 502 0
2019-09-20 04:04:14 GMT 54.810562 -0.267711 37,000 130 502 0
2019-09-20 04:04:11 GMT 54.815632 -0.278071 37,000 130 502 0
2019-09-20 04:04:08 GMT 54.819263 -0.285395 37,000 130 502 0
2019-09-20 04:04:05 GMT 54.825577 -0.298166 37,000 130 502 0
2019-09-20 04:04:02 GMT 54.829193 -0.305517 37,000 130 502 0
2019-09-20 04:03:59 GMT 54.833092 -0.313443 37,000 130 502 0
2019-09-20 04:03:56 GMT 54.838806 -0.325066 37,000 130 502 0
2019-09-20 04:03:53 GMT 54.842377 -0.332336 37,000 130 502 0
2019-09-20 04:03:50 GMT 54.847183 -0.342111 37,000 130 502 0
2019-09-20 04:03:47 GMT 54.852318 -0.352478 37,000 130 502 0
2019-09-20 04:03:44 GMT 54.855606 -0.359237 37,000 130 502 0
2019-09-20 04:03:41 GMT 54.861603 -0.371435 37,000 130 502 0
2019-09-20 04:03:38 GMT 54.865219 -0.378786 37,000 130 502 0
2019-09-20 04:03:35 GMT 54.870026 -0.388561 37,000 130 501 0
2019-09-20 04:03:32 GMT 54.873917 -0.396507 37,000 130 502 0
2019-09-20 04:03:29 GMT 54.878757 -0.406328 37,000 130 502 0
2019-09-20 04:03:26 GMT 54.883850 -0.416673 37,000 130 501 0
2019-09-20 04:03:23 GMT 54.888062 -0.425236 37,000 130 501 0
2019-09-20 04:03:20 GMT 54.892536 -0.434376 37,000 130 501 0
2019-09-20 04:03:17 GMT 54.896774 -0.442949 37,000 130 501 0
2019-09-20 04:03:14 GMT 54.900963 -0.451521 37,000 130 501 0
2019-09-20 04:03:11 GMT 54.905457 -0.460699 37,000 130 501 0
2019-09-20 04:03:08 GMT 54.911160 -0.472329 37,000 130 501 0
2019-09-20 04:03:05 GMT 54.914139 -0.478488 37,000 130 501 0
2019-09-20 04:03:02 GMT 54.919537 -0.489474 37,000 130 502 0
2019-09-20 04:02:58 GMT 54.924042 -0.498666 37,000 130 502 0
2019-09-20 04:02:55 GMT 54.928848 -0.508522 37,000 130 502 0
2019-09-20 04:02:52 GMT 54.933922 -0.518938 37,000 130 502 0
2019-09-20 04:02:49 GMT 54.940201 -0.531787 37,000 130 502 0
2019-09-20 04:02:46 GMT 54.943222 -0.537926 37,000 130 502 0
2019-09-20 04:02:43 GMT 54.948029 -0.547782 37,000 130 502 0
2019-09-20 04:02:40 GMT 54.953384 -0.558849 37,000 130 502 0
2019-09-20 04:02:37 GMT 54.957001 -0.566200 37,000 130 502 0
2019-09-20 04:02:34 GMT 54.961807 -0.575974 37,000 130 502 0
2019-09-20 04:02:31 GMT 54.965672 -0.584023 37,000 130 502 0
2019-09-20 04:02:28 GMT 54.970467 -0.593844 37,000 130 502 0
2019-09-20 04:02:24 GMT 54.976181 -0.605541 37,000 130 502 0
2019-09-20 04:02:21 GMT 54.980392 -0.614103 37,000 130 502 0
2019-09-20 04:02:18 GMT 54.985794 -0.625171 37,000 130 502 0
2019-09-20 04:02:14 GMT 54.990250 -0.634377 37,000 130 503 0
2019-09-20 04:02:11 GMT 54.995361 -0.644881 37,000 130 503 0
2019-09-20 04:02:08 GMT 54.999573 -0.653525 37,000 130 503 0
2019-09-20 04:02:05 GMT 55.004333 -0.663300 37,000 130 503 0
2019-09-20 04:02:02 GMT 55.008823 -0.672580 37,000 130 502 0
2019-09-20 04:01:59 GMT 55.014225 -0.683649 37,000 130 502 0
2019-09-20 04:01:56 GMT 55.018707 -0.692866 37,000 130 502 0
2019-09-20 04:01:53 GMT 55.022873 -0.701509 37,000 130 502 0
2019-09-20 04:01:50 GMT 55.026794 -0.709534 37,000 130 502 0
2019-09-20 04:01:47 GMT 55.030376 -0.716941 37,000 130 502 0
2019-09-20 04:01:44 GMT 55.035732 -0.728011 37,000 130 502 0
2019-09-20 04:01:41 GMT 55.040527 -0.737915 37,000 130 502 0
2019-09-20 04:01:38 GMT 55.045578 -0.748363 37,000 130 502 0
2019-09-20 04:01:34 GMT 55.050385 -0.758218 37,000 130 503 0
2019-09-20 04:01:31 GMT 55.055145 -0.768154 37,000 130 503 0
2019-09-20 04:01:28 GMT 55.059952 -0.778010 37,000 130 503 0
2019-09-20 04:01:25 GMT 55.064713 -0.787946 37,000 130 503 0
2019-09-20 04:01:22 GMT 55.068283 -0.795378 37,000 130 503 0
2019-09-20 04:01:19 GMT 55.074554 -0.808327 37,000 130 503 0
2019-09-20 04:01:16 GMT 55.078186 -0.815818 37,000 130 503 0
2019-09-20 04:01:13 GMT 55.082935 -0.825722 37,000 130 503 0
2019-09-20 04:01:10 GMT 55.086521 -0.833130 37,000 130 503 0
2019-09-20 04:01:07 GMT 55.096111 -0.853022 37,000 130 503 0
2019-09-20 04:01:04 GMT 55.096111 -0.853022 37,000 130 503 0
2019-09-20 04:01:00 GMT 55.103279 -0.867920 37,000 130 503 0
2019-09-20 04:00:57 GMT 55.106258 -0.874079 37,000 130 503 0
2019-09-20 04:00:54 GMT 55.111656 -0.885315 37,000 130 503 0
2019-09-20 04:00:51 GMT 55.115849 -0.893971 37,000 130 503 0
2019-09-20 04:00:48 GMT 55.120926 -0.904514 37,000 130 503 0
2019-09-20 04:00:45 GMT 55.124786 -0.912614 37,000 130 503 0
2019-09-20 04:00:42 GMT 55.128975 -0.921270 37,000 130 503 0
2019-09-20 04:00:39 GMT 55.133770 -0.931258 37,000 130 503 0
2019-09-20 04:00:36 GMT 55.136749 -0.937417 37,000 130 503 0
2019-09-20 04:00:33 GMT 55.141846 -0.947975 37,000 129 503 0
2019-09-20 04:00:30 GMT 55.148109 -0.961054 37,000 130 503 0
2019-09-20 04:00:27 GMT 55.150772 -0.966635 37,000 129 503 0
2019-09-20 04:00:24 GMT 55.160934 -0.987800 37,000 129 503 0
2019-09-20 04:00:21 GMT 55.160934 -0.987800 37,000 129 503 0
2019-09-20 04:00:18 GMT 55.164215 -0.994679 37,000 129 503 0
2019-09-20 04:00:15 GMT 55.172836 -1.012681 37,000 129 503 0
2019-09-20 04:00:12 GMT 55.172836 -1.012681 37,000 129 503 0
2019-09-20 04:00:09 GMT 55.178192 -1.023910 37,000 129 503 0
2019-09-20 04:00:06 GMT 55.187119 -1.042570 37,000 129 502 0
2019-09-20 04:00:03 GMT 55.187119 -1.042570 37,000 129 502 0
2019-09-20 04:00:00 GMT 55.191284 -1.051214 37,000 129 502 0
2019-09-20 03:59:57 GMT 55.195732 -1.060597 37,000 129 501 0
2019-09-20 03:59:54 GMT 55.205521 -1.081103 37,000 129 501 0
2019-09-20 03:59:51 GMT 55.205521 -1.081103 37,000 129 501 0
2019-09-20 03:59:48 GMT 55.209976 -1.090393 37,000 129 501 0
2019-09-20 03:59:45 GMT 55.213806 -1.098471 37,000 129 501 0
2019-09-20 03:59:42 GMT 55.218567 -1.108407 37,000 129 501 0
2019-09-20 03:59:39 GMT 55.221542 -1.114547 37,000 129 500 0
2019-09-20 03:59:36 GMT 55.228043 -1.128199 37,000 129 500 0
2019-09-20 03:59:33 GMT 55.231613 -1.135631 37,000 129 500 0
2019-09-20 03:59:30 GMT 55.236328 -1.145567 37,000 129 499 0
2019-09-20 03:59:27 GMT 55.240746 -1.154896 37,000 129 498 -64
2019-09-20 03:59:24 GMT 55.245449 -1.164800 37,000 129 498 -64
2019-09-20 03:59:21 GMT 55.250473 -1.175295 37,000 129 498 -64
2019-09-20 03:59:18 GMT 55.257523 -1.190159 37,000 129 498 -64
2019-09-20 03:59:15 GMT 55.261929 -1.199341 37,000 129 497 0
2019-09-20 03:59:12 GMT 55.261929 -1.199341 37,000 129 497 0
2019-09-20 03:59:09 GMT 55.265762 -1.207365 37,000 129 496 0
2019-09-20 03:59:06 GMT 55.271027 -1.218513 35,450 129 496 0
2019-09-20 03:59:03 GMT 55.275429 -1.227722 37,000 129 496 0
2019-09-20 03:59:00 GMT 55.280411 -1.238224 37,000 129 496 0
2019-09-20 03:58:57 GMT 55.283936 -1.245575 37,000 129 497 0
2019-09-20 03:58:54 GMT 55.288883 -1.256104 37,000 129 497 -64
2019-09-20 03:58:51 GMT 55.292130 -1.262862 37,000 129 497 -64
2019-09-20 03:58:48 GMT 55.297123 -1.273332 37,000 129 497 -64
2019-09-20 03:58:45 GMT 55.300659 -1.280740 37,000 129 497 -64
2019-09-20 03:58:42 GMT 55.307419 -1.295013 37,000 129 498 -64
2019-09-20 03:58:39 GMT 55.310349 -1.301234 37,000 129 498 -64
2019-09-20 03:58:36 GMT 55.314766 -1.310536 37,000 129 499 0
2019-09-20 03:58:33 GMT 55.320026 -1.321689 37,000 129 499 128
2019-09-20 03:58:30 GMT 55.323853 -1.329750 37,000 129 499 192
2019-09-20 03:58:27 GMT 55.328266 -1.339084 36,975 129 499 384
2019-09-20 03:58:24 GMT 55.336506 -1.356562 36,900 129 499 1088
2019-09-20 03:58:18 GMT 55.341206 -1.366549 36,850 129 499 1280
2019-09-20 03:58:15 GMT 55.345909 -1.376537 36,825 129 499 1344
2019-09-20 03:58:12 GMT 55.350311 -1.385893 36,725 129 500 1344
2019-09-20 03:58:09 GMT 55.359741 -1.405846 36,675 129 500 1344
2019-09-20 03:58:06 GMT 55.359741 -1.405846 36,600 129 500 1344
2019-09-20 03:58:03 GMT 55.363861 -1.414571 36,500 129 500 1344
2019-09-20 03:58:00 GMT 55.367649 -1.422729 36,525 129 500 1408
2019-09-20 03:57:57 GMT 55.372055 -1.432100 36,400 129 500 1408
2019-09-20 03:57:54 GMT 55.377365 -1.443329 36,375 129 500 1408
2019-09-20 03:57:51 GMT 55.381439 -1.452053 36,275 129 500 1408
2019-09-20 03:57:48 GMT 55.384964 -1.459566 36,225 129 500 1472
2019-09-20 03:57:45 GMT 55.390274 -1.470875 36,125 129 500 1472
2019-09-20 03:57:38 GMT 55.404659 -1.501548 35,875 129 500 1472
2019-09-20 03:57:35 GMT 55.404659 -1.501548 35,850 129 500 1472
2019-09-20 03:57:32 GMT 55.413456 -1.520275 35,450 129 500 1344
2019-09-20 03:57:29 GMT 55.413456 -1.520275 35,750 129 500 1408
2019-09-20 03:57:26 GMT 55.417282 -1.528473 35,700 129 500 1408
2019-09-20 03:57:23 GMT 55.422256 -1.539085 35,475 129 500 1344
2019-09-20 03:57:19 GMT 55.428406 -1.552223 35,475 129 500 1344
2019-09-20 03:57:16 GMT 55.431931 -1.559735 35,425 129 500 1408
2019-09-20 03:57:13 GMT 55.437523 -1.571711 35,400 129 500 1408
2019-09-20 03:57:10 GMT 55.445717 -1.589241 35,250 129 500 1472
2019-09-20 03:57:07 GMT 55.445717 -1.589241 35,150 129 500 1536
2019-09-20 03:57:03 GMT 55.452141 -1.602974 35,125 129 499 1600
2019-09-20 03:57:00 GMT 55.455681 -1.610527 35,075 129 499 1728
2019-09-20 03:56:57 GMT 55.462708 -1.625547 34,900 129 499 1792
2019-09-20 03:56:54 GMT 55.465034 -1.630526 34,875 129 499 1792
2019-09-20 03:56:51 GMT 55.468826 -1.638711 34,650 129 500 1984
2019-09-20 03:56:48 GMT 55.473541 -1.648782 34,750 129 500 1920
2019-09-20 03:56:45 GMT 55.478489 -1.659451 34,575 129 500 2048
2019-09-20 03:56:42 GMT 55.482586 -1.668205 34,475 129 501 2048
2019-09-20 03:56:39 GMT 55.486404 -1.676414 34,400 129 501 2048
2019-09-20 03:56:36 GMT 55.490524 -1.685236 34,325 129 501 2112
2019-09-20 03:56:33 GMT 55.495529 -1.696014 34,125 129 503 2112
2019-09-20 03:56:30 GMT 55.500229 -1.706057 33,975 129 503 2176
2019-09-20 03:56:27 GMT 55.503719 -1.713696 34,000 129 503 2176
2019-09-20 03:56:24 GMT 55.508469 -1.723824 33,925 129 503 2240
2019-09-20 03:56:21 GMT 55.512863 -1.733343 33,700 129 505 2176
2019-09-20 03:56:18 GMT 55.518173 -1.744829 33,625 129 506 2112
2019-09-20 03:56:15 GMT 55.522621 -1.754379 33,550 129 506 1984
2019-09-20 03:56:12 GMT 55.530579 -1.771629 33,425 129 507 1792
2019-09-20 03:56:09 GMT 55.530579 -1.771629 33,300 129 507 1408
2019-09-20 03:56:06 GMT 55.536819 -1.785021 33,250 129 506 1024
2019-09-20 03:56:03 GMT 55.539459 -1.790771 33,200 129 506 960
2019-09-20 03:56:00 GMT 55.543896 -1.800299 33,200 129 506 704
2019-09-20 03:55:57 GMT 55.549202 -1.811800 33,125 129 503 576
2019-09-20 03:55:54 GMT 55.553299 -1.820641 33,100 129 501 576
2019-09-20 03:55:51 GMT 55.556789 -1.828279 33,075 129 501 576
2019-09-20 03:55:48 GMT 55.561203 -1.837796 33,075 129 501 576
2019-09-20 03:55:45 GMT 55.566708 -1.849737 33,000 129 498 576
2019-09-20 03:55:42 GMT 55.570198 -1.857290 33,000 129 496 576
2019-09-20 03:55:39 GMT 55.574570 -1.866677 32,975 129 496 640
2019-09-20 03:55:36 GMT 55.584068 -1.887331 32,875 129 492 1024
2019-09-20 03:55:33 GMT 55.584068 -1.887331 32,875 129 492 896
2019-09-20 03:55:30 GMT 55.587799 -1.895391 32,850 129 492 1088
2019-09-20 03:55:27 GMT 55.596954 -1.915283 32,700 129 491 1408
2019-09-20 03:55:24 GMT 55.596954 -1.915283 32,700 129 491 1408
2019-09-20 03:55:21 GMT 55.600983 -1.923939 32,625 129 489 1472
2019-09-20 03:55:18 GMT 55.604694 -1.932049 32,600 129 487 1408
2019-09-20 03:55:15 GMT 55.610641 -1.944996 32,450 129 489 1536
2019-09-20 03:55:12 GMT 55.613525 -1.951238 32,425 129 489 1536
2019-09-20 03:55:09 GMT 55.617775 -1.960459 32,375 129 488 1472
2019-09-20 03:55:06 GMT 55.622040 -1.969799 32,250 129 487 1408
2019-09-20 03:55:03 GMT 55.626022 -1.978455 32,200 129 487 1408
2019-09-20 03:55:00 GMT 55.630249 -1.987667 31,775 128 475 640
2019-09-20 03:54:57 GMT 55.635086 -1.998180 32,075 129 486 1280
2019-09-20 03:54:54 GMT 55.638474 -2.005587 32,000 129 485 1088
2019-09-20 03:54:51 GMT 55.643238 -2.016077 31,950 129 485 1024
2019-09-20 03:54:48 GMT 55.651154 -2.033243 31,850 129 482 704
2019-09-20 03:54:45 GMT 55.656181 -2.044230 31,825 129 481 704
2019-09-20 03:54:42 GMT 55.656181 -2.044230 31,825 128 479 704
2019-09-20 03:54:39 GMT 55.659531 -2.051525 31,775 128 479 640
2019-09-20 03:54:36 GMT 55.664513 -2.062511 31,775 128 478 640
2019-09-20 03:54:33 GMT 55.668423 -2.070923 31,700 129 474 640
2019-09-20 03:54:30 GMT 55.672531 -2.079995 31,675 129 474 640
2019-09-20 03:54:27 GMT 55.675873 -2.087236 31,650 128 473 704
2019-09-20 03:54:24 GMT 55.684902 -2.107058 31,600 128 472 704
2019-09-20 03:54:21 GMT 55.684902 -2.107058 31,500 129 467 768
2019-09-20 03:54:18 GMT 55.689560 -2.117115 31,525 129 468 704
2019-09-20 03:54:15 GMT 55.693359 -2.125438 31,500 129 467 768
2019-09-20 03:54:12 GMT 55.698212 -2.136092 31,450 129 464 768
2019-09-20 03:54:08 GMT 55.702011 -2.144415 31,375 129 462 1024
2019-09-20 03:54:05 GMT 55.707108 -2.155552 31,350 129 462 1088
2019-09-20 03:54:02 GMT 55.711166 -2.164390 31,275 129 460 1344
2019-09-20 03:53:58 GMT 55.715160 -2.173147 31,250 129 459 1472
2019-09-20 03:53:55 GMT 55.718933 -2.181301 31,200 129 459 1536
2019-09-20 03:53:52 GMT 55.724239 -2.192974 31,025 129 458 1536
2019-09-20 03:53:49 GMT 55.728241 -2.201677 30,975 129 458 1536
2019-09-20 03:53:46 GMT 55.732803 -2.211514 30,925 129 457 1472
2019-09-20 03:53:43 GMT 55.740253 -2.227821 30,800 129 456 1472
2019-09-20 03:53:40 GMT 55.740253 -2.227821 30,750 129 455 1536
2019-09-20 03:53:37 GMT 55.743668 -2.235302 30,675 129 455 1536
2019-09-20 03:53:34 GMT 55.747143 -2.242842 30,625 129 454 1600
2019-09-20 03:53:31 GMT 55.752182 -2.253779 30,575 129 454 1600
2019-09-20 03:53:28 GMT 55.756172 -2.262325 30,475 129 454 1600
2019-09-20 03:53:25 GMT 55.760147 -2.270924 30,375 129 452 1600
2019-09-20 03:53:22 GMT 55.764645 -2.280693 30,325 129 452 1600
2019-09-20 03:53:19 GMT 55.767857 -2.287474 30,225 129 451 1664
2019-09-20 03:53:16 GMT 55.771820 -2.296059 30,100 129 450 1728
2019-09-20 03:53:13 GMT 55.776535 -2.306380 30,025 128 450 1728
2019-09-20 03:53:10 GMT 55.779694 -2.313205 30,000 128 450 1728
2019-09-20 03:53:07 GMT 55.783592 -2.321806 29,650 128 449 1792
2019-09-20 03:53:04 GMT 55.787430 -2.330516 29,775 127 448 1728
2019-09-20 03:53:01 GMT 55.792297 -2.341461 29,675 127 448 1728
2019-09-20 03:52:58 GMT 55.795322 -2.348413 28,750 125 443 1792
2019-09-20 03:52:55 GMT 55.799606 -2.358315 29,500 127 446 1664
2019-09-20 03:52:52 GMT 55.807571 -2.376959 29,425 126 446 1664
2019-09-20 03:52:49 GMT 55.807571 -2.376959 29,350 126 445 1664
2019-09-20 03:52:45 GMT 55.813202 -2.390471 29,275 126 445 1664
2019-09-20 03:52:42 GMT 55.814644 -2.393990 29,000 124 441 1856
2019-09-20 03:52:39 GMT 55.819702 -2.406339 29,050 125 443 1792
2019-09-20 03:52:35 GMT 55.823257 -2.415190 29,000 125 443 1792
2019-09-20 03:52:32 GMT 55.830551 -2.433638 28,850 124 442 1856
2019-09-20 03:52:29 GMT 55.830551 -2.433638 28,775 124 441 1856
2019-09-20 03:52:26 GMT 55.834476 -2.443771 28,675 124 441 1920
2019-09-20 03:52:23 GMT 55.837463 -2.451533 28,625 124 440 1920
2019-09-20 03:52:20 GMT 55.840385 -2.459307 28,475 121 438 896
2019-09-20 03:52:17 GMT 55.843735 -2.468345 28,375 122 440 1920
2019-09-20 03:52:14 GMT 55.847836 -2.479906 28,300 121 439 1792
2019-09-20 03:52:11 GMT 55.850601 -2.487904 28,225 121 439 1536
2019-09-20 03:52:08 GMT 55.853165 -2.495311 28,125 121 438 896
2019-09-20 03:52:05 GMT 55.856728 -2.505741 28,125 121 437 768
2019-09-20 03:52:02 GMT 55.860260 -2.516202 28,075 121 437 320
2019-09-20 03:51:59 GMT 55.862366 -2.522278 28,075 121 437 192
2019-09-20 03:51:56 GMT 55.866364 -2.533979 28,075 121 436 128
2019-09-20 03:51:53 GMT 55.869461 -2.543169 28,075 121 437 -64
2019-09-20 03:51:50 GMT 55.872601 -2.552347 28,050 121 437 -640
2019-09-20 03:51:46 GMT 55.876602 -2.563976 28,100 121 437 -704
2019-09-20 03:51:43 GMT 55.880562 -2.575693 28,150 121 438 -704
2019-09-20 03:51:40 GMT 55.883076 -2.583075 28,175 121 438 -704
2019-09-20 03:51:37 GMT 55.885170 -2.589169 28,200 121 438 -704
2019-09-20 03:51:34 GMT 55.892120 -2.609503 28,275 121 438 -704
2019-09-20 03:51:31 GMT 55.892120 -2.609503 28,275 121 438 -704
2019-09-20 03:51:28 GMT 55.896530 -2.622471 28,325 121 438 -704
2019-09-20 03:51:25 GMT 55.898438 -2.627980 28,350 121 438 -704
2019-09-20 03:51:22 GMT 55.902023 -2.638435 28,375 121 438 -704
2019-09-20 03:51:19 GMT 55.904537 -2.645903 28,400 121 439 -704
2019-09-20 03:51:16 GMT 55.907887 -2.655773 28,450 121 439 -704
2019-09-20 03:51:13 GMT 55.910614 -2.663768 28,475 121 439 -704
2019-09-20 03:51:10 GMT 55.915478 -2.678003 28,500 121 439 -704
2019-09-20 03:51:07 GMT 55.917343 -2.683494 28,525 121 439 -704
2019-09-20 03:51:04 GMT 55.923660 -2.702054 28,650 121 440 -704
2019-09-20 03:51:01 GMT 55.923660 -2.702054 28,900 121 441 -704
2019-09-20 03:50:58 GMT 55.927673 -2.713795 28,650 121 440 -704
2019-09-20 03:50:55 GMT 55.930607 -2.722464 28,675 121 440 -704
2019-09-20 03:50:52 GMT 55.933365 -2.730519 28,725 121 440 -704
2019-09-20 03:50:49 GMT 55.936096 -2.738600 28,750 121 440 -704
2019-09-20 03:50:46 GMT 55.939224 -2.747914 28,775 121 440 -704
2019-09-20 03:50:42 GMT 55.943222 -2.759714 28,900 121 441 -704
2019-09-20 03:50:39 GMT 55.946991 -2.770872 28,850 121 441 -704
2019-09-20 03:50:36 GMT 55.950344 -2.780828 28,900 121 441 -704
2019-09-20 03:50:33 GMT 55.953506 -2.790194 28,925 121 441 -704
2019-09-20 03:50:30 GMT 55.959824 -2.808838 29,025 121 445 -704
2019-09-20 03:50:27 GMT 55.959824 -2.808838 29,025 121 442 -704
2019-09-20 03:50:24 GMT 55.963211 -2.818825 29,200 121 444 -704
2019-09-20 03:50:21 GMT 55.965939 -2.826920 29,050 121 442 -704
2019-09-20 03:50:18 GMT 55.969292 -2.836962 29,100 120 443 -704
2019-09-20 03:50:15 GMT 55.972046 -2.845043 29,175 121 444 -704
2019-09-20 03:50:12 GMT 55.974785 -2.853184 29,200 121 444 -704
2019-09-20 03:50:09 GMT 55.978363 -2.863853 29,200 121 444 -704
2019-09-20 03:50:06 GMT 55.981533 -2.873182 29,225 121 444 -704
2019-09-20 03:50:03 GMT 55.985352 -2.884512 29,275 121 444 -704
2019-09-20 03:50:00 GMT 55.988480 -2.893899 29,375 120 448 -704
2019-09-20 03:49:57 GMT 55.991043 -2.901473 29,325 120 445 -704
2019-09-20 03:49:54 GMT 55.994659 -2.912149 29,375 121 445 -704
2019-09-20 03:49:51 GMT 55.998013 -2.922192 29,425 120 446 -704
2019-09-20 03:49:48 GMT 56.000572 -2.929745 29,550 120 447 -704
2019-09-20 03:49:45 GMT 56.003311 -2.938010 29,475 120 446 -704
2019-09-20 03:49:42 GMT 56.006744 -2.948081 29,475 120 446 -704
2019-09-20 03:49:39 GMT 56.010544 -2.959401 29,550 120 447 -704
2019-09-20 03:49:36 GMT 56.014389 -2.970803 29,575 120 447 -704
2019-09-20 03:49:32 GMT 56.017982 -2.981586 29,600 120 447 -704
2019-09-20 03:49:29 GMT 56.021164 -2.991111 29,650 120 448 -704
2019-09-20 03:49:26 GMT 56.024139 -2.999933 29,675 120 448 -704
2019-09-20 03:49:22 GMT 56.028397 -3.012668 29,750 120 448 -704
2019-09-20 03:49:19 GMT 56.032196 -3.024070 29,775 120 448 -704
2019-09-20 03:49:16 GMT 56.034557 -3.031025 29,825 120 448 -704
2019-09-20 03:49:13 GMT 56.038147 -3.041798 29,825 120 448 -704
2019-09-20 03:49:10 GMT 56.041771 -3.052654 29,875 120 449 -704
2019-09-20 03:49:07 GMT 56.047264 -3.069134 29,900 120 448 -704
2019-09-20 03:49:04 GMT 56.047264 -3.069134 29,925 120 448 -704
2019-09-20 03:49:01 GMT 56.050461 -3.078669 29,975 120 448 -704
2019-09-20 03:48:58 GMT 56.054947 -3.092051 30,025 120 448 -704
2019-09-20 03:48:55 GMT 56.056412 -3.096480 30,050 120 448 -704
2019-09-20 03:48:52 GMT 56.060020 -3.107243 30,050 120 448 -704
2019-09-20 03:48:49 GMT 56.064056 -3.119368 30,125 120 448 -704
2019-09-20 03:48:46 GMT 56.066574 -3.126942 30,150 120 447 -704
2019-09-20 03:48:43 GMT 56.070831 -3.139593 30,175 120 447 -704
2019-09-20 03:48:40 GMT 56.072937 -3.145918 30,225 120 447 -768
2019-09-20 03:48:37 GMT 56.076324 -3.156072 30,250 120 447 -768
2019-09-20 03:48:34 GMT 56.078842 -3.163646 30,325 120 445 -768
2019-09-20 03:48:31 GMT 56.083466 -3.177629 30,325 120 445 -768
2019-09-20 03:48:28 GMT 56.085392 -3.183289 30,375 120 445 -768
2019-09-20 03:48:24 GMT 56.093582 -3.207925 30,425 120 445 -832
2019-09-20 03:48:21 GMT 56.093582 -3.207925 30,450 120 445 -832
2019-09-20 03:48:18 GMT 56.096333 -3.216162 30,500 120 447 -896
2019-09-20 03:48:15 GMT 56.099487 -3.225653 30,525 120 447 -896
2019-09-20 03:48:12 GMT 56.102615 -3.235216 30,575 120 448 -960
2019-09-20 03:48:09 GMT 56.106434 -3.246632 30,625 120 450 -960
2019-09-20 03:48:06 GMT 56.108368 -3.252453 30,700 120 451 -1024
2019-09-20 03:48:03 GMT 56.112579 -3.265270 30,725 120 452 -1088
2019-09-20 03:48:00 GMT 56.114952 -3.272295 30,750 120 452 -1152
2019-09-20 03:47:57 GMT 56.118771 -3.283882 30,825 120 454 -1280
2019-09-20 03:47:54 GMT 56.122635 -3.295469 30,925 120 456 -1728
2019-09-20 03:47:51 GMT 56.125195 -3.303280 31,050 120 456 -1728
2019-09-20 03:47:48 GMT 56.127960 -3.311712 31,025 120 456 -1856
2019-09-20 03:47:45 GMT 56.132038 -3.324051 31,225 120 456 -2176
2019-09-20 03:47:39 GMT 56.138042 -3.342247 31,350 120 457 -2176
2019-09-20 03:47:36 GMT 56.141068 -3.351345 31,500 120 458 -2176
2019-09-20 03:47:33 GMT 56.145172 -3.363731 31,600 120 459 -2112
2019-09-20 03:47:30 GMT 56.147736 -3.371554 31,725 120 459 -2048
2019-09-20 03:47:27 GMT 56.150982 -3.381386 31,775 120 459 -1984
2019-09-20 03:47:24 GMT 56.154011 -3.390570 31,925 120 461 -1920
2019-09-20 03:47:21 GMT 56.160061 -3.408937 32,050 120 461 -1856
2019-09-20 03:47:15 GMT 56.164436 -3.422070 32,175 120 464 -1664
2019-09-20 03:47:12 GMT 56.167282 -3.430647 32,250 120 464 -1664
2019-09-20 03:47:09 GMT 56.169891 -3.438554 32,325 120 464 -1664
2019-09-20 03:47:06 GMT 56.173828 -3.450539 32,450 120 474 -1152
2019-09-20 03:47:02 GMT 56.177517 -3.461809 32,475 120 468 -1408
2019-09-20 03:46:59 GMT 56.187424 -3.491905 32,625 120 471 -1216
2019-09-20 03:46:55 GMT 56.187424 -3.491905 32,700 120 472 -1216
2019-09-20 03:46:52 GMT 56.189018 -3.496656 32,825 120 475 -1024
2019-09-20 03:46:49 GMT 56.191864 -3.505388 32,750 120 473 -1216
2019-09-20 03:46:46 GMT 56.195892 -3.517623 32,925 120 475 -1024
2019-09-20 03:46:43 GMT 56.199005 -3.527111 32,950 120 477 -576
2019-09-20 03:46:40 GMT 56.201660 -3.535267 32,950 120 477 -640
2019-09-20 03:46:37 GMT 56.206146 -3.548917 32,950 120 477 -576
2019-09-20 03:46:32 GMT 56.211735 -3.565922 33,000 120 478 -64
2019-09-20 03:46:29 GMT 56.213505 -3.571415 33,000 120 480 0
2019-09-20 03:46:26 GMT 56.217087 -3.582401 33,000 120 480 0
2019-09-20 03:46:23 GMT 56.221802 -3.596774 33,000 120 480 0
2019-09-20 03:46:20 GMT 56.225372 -3.607760 33,000 120 480 0
2019-09-20 03:46:17 GMT 56.227158 -3.613254 33,000 120 480 0
2019-09-20 03:46:14 GMT 56.231232 -3.625655 33,000 120 482 0
2019-09-20 03:46:11 GMT 56.235008 -3.637333 33,000 120 481 0
2019-09-20 03:46:08 GMT 56.237289 -3.644285 33,000 120 481 0
2019-09-20 03:46:05 GMT 56.241074 -3.655950 33,000 120 481 0
2019-09-20 03:46:02 GMT 56.245346 -3.669090 33,000 120 481 0
2019-09-20 03:45:59 GMT 56.248047 -3.677330 33,000 120 482 0
2019-09-20 03:45:56 GMT 56.252335 -3.690407 33,000 120 482 0
2019-09-20 03:45:53 GMT 56.258148 -3.708385 33,000 120 482 0
2019-09-20 03:45:50 GMT 56.258148 -3.708385 33,000 120 482 0
2019-09-20 03:45:47 GMT 56.261078 -3.717327 33,000 120 482 0
2019-09-20 03:45:44 GMT 56.264877 -3.729026 33,000 120 482 0
2019-09-20 03:45:41 GMT 56.268494 -3.740096 33,000 120 482 0
2019-09-20 03:45:38 GMT 56.271652 -3.749750 33,000 120 481 0
2019-09-20 03:45:35 GMT 56.274998 -3.760071 33,000 120 481 0
2019-09-20 03:45:32 GMT 56.278839 -3.771806 33,000 120 481 0
2019-09-20 03:45:29 GMT 56.281750 -3.780756 33,000 120 481 0
2019-09-20 03:45:26 GMT 56.285522 -3.792530 33,000 120 481 0
2019-09-20 03:45:23 GMT 56.292503 -3.813887 33,000 120 481 0
2019-09-20 03:45:20 GMT 56.292503 -3.813887 33,000 120 481 0
2019-09-20 03:45:17 GMT 56.294739 -3.820839 33,000 120 481 0
2019-09-20 03:45:14 GMT 56.298981 -3.833979 33,000 120 481 0
2019-09-20 03:45:11 GMT 56.302326 -3.844271 33,000 120 481 0
2019-09-20 03:45:05 GMT 56.308319 -3.862943 33,000 120 481 0
2019-09-20 03:45:01 GMT 56.313675 -3.879506 33,000 120 481 0
2019-09-20 03:44:58 GMT 56.316570 -3.888474 33,000 120 480 0
2019-09-20 03:44:55 GMT 56.319691 -3.898172 33,000 120 480 0
2019-09-20 03:44:52 GMT 56.322807 -3.907785 33,000 120 479 0
2019-09-20 03:44:49 GMT 56.326172 -3.918124 33,000 120 479 0
2019-09-20 03:44:46 GMT 56.333050 -3.939543 33,000 120 479 0
2019-09-20 03:44:43 GMT 56.333050 -3.939543 33,000 120 479 0
2019-09-20 03:44:40 GMT 56.336586 -3.950529 33,000 120 479 0
2019-09-20 03:44:37 GMT 56.339951 -3.960904 33,000 120 478 -64
2019-09-20 03:44:34 GMT 56.342606 -3.969144 33,000 120 478 0
2019-09-20 03:44:31 GMT 56.345943 -3.979454 33,000 120 478 -64
2019-09-20 03:44:28 GMT 56.349483 -3.990526 33,000 120 478 -64
2019-09-20 03:44:25 GMT 56.353226 -4.002186 33,000 119 478 -64
2019-09-20 03:44:22 GMT 56.357208 -4.014587 33,000 120 477 -64
2019-09-20 03:44:18 GMT 56.360733 -4.025491 33,000 120 476 -64
2019-09-20 03:44:15 GMT 56.364006 -4.035759 33,000 120 474 -64
2019-09-20 03:44:12 GMT 56.367325 -4.046048 33,000 120 474 -64
2019-09-20 03:44:09 GMT 56.371922 -4.060392 33,000 120 472 -64
2019-09-20 03:44:06 GMT 56.373871 -4.066523 33,000 120 472 -64
2019-09-20 03:44:03 GMT 56.377182 -4.076614 33,000 120 470 -64
2019-09-20 03:44:00 GMT 56.381699 -4.090826 33,000 120 468 0
2019-09-20 03:43:56 GMT 56.384956 -4.100904 33,000 120 465 0
2019-09-20 03:43:53 GMT 56.389236 -4.114294 33,000 120 463 0
2019-09-20 03:43:50 GMT 56.391380 -4.120989 33,000 120 461 0
2019-09-20 03:43:47 GMT 56.394360 -4.130259 33,000 120 458 0
2019-09-20 03:43:44 GMT 56.397339 -4.139528 33,000 120 455 0
2019-09-20 03:43:41 GMT 56.405136 -4.163902 33,000 119 454 0
2019-09-20 03:43:38 GMT 56.405136 -4.163902 33,000 120 453 0
2019-09-20 03:43:35 GMT 56.406601 -4.168453 33,000 120 453 0
2019-09-20 03:43:32 GMT 56.410172 -4.179549 33,000 119 452 0
2019-09-20 03:43:29 GMT 56.413055 -4.188621 33,000 119 452 0
2019-09-20 03:43:26 GMT 56.416611 -4.199781 33,000 119 452 -64
2019-09-20 03:43:23 GMT 56.419544 -4.208879 33,000 119 452 -128
2019-09-20 03:43:19 GMT 56.423687 -4.221926 33,000 119 452 -256
2019-09-20 03:43:16 GMT 56.426620 -4.231024 33,025 119 452 -384
2019-09-20 03:43:13 GMT 56.430763 -4.244070 33,050 119 452 -704
2019-09-20 03:43:10 GMT 56.433060 -4.251293 33,125 120 453 -1216
2019-09-20 03:43:07 GMT 56.436211 -4.261065 33,125 120 453 -1216
2019-09-20 03:43:04 GMT 56.439560 -4.271622 33,150 119 454 -1472
2019-09-20 03:43:01 GMT 56.443130 -4.282754 33,275 119 455 -1792
2019-09-20 03:42:58 GMT 56.445847 -4.291363 33,325 119 456 -1792
2019-09-20 03:42:55 GMT 56.448360 -4.299259 33,450 119 457 -1728
2019-09-20 03:42:52 GMT 56.455482 -4.321747 33,750 119 458 -1792
2019-09-20 03:42:49 GMT 56.455482 -4.321747 33,625 119 460 -1856
2019-09-20 03:42:46 GMT 56.458881 -4.332390 33,700 119 460 -1920
2019-09-20 03:42:42 GMT 56.462231 -4.343033 33,900 119 460 -2176
2019-09-20 03:42:38 GMT 56.467529 -4.359741 33,950 119 461 -2176
2019-09-20 03:42:35 GMT 56.469635 -4.366400 34,075 119 461 -2176
2019-09-20 03:42:32 GMT 56.473022 -4.377136 34,225 119 462 -1984
2019-09-20 03:42:29 GMT 56.476616 -4.388523 34,300 119 463 -1920
2019-09-20 03:42:26 GMT 56.479385 -4.397195 34,375 119 464 -1856
2019-09-20 03:42:23 GMT 56.486347 -4.419422 34,550 119 464 -1728
2019-09-20 03:42:20 GMT 56.486347 -4.419422 34,625 119 466 -1728
2019-09-20 03:42:17 GMT 56.489136 -4.428156 34,700 119 466 -1664
2019-09-20 03:42:14 GMT 56.491886 -4.436932 34,725 119 467 -1600
2019-09-20 03:42:11 GMT 56.494446 -4.445086 34,775 119 468 -1600
2019-09-20 03:42:08 GMT 56.498730 -4.458647 34,950 119 473 -1728
2019-09-20 03:42:05 GMT 56.503059 -4.472294 35,000 119 472 -1600
2019-09-20 03:42:02 GMT 56.508453 -4.489413 35,125 119 473 -1792
2019-09-20 03:41:59 GMT 56.511250 -4.498301 35,150 119 473 -1792
2019-09-20 03:41:56 GMT 56.511250 -4.498301 35,275 119 474 -1984
2019-09-20 03:41:53 GMT 56.514542 -4.508639 35,325 119 475 -2048
2019-09-20 03:41:50 GMT 56.518890 -4.522455 35,400 119 475 -2112
2019-09-20 03:41:47 GMT 56.524750 -4.541044 35,600 119 477 -2048
2019-09-20 03:41:41 GMT 56.527359 -4.549370 35,775 119 477 -2048
2019-09-20 03:41:38 GMT 56.531067 -4.561157 35,800 119 478 -2048
2019-09-20 03:41:35 GMT 56.534546 -4.572310 35,950 119 479 -2048
2019-09-20 03:41:32 GMT 56.537830 -4.582758 36,025 119 479 -2048
2019-09-20 03:41:28 GMT 56.542164 -4.596663 36,175 119 480 -2112
2019-09-20 03:41:24 GMT 56.547005 -4.612026 36,300 119 481 -2112
2019-09-20 03:41:21 GMT 56.549610 -4.620438 36,400 119 481 -2112
2019-09-20 03:41:18 GMT 56.556427 -4.642140 36,700 119 484 -2048
2019-09-20 03:41:15 GMT 56.556427 -4.642140 36,650 119 482 -2048
2019-09-20 03:41:12 GMT 56.559036 -4.650546 36,725 119 484 -2048
2019-09-20 03:41:09 GMT 56.563667 -4.665327 36,875 119 484 -2048
2019-09-20 03:41:06 GMT 56.566322 -4.673824 36,900 119 484 -2048
2019-09-20 03:41:03 GMT 56.569393 -4.683695 37,000 119 484 -2048
2019-09-20 03:41:00 GMT 56.572723 -4.694242 37,175 119 486 -1984
2019-09-20 03:40:57 GMT 56.576248 -4.705561 37,400 119 488 -1856
2019-09-20 03:40:54 GMT 56.579361 -4.715465 37,325 119 487 -1920
2019-09-20 03:40:51 GMT 56.581825 -4.723263 37,400 119 488 -1856
2019-09-20 03:40:48 GMT 56.589569 -4.748258 37,600 119 490 -1728
2019-09-20 03:40:45 GMT 56.589569 -4.748258 37,625 119 490 -1728
2019-09-20 03:40:42 GMT 56.592949 -4.758968 37,700 119 492 -1600
2019-09-20 03:40:39 GMT 56.595604 -4.767535 37,800 119 493 -1536
2019-09-20 03:40:36 GMT 56.602818 -4.790571 37,900 119 495 -1472
2019-09-20 03:40:30 GMT 56.605938 -4.800671 38,050 119 498 -1408
2019-09-20 03:40:27 GMT 56.609756 -4.813042 38,150 119 499 -1408
2019-09-20 03:40:24 GMT 56.613155 -4.823884 38,175 119 499 -1408
2019-09-20 03:40:21 GMT 56.615852 -4.832655 38,200 119 500 -1408
2019-09-20 03:40:18 GMT 56.619949 -4.845768 38,275 119 500 -1344
2019-09-20 03:40:15 GMT 56.623352 -4.856730 38,400 119 501 -1408
2019-09-20 03:40:12 GMT 56.627678 -4.870665 38,450 119 501 -1472
2019-09-20 03:40:09 GMT 56.629913 -4.877930 38,500 119 501 -1472
2019-09-20 03:40:06 GMT 56.632660 -4.886701 38,575 119 501 -1472
2019-09-20 03:40:03 GMT 56.636292 -4.898396 38,650 119 501 -1408
2019-09-20 03:40:00 GMT 56.640804 -4.913015 38,750 119 501 -1280
2019-09-20 03:39:57 GMT 56.646671 -4.932064 38,900 119 501 -320
2019-09-20 03:39:54 GMT 56.646671 -4.932064 38,850 119 500 -960
2019-09-20 03:39:51 GMT 56.650543 -4.944448 38,900 119 500 -832
2019-09-20 03:39:47 GMT 56.655945 -4.962044 39,000 119 502 -64
2019-09-20 03:39:44 GMT 56.657986 -4.968655 38,975 119 501 -384
2019-09-20 03:39:41 GMT 56.662308 -4.982557 39,000 119 501 -192
2019-09-20 03:39:37 GMT 56.666382 -4.995775 39,000 119 502 -64
2019-09-20 03:39:34 GMT 56.669762 -5.006753 39,000 119 502 0
2019-09-20 03:39:31 GMT 56.672699 -5.016289 39,000 119 502 0
2019-09-20 03:39:28 GMT 56.676559 -5.028815 39,000 119 502 0
2019-09-20 03:39:25 GMT 56.679062 -5.036888 39,000 119 501 0
2019-09-20 03:39:22 GMT 56.683136 -5.050106 39,000 119 502 0
2019-09-20 03:39:19 GMT 56.686520 -5.061153 39,000 119 502 0
2019-09-20 03:39:16 GMT 56.689911 -5.072165 39,000 119 502 0
2019-09-20 03:39:12 GMT 56.694202 -5.086138 39,000 119 502 0
2019-09-20 03:39:08 GMT 56.698250 -5.099340 39,000 119 502 0
2019-09-20 03:39:05 GMT 56.703003 -5.114822 39,000 119 502 0
2019-09-20 03:39:02 GMT 56.705704 -5.123577 39,000 119 502 0
2019-09-20 03:38:59 GMT 56.709518 -5.136108 39,000 119 502 0
2019-09-20 03:38:56 GMT 56.712479 -5.145636 39,000 119 502 0
2019-09-20 03:38:52 GMT 56.716312 -5.158170 39,000 119 502 0
2019-09-20 03:38:49 GMT 56.720364 -5.171460 39,000 119 502 0
2019-09-20 03:38:46 GMT 56.724415 -5.184661 39,000 119 502 0
2019-09-20 03:38:43 GMT 56.727356 -5.194216 39,000 118 501 0
2019-09-20 03:38:40 GMT 56.731163 -5.206722 39,000 119 502 0
2019-09-20 03:38:36 GMT 56.735001 -5.219278 39,000 119 502 0
2019-09-20 03:38:33 GMT 56.738617 -5.231037 39,000 119 502 0
2019-09-20 03:38:29 GMT 56.742893 -5.244997 39,000 119 502 0
2019-09-20 03:38:26 GMT 56.746262 -5.256100 39,000 119 502 0
2019-09-20 03:38:23 GMT 56.750065 -5.268653 39,000 118 501 0
2019-09-20 03:38:20 GMT 56.753403 -5.279703 39,000 118 501 0
2019-09-20 03:38:17 GMT 56.756767 -5.290714 39,000 118 501 0
2019-09-20 03:38:14 GMT 56.759933 -5.301081 39,000 118 501 0
2019-09-20 03:38:11 GMT 56.762833 -5.310602 39,000 118 501 0
2019-09-20 03:38:08 GMT 56.770020 -5.334206 39,000 118 501 0
2019-09-20 03:38:05 GMT 56.773132 -5.344505 39,000 118 501 0
2019-09-20 03:38:02 GMT 56.773132 -5.344505 39,000 118 501 0
2019-09-20 03:37:59 GMT 56.777618 -5.359268 39,000 118 501 0
2019-09-20 03:37:56 GMT 56.780556 -5.368859 39,000 118 501 0
2019-09-20 03:37:53 GMT 56.783211 -5.377719 39,000 118 502 0
2019-09-20 03:37:50 GMT 56.787724 -5.392515 39,000 118 502 0
2019-09-20 03:37:47 GMT 56.789959 -5.399869 39,000 118 502 0
2019-09-20 03:37:44 GMT 56.794189 -5.413942 39,000 118 501 0
2019-09-20 03:37:41 GMT 56.796890 -5.422783 39,000 118 501 0
2019-09-20 03:37:38 GMT 56.799782 -5.432385 39,000 118 502 -64
2019-09-20 03:37:35 GMT 56.803368 -5.444169 39,000 118 501 0
2019-09-20 03:37:32 GMT 56.806732 -5.455313 39,000 118 502 0
2019-09-20 03:37:28 GMT 56.810760 -5.468616 39,000 118 502 0
2019-09-20 03:37:25 GMT 56.815659 -5.484838 39,000 118 502 0
2019-09-20 03:37:22 GMT 56.818123 -5.492987 39,000 118 502 -64
2019-09-20 03:37:18 GMT 56.822128 -5.506277 39,000 118 502 -64
2019-09-20 03:37:15 GMT 56.825500 -5.517368 39,000 118 502 -64
2019-09-20 03:37:12 GMT 56.834381 -5.546980 39,000 118 502 0
2019-09-20 03:37:08 GMT 56.834381 -5.546980 39,000 118 502 0
2019-09-20 03:37:05 GMT 56.837303 -5.556601 39,000 118 502 0
2019-09-20 03:37:02 GMT 56.843540 -5.577422 39,000 118 502 0
2019-09-20 03:36:59 GMT 56.843540 -5.577422 39,000 118 502 0
2019-09-20 03:36:56 GMT 56.846195 -5.586282 39,000 118 502 0
2019-09-20 03:36:53 GMT 56.850449 -5.600367 39,000 118 502 0
2019-09-20 03:36:49 GMT 56.855347 -5.616674 39,000 118 502 0
2019-09-20 03:36:44 GMT 56.859787 -5.631437 39,000 118 502 0
2019-09-20 03:36:41 GMT 56.863560 -5.644049 39,000 118 501 0
2019-09-20 03:36:38 GMT 56.866261 -5.652909 39,000 118 501 0
2019-09-20 03:36:34 GMT 56.871567 -5.670717 39,000 118 501 0
2019-09-20 03:36:31 GMT 56.874268 -5.679666 39,000 118 501 0
2019-09-20 03:36:28 GMT 56.877804 -5.691538 39,000 118 501 0
2019-09-20 03:36:24 GMT 56.882690 -5.707840 39,000 118 502 0
2019-09-20 03:36:21 GMT 56.885811 -5.718207 39,000 118 502 0
2019-09-20 03:36:18 GMT 56.888927 -5.728573 39,000 118 502 0
2019-09-20 03:36:14 GMT 56.893818 -5.744964 39,000 118 502 0
2019-09-20 03:36:11 GMT 56.896889 -5.755330 39,000 118 501 0
2019-09-20 03:36:08 GMT 56.900253 -5.766449 39,000 118 501 0
2019-09-20 03:36:05 GMT 56.903778 -5.778294 39,000 118 501 0
2019-09-20 03:36:02 GMT 56.907349 -5.790224 39,000 118 501 0
2019-09-20 03:35:58 GMT 56.916862 -5.822134 39,000 118 501 0
2019-09-20 03:35:53 GMT 56.916862 -5.822134 39,000 118 501 0
2019-09-20 03:35:50 GMT 56.922821 -5.842152 39,000 118 499 0
2019-09-20 03:35:47 GMT 56.922821 -5.842152 39,000 118 500 0
2019-09-20 03:35:44 GMT 56.926346 -5.853996 39,000 118 500 0
2019-09-20 03:35:41 GMT 56.930080 -5.866611 39,000 118 500 0
2019-09-20 03:35:38 GMT 56.933853 -5.879230 39,000 118 500 0
2019-09-20 03:35:33 GMT 56.939346 -5.897709 39,000 118 499 0
2019-09-20 03:35:30 GMT 56.942417 -5.908075 39,000 118 499 0
2019-09-20 03:35:27 GMT 56.945072 -5.917024 39,000 118 499 0
2019-09-20 03:35:23 GMT 56.952984 -5.943692 39,000 118 499 0
2019-09-20 03:35:20 GMT 56.952984 -5.943692 39,000 118 499 0
2019-09-20 03:35:17 GMT 56.956524 -5.955564 39,000 118 499 0
2019-09-20 03:35:13 GMT 56.960899 -5.970361 39,000 118 499 0
2019-09-20 03:35:10 GMT 56.964203 -5.981541 39,000 118 499 0
2019-09-20 03:35:07 GMT 56.967510 -5.992688 39,000 118 499 0
2019-09-20 03:35:04 GMT 56.975189 -6.018620 39,000 118 500 0
2019-09-20 03:35:00 GMT 56.975189 -6.018620 39,000 118 500 0
2019-09-20 03:34:57 GMT 56.978714 -6.030464 39,000 118 500 0
2019-09-20 03:34:54 GMT 56.981102 -6.038671 39,000 118 500 0
2019-09-20 03:34:51 GMT 56.984390 -6.049776 39,000 118 499 0
2019-09-20 03:34:48 GMT 56.989655 -6.067629 39,000 118 499 0
2019-09-20 03:34:44 GMT 56.991852 -6.075096 39,000 118 499 0
2019-09-20 03:34:41 GMT 56.996201 -6.089945 39,000 118 499 0
2019-09-20 03:34:37 GMT 57.000549 -6.104794 39,000 118 499 0
2019-09-20 03:34:34 GMT 57.003204 -6.113720 39,000 118 499 0
2019-09-20 03:34:31 GMT 57.006474 -6.124878 39,000 118 499 0
2019-09-20 03:34:28 GMT 57.009293 -6.134577 39,000 118 499 0
2019-09-20 03:34:25 GMT 57.013458 -6.148623 39,000 118 499 0
2019-09-20 03:34:22 GMT 57.016708 -6.159811 39,000 118 499 0
2019-09-20 03:34:19 GMT 57.020233 -6.171741 39,000 118 499 0
2019-09-20 03:34:12 GMT 57.028061 -6.198521 39,000 118 499 0
2019-09-20 03:34:09 GMT 57.031128 -6.208906 39,000 118 499 0
2019-09-20 03:34:06 GMT 57.033737 -6.217833 39,000 118 499 0
2019-09-20 03:34:02 GMT 57.038734 -6.234918 39,000 118 499 0
2019-09-20 03:33:56 GMT 57.045044 -6.256542 39,000 118 500 0
2019-09-20 03:33:52 GMT 57.048744 -6.269206 39,000 118 500 0
2019-09-20 03:33:49 GMT 57.052872 -6.283407 39,000 118 500 0
2019-09-20 03:33:46 GMT 57.055481 -6.292334 39,000 118 500 0
2019-09-20 03:33:43 GMT 57.062244 -6.315455 39,000 118 500 0
2019-09-20 03:33:37 GMT 57.065918 -6.328125 39,000 118 500 0
2019-09-20 03:33:34 GMT 57.068985 -6.338596 39,000 118 500 0
2019-09-20 03:33:31 GMT 57.072205 -6.349743 39,000 118 500 0
2019-09-20 03:33:27 GMT 57.076115 -6.363210 39,000 118 500 0
2019-09-20 03:33:24 GMT 57.079605 -6.375171 39,000 118 500 0
2019-09-20 03:33:21 GMT 57.085464 -6.395330 39,000 118 499 0
2019-09-20 03:33:15 GMT 57.088734 -6.406535 39,000 118 499 0
2019-09-20 03:33:12 GMT 57.092422 -6.419277 39,000 118 499 0
2019-09-20 03:33:08 GMT 57.096554 -6.433470 39,000 118 499 0
2019-09-20 03:33:05 GMT 57.099792 -6.444683 39,000 117 500 0
2019-09-20 03:33:02 GMT 57.103683 -6.458158 39,000 117 500 0
2019-09-20 03:32:59 GMT 57.106934 -6.469352 39,000 117 501 0
2019-09-20 03:32:56 GMT 57.110184 -6.480560 39,000 117 500 0
2019-09-20 03:32:52 GMT 57.114487 -6.495581 39,000 117 500 0
2019-09-20 03:32:49 GMT 57.117733 -6.506830 39,000 117 500 0
2019-09-20 03:32:46 GMT 57.120987 -6.518068 39,000 117 500 0
2019-09-20 03:32:42 GMT 57.125748 -6.534548 39,000 117 500 0
2019-09-20 03:32:39 GMT 57.128769 -6.545019 39,000 117 500 0
2019-09-20 03:32:36 GMT 57.132248 -6.557035 39,000 117 500 0
2019-09-20 03:32:32 GMT 57.136356 -6.571242 39,000 117 500 0
2019-09-20 03:32:28 GMT 57.140442 -6.585531 39,000 117 500 0
2019-09-20 03:32:25 GMT 57.143246 -6.595252 39,000 117 500 0
2019-09-20 03:32:20 GMT 57.150181 -6.619263 39,000 117 501 0
2019-09-20 03:32:17 GMT 57.156231 -6.640261 39,000 117 501 0
2019-09-20 03:32:14 GMT 57.156231 -6.640261 39,000 117 501 0
2019-09-20 03:32:10 GMT 57.160561 -6.655323 39,000 117 501 0
2019-09-20 03:32:06 GMT 57.163834 -6.666555 39,000 117 501 0
2019-09-20 03:32:03 GMT 57.167725 -6.680117 39,000 117 501 0
2019-09-20 03:32:00 GMT 57.173767 -6.701145 39,000 117 501 0
2019-09-20 03:31:57 GMT 57.173767 -6.701145 39,000 117 501 0
2019-09-20 03:31:54 GMT 57.176788 -6.711702 39,000 117 501 0
2019-09-20 03:31:51 GMT 57.180267 -6.723719 39,000 117 501 0
2019-09-20 03:31:48 GMT 57.184570 -6.738739 39,000 117 501 0
2019-09-20 03:31:45 GMT 57.186722 -6.746292 39,000 117 501 0
2019-09-20 03:31:42 GMT 57.189518 -6.756060 39,000 117 501 0
2019-09-20 03:31:39 GMT 57.193848 -6.771122 39,000 117 501 0
2019-09-20 03:31:35 GMT 57.197708 -6.784678 39,000 117 500 0
2019-09-20 03:31:32 GMT 57.200272 -6.793715 39,000 117 500 0
2019-09-20 03:31:29 GMT 57.204601 -6.808777 39,000 117 500 0
2019-09-20 03:31:26 GMT 57.206741 -6.816308 39,000 117 500 0
2019-09-20 03:31:22 GMT 57.211025 -6.831370 39,000 117 500 0
2019-09-20 03:31:19 GMT 57.219818 -6.862164 39,000 117 500 0
2019-09-20 03:31:15 GMT 57.219818 -6.862164 39,000 117 500 0
2019-09-20 03:31:11 GMT 57.223663 -6.875725 39,000 117 500 0
2019-09-20 03:31:07 GMT 57.227737 -6.890023 39,000 117 500 0
2019-09-20 03:31:04 GMT 57.230297 -6.899060 39,000 117 500 0
2019-09-20 03:31:01 GMT 57.234375 -6.913404 39,000 117 500 0
2019-09-20 03:30:58 GMT 57.236938 -6.922417 39,000 117 500 0
2019-09-20 03:30:55 GMT 57.240120 -6.933791 39,000 117 500 0
2019-09-20 03:30:52 GMT 57.243984 -6.947346 39,000 117 500 0
2019-09-20 03:30:49 GMT 57.248062 -6.961641 39,000 117 500 0
2019-09-20 03:30:44 GMT 57.252319 -6.976662 39,000 117 500 0
2019-09-20 03:30:40 GMT 57.256832 -6.992532 39,000 117 499 0
2019-09-20 03:30:37 GMT 57.259392 -7.001569 39,000 117 499 0
2019-09-20 03:30:33 GMT 57.263626 -7.016631 39,000 117 499 0
2019-09-20 03:30:30 GMT 57.267242 -7.029448 39,000 117 499 0
2019-09-20 03:30:26 GMT 57.271496 -7.044540 39,000 117 499 0
2019-09-20 03:30:23 GMT 57.274055 -7.053577 39,000 117 499 0
2019-09-20 03:30:20 GMT 57.277679 -7.066441 39,000 117 499 0
2019-09-20 03:30:16 GMT 57.283218 -7.086010 39,000 117 499 0
2019-09-20 03:30:13 GMT 57.288532 -7.104876 39,000 117 499 0
2019-09-20 03:30:10 GMT 57.288532 -7.104876 39,000 117 499 0
2019-09-20 03:30:06 GMT 57.295944 -7.131329 39,000 117 499 0
2019-09-20 03:30:00 GMT 57.298920 -7.141886 39,000 117 499 0
2019-09-20 03:29:55 GMT 57.304222 -7.160782 39,000 117 499 0
2019-09-20 03:29:52 GMT 57.307201 -7.171326 39,000 117 499 0
2019-09-20 03:29:49 GMT 57.311440 -7.186388 39,000 117 500 0
2019-09-20 03:29:46 GMT 57.313339 -7.193213 39,000 117 499 0
2019-09-20 03:29:43 GMT 57.316772 -7.205315 39,000 117 499 0
2019-09-20 03:29:39 GMT 57.320377 -7.218195 39,000 117 500 0
2019-09-20 03:29:36 GMT 57.325031 -7.234763 39,000 117 500 0
2019-09-20 03:29:33 GMT 57.327805 -7.244625 39,000 117 500 0
2019-09-20 03:29:29 GMT 57.335861 -7.273378 39,000 117 500 0
2019-09-20 03:29:26 GMT 57.335861 -7.273378 39,000 117 500 0
2019-09-20 03:29:23 GMT 57.338791 -7.283936 39,000 117 500 0
2019-09-20 03:29:20 GMT 57.341976 -7.295276 39,000 117 500 0
2019-09-20 03:29:17 GMT 57.345154 -7.306595 39,000 117 500 0
2019-09-20 03:29:13 GMT 57.348354 -7.317958 39,000 117 500 0
2019-09-20 03:29:09 GMT 57.352589 -7.333108 39,000 117 499 0
2019-09-20 03:29:06 GMT 57.356777 -7.348259 39,000 117 499 0
2019-09-20 03:29:02 GMT 57.359985 -7.359552 39,000 117 499 0
2019-09-20 03:28:59 GMT 57.363327 -7.371655 39,000 117 499 0
2019-09-20 03:28:56 GMT 57.366508 -7.383078 39,000 117 498 0
2019-09-20 03:28:53 GMT 57.369862 -7.395128 39,000 117 498 0
2019-09-20 03:28:49 GMT 57.374050 -7.410278 39,000 117 498 0
2019-09-20 03:28:46 GMT 57.377029 -7.420910 39,000 117 498 0
2019-09-20 03:28:42 GMT 57.381409 -7.436800 39,000 117 496 0
2019-09-20 03:28:38 GMT 57.384991 -7.449616 39,000 117 497 0
2019-09-20 03:28:34 GMT 57.389599 -7.466273 39,000 117 497 0
2019-09-20 03:28:28 GMT 57.395882 -7.488955 39,000 117 496 0
2019-09-20 03:28:25 GMT 57.399033 -7.500229 39,000 117 496 0
2019-09-20 03:28:22 GMT 57.402374 -7.512331 39,000 117 495 0
2019-09-20 03:28:18 GMT 57.406311 -7.526609 39,000 117 495 0
2019-09-20 03:28:15 GMT 57.409882 -7.539454 39,000 117 495 0
2019-09-20 03:28:12 GMT 57.412811 -7.550011 39,000 117 495 0
2019-09-20 03:28:08 GMT 57.416740 -7.564264 39,000 117 495 0
2019-09-20 03:28:03 GMT 57.421764 -7.582338 39,000 117 495 0
2019-09-20 03:27:59 GMT 57.427166 -7.601919 39,000 117 495 0
2019-09-20 03:27:56 GMT 57.432816 -7.622280 39,000 117 495 0
2019-09-20 03:27:47 GMT 57.438431 -7.642586 39,000 117 495 0
2019-09-20 03:27:44 GMT 57.443413 -7.660660 39,000 117 495 0
2019-09-20 03:27:36 GMT 57.451328 -7.689366 39,000 117 495 0
2019-09-20 03:27:33 GMT 57.453186 -7.696095 39,000 117 495 -64
2019-09-20 03:27:28 GMT 57.458588 -7.715750 39,000 117 495 0
2019-09-20 03:27:25 GMT 57.461708 -7.727021 39,000 117 495 0
2019-09-20 03:27:22 GMT 57.464642 -7.737565 39,000 117 495 0
2019-09-20 03:27:17 GMT 57.469803 -7.756433 39,000 117 495 0
2019-09-20 03:27:12 GMT 57.474602 -7.773802 39,000 117 495 0
2019-09-20 03:27:07 GMT 57.480003 -7.793382 39,000 117 495 0
2019-09-20 03:27:03 GMT 57.484772 -7.810764 39,000 117 495 0
2019-09-20 03:27:00 GMT 57.488892 -7.825785 39,000 117 494 0
2019-09-20 03:26:57 GMT 57.490803 -7.832632 39,000 117 494 0
2019-09-20 03:26:52 GMT 57.495987 -7.851448 39,000 116 494 0
2019-09-20 03:26:45 GMT 57.504272 -7.881660 39,000 117 494 0
2019-09-20 03:26:41 GMT 57.507156 -7.892218 39,000 117 494 0
2019-09-20 03:26:36 GMT 57.511936 -7.909536 39,000 116 493 0
2019-09-20 03:26:33 GMT 57.516872 -7.927610 39,000 116 493 0
2019-09-20 03:26:27 GMT 57.521622 -7.945004 39,000 116 493 0
2019-09-20 03:26:24 GMT 57.525158 -7.957823 39,000 116 494 0
2019-09-20 03:26:20 GMT 57.530094 -7.975897 39,000 116 493 0
2019-09-20 03:26:17 GMT 57.533398 -7.988035 39,000 116 493 0
2019-09-20 03:26:14 GMT 57.535027 -7.994060 39,000 116 493 0
2019-09-20 03:26:10 GMT 57.539383 -8.009892 39,000 116 494 0
2019-09-20 03:26:06 GMT 57.543503 -8.024998 39,000 116 494 0
2019-09-20 03:26:01 GMT 57.548035 -8.041649 39,000 116 494 0
2019-09-20 03:25:55 GMT 57.554394 -8.065117 39,000 116 494 0
2019-09-20 03:25:51 GMT 57.558289 -8.079414 39,000 116 494 0
2019-09-20 03:25:46 GMT 57.564423 -8.102160 39,000 116 493 0
2019-09-20 03:25:40 GMT 57.570969 -8.126364 39,000 116 494 0
2019-09-20 03:25:34 GMT 57.577515 -8.150654 39,000 116 494 0
2019-09-20 03:25:30 GMT 57.579765 -8.158943 39,000 116 494 0
2019-09-20 03:25:26 GMT 57.585026 -8.178701 39,000 116 493 0
2019-09-20 03:25:22 GMT 57.588284 -8.190839 39,000 116 493 0
2019-09-20 03:25:15 GMT 57.595592 -8.218216 39,000 116 494 0
2019-09-20 03:25:12 GMT 57.598206 -8.228073 39,000 116 493 0
2019-09-20 03:25:08 GMT 57.602016 -8.242493 39,000 116 493 0
2019-09-20 03:25:03 GMT 57.607864 -8.264551 39,000 116 494 0
2019-09-20 03:24:58 GMT 57.612671 -8.282919 39,000 115 493 0
2019-09-20 03:24:55 GMT 57.615658 -8.294323 39,000 115 494 0
2019-09-20 03:24:50 GMT 57.620636 -8.313389 39,000 115 494 0
2019-09-20 03:24:45 GMT 57.625763 -8.333302 39,000 115 494 0
2019-09-20 03:24:40 GMT 57.630322 -8.350938 39,000 115 494 0
2019-09-20 03:24:34 GMT 57.635971 -8.373213 39,000 115 494 0
2019-09-20 03:24:30 GMT 57.639908 -8.388577 39,000 115 494 0
2019-09-20 03:24:24 GMT 57.646133 -8.413210 39,000 115 494 0
2019-09-20 03:24:20 GMT 57.649612 -8.427029 39,000 114 495 0
2019-09-20 03:24:14 GMT 57.655380 -8.450203 39,000 114 495 0
2019-09-20 03:24:10 GMT 57.659370 -8.466472 39,000 114 495 0
2019-09-20 03:24:05 GMT 57.665268 -8.490543 39,000 114 495 0
2019-09-20 03:24:02 GMT 57.667145 -8.498354 39,000 114 495 0
2019-09-20 03:23:54 GMT 57.674194 -8.527966 39,000 113 496 0
2019-09-20 03:23:44 GMT 57.683529 -8.567918 39,000 113 496 0
2019-09-20 03:23:35 GMT 57.691399 -8.602472 39,000 113 496 0
2019-09-20 03:23:32 GMT 57.695026 -8.618243 39,000 113 496 0
2019-09-20 03:23:26 GMT 57.699684 -8.638709 39,000 113 496 0
2019-09-20 03:23:23 GMT 57.702347 -8.650532 39,000 113 496 0
2019-09-20 03:23:20 GMT 57.704865 -8.661518 39,000 113 496 0
2019-09-20 03:23:14 GMT 57.710762 -8.687528 39,000 113 496 0
2019-09-20 03:23:11 GMT 57.713470 -8.699369 39,000 112 497 0
2019-09-20 03:23:01 GMT 57.722401 -8.738827 39,000 112 497 0
2019-09-20 03:22:51 GMT 57.731339 -8.778259 39,000 112 497 0
2019-09-20 03:22:43 GMT 57.738274 -8.809021 39,000 112 497 0
2019-09-20 03:22:33 GMT 57.747211 -8.848480 39,000 113 496 0
2019-09-20 03:22:22 GMT 57.756477 -8.889496 39,000 112 496 0
2019-09-20 03:22:12 GMT 57.765415 -8.928955 39,000 112 496 0
2019-09-20 03:22:02 GMT 57.774445 -8.969185 39,000 112 496 0
2019-09-20 03:21:52 GMT 57.783524 -9.009430 39,000 112 496 0
2019-09-20 03:21:41 GMT 57.792694 -9.050537 39,000 112 496 0
2019-09-20 03:21:32 GMT 57.800995 -9.087731 39,000 112 496 0
2019-09-20 03:21:22 GMT 57.810196 -9.128841 39,000 112 496 0
2019-09-20 03:21:12 GMT 57.818985 -9.168357 39,000 112 496 0
2019-09-20 03:21:02 GMT 57.827980 -9.208740 39,000 112 496 0
2019-09-20 03:20:51 GMT 57.837105 -9.249939 39,000 112 495 0
2019-09-20 03:20:41 GMT 57.845673 -9.288763 39,000 112 495 0
2019-09-20 03:20:31 GMT 57.854782 -9.329962 39,000 112 495 0
2019-09-20 03:20:21 GMT 57.863686 -9.370331 39,000 112 495 0
2019-09-20 03:20:11 GMT 57.872589 -9.410765 39,000 112 495 0
2019-09-20 03:20:00 GMT 57.881607 -9.451963 39,000 112 495 0
2019-09-20 03:19:51 GMT 57.889938 -9.490061 39,000 112 495 0
2019-09-20 03:19:40 GMT 57.899113 -9.532104 39,000 112 495 0
2019-09-20 03:19:30 GMT 57.907562 -9.570952 39,000 112 495 0
2019-09-20 03:19:20 GMT 57.916386 -9.611481 39,000 112 495 0
2019-09-20 03:19:10 GMT 57.924950 -9.651215 39,000 112 495 0
2019-09-20 03:19:00 GMT 57.933701 -9.691713 39,000 111 494 0
2019-09-20 03:18:50 GMT 57.942360 -9.732330 39,000 111 494 0
2019-09-20 03:18:39 GMT 57.951050 -9.772870 39,000 111 494 0
2019-09-20 03:18:28 GMT 57.960327 -9.816559 39,000 111 493 0
2019-09-20 03:18:19 GMT 57.968262 -9.853939 39,000 111 493 0
2019-09-20 03:18:09 GMT 57.976902 -9.894470 39,000 111 493 0
2019-09-20 03:17:59 GMT 57.985245 -9.933413 39,000 112 492 0
2019-09-20 03:17:48 GMT 57.994453 -9.975220 39,000 112 492 0
2019-09-20 03:17:39 GMT 58.003143 -10.013772 39,000 113 492 0
2019-09-20 03:17:28 GMT 58.012756 -10.056300 39,000 113 493 0
2019-09-20 03:17:18 GMT 58.021271 -10.094132 39,000 113 493 0
2019-09-20 03:17:07 GMT 58.031204 -10.138343 39,000 112 492 0
2019-09-20 03:16:57 GMT 58.039516 -10.175446 39,000 112 493 0
2019-09-20 03:16:47 GMT 58.048874 -10.217374 39,000 112 493 0
2019-09-20 03:16:37 GMT 58.057709 -10.257066 39,000 112 494 0
2019-09-20 03:16:27 GMT 58.066544 -10.296670 39,000 112 494 0
2019-09-20 03:16:17 GMT 58.075500 -10.337128 39,000 112 494 0
2019-09-20 03:16:06 GMT 58.084854 -10.379245 39,000 112 494 0
2019-09-20 03:15:57 GMT 58.093277 -10.417343 39,000 112 494 0
2019-09-20 03:15:47 GMT 58.102066 -10.456947 39,000 112 493 0
2019-09-20 03:15:36 GMT 58.111671 -10.500549 39,000 112 493 0
2019-09-20 03:15:26 GMT 58.120049 -10.538635 39,000 112 492 0
2019-09-20 03:15:15 GMT 58.129128 -10.579834 39,000 112 492 0
2019-09-20 03:15:06 GMT 58.137787 -10.619476 39,000 112 492 0
2019-09-20 03:14:56 GMT 58.146492 -10.659119 39,000 112 492 0
2019-09-20 03:14:45 GMT 58.155476 -10.700409 39,000 112 492 0
2019-09-20 03:14:35 GMT 58.163910 -10.739313 39,000 112 492 0
2019-09-20 03:14:25 GMT 58.172882 -10.780689 39,000 112 492 0
2019-09-20 03:14:14 GMT 58.182056 -10.822815 39,000 112 493 0
2019-09-20 03:14:04 GMT 58.191044 -10.864197 39,000 112 492 0
2019-09-20 03:13:55 GMT 58.199001 -10.900909 39,000 112 493 0
2019-09-20 03:13:44 GMT 58.207764 -10.941497 39,000 112 493 0
2019-09-20 03:13:34 GMT 58.216415 -10.981367 39,000 112 493 0
2019-09-20 03:13:24 GMT 58.225536 -11.023682 39,000 112 493 0
2019-09-20 03:13:14 GMT 58.234104 -11.063599 39,000 112 493 0
2019-09-20 03:13:03 GMT 58.243366 -11.106720 39,000 112 493 0
2019-09-20 03:12:53 GMT 58.251560 -11.144989 39,000 112 493 0
2019-09-20 03:12:43 GMT 58.260124 -11.184998 39,000 112 493 0
2019-09-20 03:12:33 GMT 58.269344 -11.228210 39,000 111 493 0
2019-09-20 03:12:23 GMT 58.277489 -11.266663 39,000 111 493 0
2019-09-20 03:12:12 GMT 58.286659 -11.309967 39,000 111 494 0
2019-09-20 03:12:03 GMT 58.294807 -11.348511 39,000 111 494 0
2019-09-20 03:11:53 GMT 58.303280 -11.388702 39,000 111 494 0
2019-09-20 03:11:42 GMT 58.312077 -11.430450 39,000 111 494 0
2019-09-20 03:11:32 GMT 58.320503 -11.470642 39,000 111 494 0
2019-09-20 03:11:22 GMT 58.329304 -11.512482 39,000 111 494 0
2019-09-20 03:11:12 GMT 58.337585 -11.551858 39,000 111 494 0
2019-09-20 03:11:02 GMT 58.346329 -11.593677 39,000 111 493 0
2019-09-20 03:10:52 GMT 58.354858 -11.634705 39,000 111 493 0
2019-09-20 03:10:41 GMT 58.363770 -11.677404 39,000 111 493 0
2019-09-20 03:10:31 GMT 58.371944 -11.716827 39,000 111 492 0
2019-09-20 03:10:21 GMT 58.380157 -11.756168 39,000 111 493 0
2019-09-20 03:10:11 GMT 58.388657 -11.797302 39,000 111 493 0
2019-09-20 03:10:01 GMT 58.397141 -11.838300 39,000 111 493 0
2019-09-20 03:09:51 GMT 58.405602 -11.879425 39,000 111 493 0
2019-09-20 03:09:40 GMT 58.414078 -11.920520 39,000 111 493 0
2019-09-20 03:09:30 GMT 58.422825 -11.963287 39,000 111 492 0
2019-09-20 03:09:20 GMT 58.431244 -12.004424 39,000 111 492 0
2019-09-20 03:09:09 GMT 58.440002 -12.047058 39,000 111 491 0
2019-09-20 03:08:59 GMT 58.448044 -12.086556 39,000 111 491 0
2019-09-20 03:08:49 GMT 58.456284 -12.126868 39,000 111 491 0
2019-09-20 03:08:40 GMT 58.464157 -12.165586 39,000 111 491 0
2019-09-20 03:08:29 GMT 58.472672 -12.207494 39,000 111 491 0
2019-09-20 03:08:19 GMT 58.481297 -12.250214 39,000 111 491 0
2019-09-20 03:08:09 GMT 58.489441 -12.290588 39,000 110 491 0
2019-09-20 03:07:59 GMT 58.497391 -12.330116 39,000 111 490 0
2019-09-20 03:07:49 GMT 58.505859 -12.372112 39,000 111 490 0
2019-09-20 03:07:39 GMT 58.513641 -12.410918 39,000 111 490 0
2019-09-20 03:07:29 GMT 58.521889 -12.452087 39,000 110 491 0
2019-09-20 03:07:18 GMT 58.530315 -12.494110 39,000 110 491 0
2019-09-20 03:07:08 GMT 58.538414 -12.534576 39,000 110 491 0
2019-09-20 03:06:58 GMT 58.546795 -12.576691 39,000 110 492 0
2019-09-20 03:06:47 GMT 58.555664 -12.621253 39,000 110 492 0
2019-09-20 03:06:38 GMT 58.563229 -12.659363 39,000 110 492 0
2019-09-20 03:06:28 GMT 58.571091 -12.699132 39,000 110 491 0
2019-09-20 03:06:03 GMT 58.590637 -12.798186 39,000 110 491 0
2019-09-20 03:05:24 GMT 58.621857 -12.957577 39,000 110 491 0
2019-09-20 03:05:14 GMT 58.629658 -12.997375 39,000 110 491 0
2019-09-20 03:05:05 GMT 58.636639 -13.033173 39,000 110 491 0
2019-09-20 03:04:56 GMT 58.644230 -13.072266 39,000 110 491 0
2019-09-20 03:04:45 GMT 58.652794 -13.116211 39,000 110 491 0
2019-09-20 03:04:25 GMT 58.668365 -13.196972 39,000 110 491 0
2019-09-20 03:04:14 GMT 58.677002 -13.241913 39,000 110 491 0
2019-09-20 03:03:58 GMT 58.690174 -13.310486 39,000 110 492 0
2019-09-20 03:03:55 GMT 58.692535 -13.322783 39,000 110 492 0
2019-09-20 03:03:34 GMT 58.708935 -13.408630 39,000 110 491 0
2019-09-20 03:03:23 GMT 58.716888 -13.450367 39,000 110 491 0
2019-09-20 03:03:14 GMT 58.724030 -13.488021 39,000 110 491 0
2019-09-20 03:03:04 GMT 58.732132 -13.530638 39,000 109 491 0
2019-09-20 03:02:54 GMT 58.739868 -13.571659 39,000 109 491 0
2019-09-20 03:02:43 GMT 58.747925 -13.614276 39,000 109 492 0
2019-09-20 03:02:34 GMT 58.755295 -13.653614 39,000 109 491 0
2019-09-20 03:02:23 GMT 58.763496 -13.697113 39,000 109 491 0
2019-09-20 03:02:13 GMT 58.771503 -13.739777 39,000 109 491 0
2019-09-20 03:02:00 GMT 58.780884 -13.789702 39,000 109 491 0
2019-09-20 03:01:53 GMT 58.786537 -13.820068 39,000 109 489 0
2019-09-20 03:01:39 GMT 58.797089 -13.876530 39,000 109 489 0
2019-09-20 03:01:32 GMT 58.803017 -13.908417 39,000 109 488 0
2019-09-20 03:01:21 GMT 58.810730 -13.950156 39,000 109 488 0
2019-09-20 03:01:12 GMT 58.817963 -13.989317 39,000 109 487 0
2019-09-20 03:01:02 GMT 58.825642 -14.031006 39,000 109 487 0
2019-09-20 03:00:52 GMT 58.833023 -14.070917 39,000 109 487 0
2019-09-20 03:00:42 GMT 58.840679 -14.112579 39,000 109 486 0
2019-09-20 03:00:27 GMT 58.851288 -14.170441 39,000 109 485 0
2019-09-20 03:00:21 GMT 58.855774 -14.194885 39,000 109 486 0
2019-09-20 03:00:11 GMT 58.863235 -14.235718 39,000 109 485 0
2019-09-20 03:00:00 GMT 58.871403 -14.280522 39,000 109 485 0
2019-09-20 02:59:51 GMT 58.878479 -14.319637 39,000 109 485 -64
2019-09-20 02:59:41 GMT 58.885757 -14.359589 39,000 109 485 0
2019-09-20 02:59:29 GMT 58.894447 -14.407717 39,000 109 484 0
2019-09-20 02:59:16 GMT 58.903851 -14.459807 39,000 109 484 0
2019-09-20 02:59:10 GMT 58.908878 -14.487463 39,000 109 484 64
2019-09-20 02:59:00 GMT 58.916061 -14.527313 39,000 109 484 64
2019-09-20 02:58:45 GMT 58.926682 -14.585999 39,000 109 484 0
2019-09-20 02:58:39 GMT 58.931271 -14.611248 39,000 109 484 0
2019-09-20 02:58:19 GMT 58.945934 -14.692888 39,000 108 485 0
2019-09-20 02:58:09 GMT 58.953522 -14.735413 39,000 108 485 -64
2019-09-20 02:57:59 GMT 58.960922 -14.777252 39,000 108 486 0
2019-09-20 02:57:49 GMT 58.967720 -14.815821 39,000 108 485 0
2019-09-20 02:57:38 GMT 58.975494 -14.860145 39,000 108 485 0
2019-09-20 02:57:27 GMT 58.983627 -14.907074 39,000 107 487 0
2019-09-20 02:57:18 GMT 58.989227 -14.944816 39,000 104 490 0
2019-09-20 02:57:08 GMT 58.994160 -14.985920 39,000 101 493 -64
2019-09-20 02:56:57 GMT 58.998779 -15.037170 39,000 97 496 0
2019-09-20 02:55:15 GMT 59.008545 -15.490249 39,000 91 500 0
2019-09-20 02:55:05 GMT 59.009216 -15.534027 39,000 91 500 0
2019-09-20 02:54:57 GMT 59.009811 -15.573395 39,000 91 500 0
2019-09-20 02:54:46 GMT 59.010498 -15.618073 39,000 91 500 0
2019-09-20 02:54:35 GMT 59.011230 -15.668060 39,000 91 499 0
2019-09-20 02:54:26 GMT 59.011852 -15.711775 39,000 91 499 0
We lost coverage of the aircraft here for a total of 293 minutes
2019-09-19 22:01:46 GMT 46.878250 -82.838219 35,025 41 509 0
2019-09-19 22:01:36 GMT 46.859577 -82.862389 35,000 41 509 0
2019-09-19 22:01:25 GMT 46.840256 -82.887421 35,000 41 508 0
2019-09-19 22:00:18 GMT 46.721695 -83.040359 35,000 41 506 0
2019-09-19 22:00:11 GMT 46.712238 -83.052521 35,000 41 506 -64
2019-09-19 21:58:15 GMT 46.506042 -83.315956 35,000 41 506 0
2019-09-19 21:58:05 GMT 46.488789 -83.337822 35,000 41 505 0
2019-09-19 21:57:31 GMT 46.431854 -83.410126 35,000 41 505 0
2019-09-19 21:57:23 GMT 46.413940 -83.432854 35,000 41 505 0
2019-09-19 21:57:08 GMT 46.389675 -83.463478 35,000 41 504 0
2019-09-19 21:56:32 GMT 46.326412 -83.543335 35,000 41 505 0
2019-09-19 21:56:18 GMT 46.301041 -83.575195 35,000 41 506 0
2019-09-19 21:56:06 GMT 46.281956 -83.599159 35,000 41 506 0
2019-09-19 21:55:36 GMT 46.227310 -83.667854 35,000 41 505 0
2019-09-19 21:55:21 GMT 46.201309 -83.700615 35,000 41 505 0
2019-09-19 21:55:12 GMT 46.187210 -83.718231 35,000 40 504 0
2019-09-19 21:55:03 GMT 46.168167 -83.742012 35,000 40 504 0
2019-09-19 21:54:53 GMT 46.151608 -83.762650 35,000 40 504 0
2019-09-19 21:54:44 GMT 46.134712 -83.783730 35,000 40 504 0
2019-09-19 21:54:27 GMT 46.105408 -83.820190 35,000 40 504 -64
2019-09-19 21:54:22 GMT 46.097282 -83.830284 35,000 40 505 -64
2019-09-19 21:54:11 GMT 46.078583 -83.853485 35,000 40 504 -64
2019-09-19 21:54:02 GMT 46.059586 -83.877197 35,000 40 504 0
2019-09-19 21:53:50 GMT 46.041275 -83.899979 35,000 40 504 0
2019-09-19 21:53:39 GMT 46.022278 -83.923553 35,000 40 504 -64
2019-09-19 21:53:30 GMT 46.003620 -83.946739 35,000 40 503 0
2019-09-19 21:53:18 GMT 45.985657 -83.968971 35,000 40 503 0
2019-09-19 21:53:09 GMT 45.967346 -83.991684 35,000 40 503 0
2019-09-19 21:52:57 GMT 45.948303 -84.015198 35,000 40 504 0
2019-09-19 21:52:48 GMT 45.931046 -84.036621 35,000 40 504 -64
2019-09-19 21:52:39 GMT 45.909817 -84.062782 35,000 40 504 0
2019-09-19 21:52:20 GMT 45.883656 -84.095055 35,000 40 505 0
2019-09-19 21:52:15 GMT 45.873039 -84.108101 35,000 40 506 0
2019-09-19 21:52:08 GMT 45.859543 -84.124718 35,000 40 506 0
2019-09-19 21:51:54 GMT 45.836124 -84.153488 35,000 40 505 0
2019-09-19 21:51:44 GMT 45.818756 -84.174835 35,000 40 506 0
2019-09-19 21:51:29 GMT 45.792133 -84.207458 35,000 40 506 0
2019-09-19 21:51:25 GMT 45.785755 -84.215286 35,000 40 506 0
2019-09-19 21:51:21 GMT 45.777237 -84.225723 35,000 40 506 -64
2019-09-19 21:51:15 GMT 45.767323 -84.237946 35,000 40 506 0
2019-09-19 21:51:12 GMT 45.761261 -84.245308 35,000 40 506 0
2019-09-19 21:51:01 GMT 45.742081 -84.268822 35,000 40 505 0
2019-09-19 21:50:52 GMT 45.725052 -84.289658 35,000 40 505 0
2019-09-19 21:50:40 GMT 45.705872 -84.313103 35,000 40 505 0
2019-09-19 21:50:31 GMT 45.687763 -84.335175 35,000 40 506 -64
2019-09-19 21:50:20 GMT 45.668583 -84.358589 35,000 40 505 0
2019-09-19 21:50:09 GMT 45.649017 -84.382439 35,000 40 505 0
2019-09-19 21:50:01 GMT 45.636600 -84.397591 35,000 40 505 -64
2019-09-19 21:49:58 GMT 45.629883 -84.405815 35,000 40 505 -64
2019-09-19 21:49:49 GMT 45.610657 -84.429131 35,000 40 506 -64
2019-09-19 21:49:37 GMT 45.592896 -84.450768 35,000 40 506 0
2019-09-19 21:49:31 GMT 45.581543 -84.464630 35,000 40 505 0
2019-09-19 21:49:28 GMT 45.574036 -84.473671 35,000 40 505 0
2019-09-19 21:49:19 GMT 45.562317 -84.487877 35,000 40 505 0
2019-09-19 21:49:16 GMT 45.555908 -84.495651 35,000 40 505 0
2019-09-19 21:49:10 GMT 45.543777 -84.510368 35,000 40 506 0
2019-09-19 21:49:06 GMT 45.538471 -84.516815 35,000 40 506 0
2019-09-19 21:48:55 GMT 45.518497 -84.541000 35,000 40 506 0
2019-09-19 21:48:44 GMT 45.499226 -84.564316 35,000 40 507 -64
2019-09-19 21:48:35 GMT 45.481705 -84.585503 35,000 40 507 -64
2019-09-19 21:48:23 GMT 45.462032 -84.609261 35,000 40 507 0
2019-09-19 21:48:14 GMT 45.443069 -84.632133 35,000 40 507 0
2019-09-19 21:48:03 GMT 45.424789 -84.654144 35,000 40 507 0
2019-09-19 21:47:53 GMT 45.405472 -84.677391 35,000 40 507 0
2019-09-19 21:47:41 GMT 45.386490 -84.700211 35,000 40 507 0
2019-09-19 21:47:34 GMT 45.372559 -84.716980 35,000 40 507 0
2019-09-19 21:47:29 GMT 45.363602 -84.727737 35,000 40 506 0
2019-09-19 21:47:23 GMT 45.354679 -84.738487 35,000 40 506 0
2019-09-19 21:47:09 GMT 45.325745 -84.773186 35,000 40 505 -64
2019-09-19 21:47:01 GMT 45.296864 -84.807823 35,000 40 505 0
2019-09-19 21:46:51 GMT 45.296864 -84.807823 35,000 40 505 0
2019-09-19 21:46:39 GMT 45.274052 -84.835220 35,000 40 505 0
2019-09-19 21:46:29 GMT 45.257263 -84.855263 35,000 40 506 0
2019-09-19 21:46:20 GMT 45.240097 -84.875793 35,000 40 506 0
2019-09-19 21:46:17 GMT 45.237213 -84.879196 35,000 40 506 0
2019-09-19 21:46:07 GMT 45.201805 -84.921432 35,000 40 507 -64
2019-09-19 21:45:57 GMT 45.201805 -84.921432 35,000 40 507 -64
2019-09-19 21:45:50 GMT 45.188553 -84.937263 35,000 40 507 -64
2019-09-19 21:45:47 GMT 45.181412 -84.945763 35,000 40 507 0
2019-09-19 21:45:41 GMT 45.172428 -84.956474 35,000 40 507 0
2019-09-19 21:45:36 GMT 45.161674 -84.969269 35,000 40 507 0
2019-09-19 21:45:25 GMT 45.143009 -84.991440 35,000 40 508 0
2019-09-19 21:45:21 GMT 45.135452 -85.000435 35,000 40 507 -64
2019-09-19 21:45:16 GMT 45.125038 -85.012810 35,000 40 507 -64
2019-09-19 21:45:04 GMT 45.106018 -85.035423 35,000 40 507 -64
2019-09-19 21:44:55 GMT 45.087387 -85.057655 35,000 40 507 -64
2019-09-19 21:44:44 GMT 45.069443 -85.078911 35,000 40 506 0
2019-09-19 21:44:37 GMT 45.057266 -85.093361 35,000 40 506 0
2019-09-19 21:44:34 GMT 45.050812 -85.101013 35,000 40 506 0
2019-09-19 21:44:23 GMT 45.030762 -85.124817 35,000 40 506 0
2019-09-19 21:44:19 GMT 45.024673 -85.132050 35,000 40 506 0
2019-09-19 21:44:11 GMT 45.011444 -85.147774 35,000 40 506 0
2019-09-19 21:44:08 GMT 45.005722 -85.154503 35,000 40 505 0
2019-09-19 21:44:01 GMT 44.993156 -85.169365 35,000 40 505 0
2019-09-19 21:43:58 GMT 44.987431 -85.176132 35,000 39 506 0
2019-09-19 21:43:47 GMT 44.968811 -85.198174 35,000 39 506 0
2019-09-19 21:43:40 GMT 44.955914 -85.213379 35,000 39 506 0
2019-09-19 21:43:34 GMT 44.944462 -85.226845 35,000 39 506 0
2019-09-19 21:43:29 GMT 44.936188 -85.236580 35,000 39 506 0
2019-09-19 21:43:26 GMT 44.929047 -85.245010 35,000 39 506 0
2019-09-19 21:43:20 GMT 44.917557 -85.258553 35,000 39 506 0
2019-09-19 21:43:15 GMT 44.910370 -85.266983 35,000 39 506 0
2019-09-19 21:43:08 GMT 44.896683 -85.283005 35,000 39 506 0
2019-09-19 21:43:04 GMT 44.889858 -85.291016 35,000 39 506 0
2019-09-19 21:42:59 GMT 44.880501 -85.302002 35,000 39 507 0
2019-09-19 21:42:54 GMT 44.871506 -85.312569 35,000 39 507 0
2019-09-19 21:42:47 GMT 44.858898 -85.327263 35,000 39 507 0
2019-09-19 21:42:44 GMT 44.853516 -85.333626 35,000 39 507 0
2019-09-19 21:42:41 GMT 44.849899 -85.337807 35,000 39 507 0
2019-09-19 21:42:37 GMT 44.843025 -85.345818 35,000 39 507 -64
2019-09-19 21:42:32 GMT 44.831482 -85.359215 35,000 39 507 -64
2019-09-19 21:42:27 GMT 44.823521 -85.368462 35,000 39 507 0
2019-09-19 21:42:24 GMT 44.816666 -85.376457 35,000 39 507 0
2019-09-19 21:42:21 GMT 44.812675 -85.381050 35,000 39 507 0
2019-09-19 21:42:16 GMT 44.805130 -85.389862 35,000 39 507 -64
2019-09-19 21:42:11 GMT 44.792816 -85.404121 35,000 39 506 -128
2019-09-19 21:42:06 GMT 44.785255 -85.412872 35,000 39 506 0
2019-09-19 21:42:02 GMT 44.778736 -85.420441 35,000 39 506 -64
2019-09-19 21:41:59 GMT 44.772919 -85.427078 35,000 39 506 -64
2019-09-19 21:41:52 GMT 44.760315 -85.441719 34,975 39 505 0
2019-09-19 21:41:49 GMT 44.753082 -85.450027 35,000 39 505 -64
2019-09-19 21:41:44 GMT 44.746582 -85.457542 35,000 39 505 0
2019-09-19 21:41:41 GMT 44.740471 -85.464653 35,000 39 505 -64
2019-09-19 21:41:37 GMT 44.731766 -85.474640 35,025 39 505 0
2019-09-19 21:41:34 GMT 44.727814 -85.479195 35,000 39 505 0
2019-09-19 21:41:31 GMT 44.720581 -85.487495 35,000 39 505 0
2019-09-19 21:41:27 GMT 44.715893 -85.492928 35,000 39 505 0
2019-09-19 21:41:21 GMT 44.704742 -85.505875 35,000 39 504 -64
2019-09-19 21:41:17 GMT 44.696869 -85.515091 35,000 40 505 -64
2019-09-19 21:41:13 GMT 44.688309 -85.525230 35,000 40 505 -64
2019-09-19 21:41:10 GMT 44.685120 -85.529030 35,000 41 505 0
2019-09-19 21:41:07 GMT 44.680527 -85.534645 35,000 40 506 0
2019-09-19 21:41:01 GMT 44.668533 -85.549232 35,000 41 506 0
2019-09-19 21:40:58 GMT 44.662544 -85.556564 35,000 41 506 0
2019-09-19 21:40:55 GMT 44.658306 -85.561722 35,000 41 506 0
2019-09-19 21:40:49 GMT 44.648438 -85.573784 35,000 41 506 0
2019-09-19 21:40:46 GMT 44.643501 -85.579811 35,000 41 506 0
2019-09-19 21:40:42 GMT 44.635777 -85.589325 35,000 41 506 0
2019-09-19 21:40:39 GMT 44.629761 -85.596642 35,000 41 506 0
2019-09-19 21:40:32 GMT 44.616734 -85.612572 35,000 41 506 0
2019-09-19 21:40:28 GMT 44.610718 -85.619858 35,000 41 506 0
2019-09-19 21:40:25 GMT 44.606819 -85.624626 35,000 41 506 0
2019-09-19 21:40:19 GMT 44.592361 -85.642288 35,000 41 507 0
2019-09-19 21:40:16 GMT 44.588432 -85.647003 35,000 41 507 0
2019-09-19 21:40:12 GMT 44.582798 -85.653900 35,000 41 507 0
2019-09-19 21:40:05 GMT 44.562920 -85.678017 35,000 40 508 0
2019-09-19 21:40:01 GMT 44.562920 -85.678017 35,000 40 508 0
2019-09-19 21:39:58 GMT 44.556198 -85.686234 35,000 40 508 0
2019-09-19 21:39:54 GMT 44.551254 -85.692245 35,000 40 508 -64
2019-09-19 21:39:50 GMT 44.544487 -85.700462 35,000 41 508 -64
2019-09-19 21:39:47 GMT 44.538109 -85.708229 35,000 41 508 -64
2019-09-19 21:39:44 GMT 44.533127 -85.714256 35,000 41 508 -64
2019-09-19 21:39:40 GMT 44.526051 -85.722832 35,000 41 508 0
2019-09-19 21:39:34 GMT 44.514694 -85.736633 35,000 41 507 0
2019-09-19 21:39:27 GMT 44.504078 -85.749565 35,000 41 507 0
2019-09-19 21:39:23 GMT 44.496304 -85.759010 35,000 40 508 0
2019-09-19 21:39:16 GMT 44.484604 -85.773209 35,000 40 508 0
2019-09-19 21:39:13 GMT 44.477509 -85.781776 35,000 41 507 0
2019-09-19 21:39:06 GMT 44.466888 -85.794655 35,000 41 507 0
2019-09-19 21:39:02 GMT 44.456955 -85.806686 35,000 41 507 0
2019-09-19 21:38:54 GMT 44.443840 -85.822517 35,000 40 506 0
2019-09-19 21:38:51 GMT 44.440304 -85.826805 35,000 40 506 0
2019-09-19 21:38:46 GMT 44.430038 -85.839256 35,000 40 506 0
2019-09-19 21:38:42 GMT 44.421524 -85.849525 35,000 40 506 0
2019-09-19 21:38:36 GMT 44.411591 -85.861488 35,000 40 507 -64
2019-09-19 21:38:33 GMT 44.407333 -85.866653 35,000 40 507 -64
2019-09-19 21:38:30 GMT 44.402737 -85.872223 35,000 40 507 0
2019-09-19 21:38:24 GMT 44.391376 -85.885887 35,000 40 507 0
2019-09-19 21:38:21 GMT 44.385361 -85.893204 35,000 40 507 0
2019-09-19 21:38:14 GMT 44.371544 -85.909866 35,000 40 506 0
2019-09-19 21:38:10 GMT 44.366226 -85.916222 35,000 40 506 0
2019-09-19 21:38:07 GMT 44.360188 -85.923470 35,000 40 505 0
2019-09-19 21:38:04 GMT 44.353809 -85.931175 35,000 40 506 0
2019-09-19 21:38:01 GMT 44.350616 -85.934990 35,000 40 506 0
2019-09-19 21:37:58 GMT 44.335739 -85.952911 35,000 40 506 0
2019-09-19 21:37:53 GMT 44.335739 -85.952911 35,000 40 506 0
2019-09-19 21:37:49 GMT 44.329376 -85.960564 35,000 40 506 0
2019-09-19 21:37:46 GMT 44.323364 -85.967819 35,000 40 506 0
2019-09-19 21:37:42 GMT 44.316986 -85.975456 35,000 40 506 0
2019-09-19 21:37:39 GMT 44.311707 -85.981819 35,000 40 505 0
2019-09-19 21:37:36 GMT 44.304276 -85.990791 35,000 40 505 0
2019-09-19 21:37:31 GMT 44.297562 -85.998886 35,000 40 504 0
2019-09-19 21:37:28 GMT 44.292618 -86.004837 35,000 40 504 0
2019-09-19 21:37:23 GMT 44.284103 -86.014969 35,000 40 504 0
2019-09-19 21:37:20 GMT 44.273178 -86.028175 35,000 40 504 0
2019-09-19 21:37:07 GMT 44.255489 -86.049339 35,000 40 504 0
2019-09-19 21:37:03 GMT 44.248077 -86.058266 35,000 40 504 -64
2019-09-19 21:36:59 GMT 44.241386 -86.066292 35,000 40 504 0
2019-09-19 21:36:56 GMT 44.236084 -86.072647 35,000 40 504 0
2019-09-19 21:36:50 GMT 44.225510 -86.085274 35,000 40 504 0
2019-09-19 21:36:46 GMT 44.217728 -86.094559 35,000 40 503 0
2019-09-19 21:36:40 GMT 44.208195 -86.105949 35,000 40 502 0
2019-09-19 21:36:37 GMT 44.202560 -86.112717 35,000 40 502 0
2019-09-19 21:36:34 GMT 44.197266 -86.119011 35,000 40 502 0
2019-09-19 21:36:30 GMT 44.188843 -86.129105 35,000 40 502 0
2019-09-19 21:36:26 GMT 44.181793 -86.137543 35,000 40 502 0
2019-09-19 21:36:17 GMT 44.165970 -86.156487 35,000 40 502 -64
2019-09-19 21:36:14 GMT 44.161037 -86.162369 35,000 40 502 0
2019-09-19 21:36:09 GMT 44.151165 -86.174141 35,000 40 502 -64
2019-09-19 21:36:06 GMT 44.146233 -86.180031 35,000 40 502 -128
2019-09-19 21:36:02 GMT 44.140961 -86.186272 35,000 40 502 -128
2019-09-19 21:35:59 GMT 44.135330 -86.192986 35,025 40 503 0
2019-09-19 21:35:54 GMT 44.127548 -86.202248 35,025 40 503 128
2019-09-19 21:35:51 GMT 44.122257 -86.208603 35,000 40 504 320
2019-09-19 21:35:48 GMT 44.114483 -86.217827 34,975 40 504 640
2019-09-19 21:35:44 GMT 44.109550 -86.223778 34,175 40 505 1024
2019-09-19 21:35:41 GMT 44.103870 -86.230515 34,800 40 504 1088
2019-09-19 21:35:34 GMT 44.089718 -86.247383 34,175 40 505 1024
2019-09-19 21:35:31 GMT 44.084381 -86.253723 34,700 40 504 1088
2019-09-19 21:35:27 GMT 44.078018 -86.261330 34,625 40 505 1088
2019-09-19 21:35:22 GMT 44.068085 -86.273148 34,525 40 505 1088
2019-09-19 21:35:18 GMT 44.063828 -86.278191 34,500 40 505 1088
2019-09-19 21:35:12 GMT 44.051788 -86.292564 34,350 40 505 1152
2019-09-19 21:35:09 GMT 44.045029 -86.300552 34,300 40 505 1152
2019-09-19 21:35:05 GMT 44.041122 -86.305206 34,250 40 505 1152
2019-09-19 21:35:01 GMT 44.031528 -86.316574 34,125 40 505 1152
2019-09-19 21:34:55 GMT 44.021942 -86.327950 33,975 40 506 1152
2019-09-19 21:34:50 GMT 44.012695 -86.338936 33,975 40 506 1152
2019-09-19 21:34:45 GMT 44.002384 -86.351166 33,850 40 506 1216
2019-09-19 21:34:42 GMT 43.997772 -86.356628 33,800 40 506 1216
2019-09-19 21:34:39 GMT 43.993122 -86.362083 33,750 40 506 1152
2019-09-19 21:34:35 GMT 43.983856 -86.373070 33,650 40 506 1152
2019-09-19 21:34:31 GMT 43.977814 -86.380196 33,525 40 507 1216
2019-09-19 21:34:27 GMT 43.971405 -86.387794 33,525 40 506 1152
2019-09-19 21:34:24 GMT 43.967834 -86.392014 33,175 40 507 1216
2019-09-19 21:34:19 GMT 43.956066 -86.405899 33,375 40 507 1280
2019-09-19 21:34:16 GMT 43.953598 -86.408813 33,275 40 507 1280
2019-09-19 21:34:13 GMT 43.948246 -86.415123 33,250 40 507 1344
2019-09-19 21:34:07 GMT 43.935745 -86.429893 33,100 40 507 1344
2019-09-19 21:34:03 GMT 43.928604 -86.438324 33,000 40 508 1344
2019-09-19 21:33:59 GMT 43.921463 -86.446754 32,900 40 508 1408
2019-09-19 21:33:56 GMT 43.915741 -86.453522 32,850 40 508 1408
2019-09-19 21:33:53 GMT 43.909653 -86.460640 32,700 40 509 1408
2019-09-19 21:33:48 GMT 43.902832 -86.468658 32,650 40 509 1472
2019-09-19 21:33:45 GMT 43.897110 -86.475433 32,600 40 509 1472
2019-09-19 21:33:42 GMT 43.891342 -86.482201 32,550 40 509 1536
2019-09-19 21:33:37 GMT 43.880932 -86.494446 32,375 40 510 1600
2019-09-19 21:33:34 GMT 43.875206 -86.501183 32,325 40 510 1600
2019-09-19 21:33:31 GMT 43.871246 -86.505836 32,150 40 511 1600
2019-09-19 21:33:26 GMT 43.862595 -86.516060 32,150 40 511 1600
2019-09-19 21:33:23 GMT 43.857559 -86.521996 32,075 40 512 1600
2019-09-19 21:33:19 GMT 43.850719 -86.530022 31,950 40 512 1600
2019-09-19 21:33:13 GMT 43.838428 -86.544472 31,775 40 513 1600
2019-09-19 21:33:10 GMT 43.834099 -86.549576 31,700 40 513 1600
2019-09-19 21:33:07 GMT 43.827942 -86.556808 31,625 40 514 1600
2019-09-19 21:33:02 GMT 43.819244 -86.567024 31,500 40 514 1664
2019-09-19 21:32:59 GMT 43.813850 -86.573441 31,300 40 516 1600
2019-09-19 21:32:56 GMT 43.809128 -86.578972 31,325 40 515 1664
2019-09-19 21:32:52 GMT 43.799324 -86.590508 31,225 40 516 1600
2019-09-19 21:32:46 GMT 43.791317 -86.599930 31,050 40 517 1600
2019-09-19 21:32:43 GMT 43.784008 -86.608498 30,950 40 517 1536
2019-09-19 21:32:40 GMT 43.780014 -86.613144 30,950 40 517 1536
2019-09-19 21:32:37 GMT 43.772369 -86.622162 30,775 40 518 1536
2019-09-19 21:32:34 GMT 43.761795 -86.634544 30,700 40 518 1472
2019-09-19 21:32:31 GMT 43.761795 -86.634544 30,700 40 518 1344
2019-09-19 21:32:28 GMT 43.758499 -86.638443 30,675 40 518 1280
2019-09-19 21:32:25 GMT 43.750076 -86.648277 30,575 40 518 1088
2019-09-19 21:32:21 GMT 43.739506 -86.660683 30,500 40 517 1024
2019-09-19 21:32:18 GMT 43.739506 -86.660683 30,475 40 517 1024
2019-09-19 21:32:13 GMT 43.722698 -86.680298 30,275 40 516 1024
2019-09-19 21:32:10 GMT 43.722698 -86.680298 30,325 40 517 1024
2019-09-19 21:32:07 GMT 43.719406 -86.684174 30,300 40 516 1024
2019-09-19 21:32:03 GMT 43.711063 -86.693962 30,200 40 515 1152
2019-09-19 21:31:59 GMT 43.704498 -86.701614 30,150 40 515 1088
2019-09-19 21:31:56 GMT 43.700123 -86.706718 30,125 40 515 1152
2019-09-19 21:31:52 GMT 43.691757 -86.716492 30,025 40 515 1088
2019-09-19 21:31:49 GMT 43.685211 -86.724091 29,725 40 515 1024
2019-09-19 21:31:46 GMT 43.681221 -86.728752 29,900 40 515 1024
2019-09-19 21:31:43 GMT 43.671772 -86.739807 29,825 40 514 896
2019-09-19 21:31:40 GMT 43.671772 -86.739807 29,750 40 511 960
2019-09-19 21:31:37 GMT 43.664154 -86.748688 29,775 40 512 896
2019-09-19 21:31:33 GMT 43.656597 -86.757591 29,725 40 512 896
2019-09-19 21:31:30 GMT 43.650776 -86.764328 29,675 40 512 960
2019-09-19 21:31:27 GMT 43.645748 -86.770279 29,625 40 511 960
2019-09-19 21:31:24 GMT 43.639977 -86.777016 29,550 40 506 1216
2019-09-19 21:31:17 GMT 43.628429 -86.790421 29,475 40 510 1152
2019-09-19 21:31:14 GMT 43.621582 -86.798447 29,400 40 509 1152
2019-09-19 21:31:11 GMT 43.617630 -86.803047 29,375 40 509 1216
2019-09-19 21:31:08 GMT 43.613663 -86.807640 29,250 40 509 1152
2019-09-19 21:31:05 GMT 43.608273 -86.813896 29,275 40 509 1152
2019-09-19 21:31:02 GMT 43.600361 -86.823120 29,200 40 509 1088
2019-09-19 21:30:59 GMT 43.596405 -86.827698 29,150 40 508 1152
2019-09-19 21:30:56 GMT 43.590305 -86.834824 29,100 40 508 1152
2019-09-19 21:30:52 GMT 43.580948 -86.845680 28,925 40 508 1152
2019-09-19 21:30:47 GMT 43.575920 -86.851501 28,875 40 507 1152
2019-09-19 21:30:43 GMT 43.565212 -86.863991 28,825 40 506 1152
2019-09-19 21:30:40 GMT 43.561630 -86.868179 28,700 40 505 1216
2019-09-19 21:30:37 GMT 43.547653 -86.884354 28,700 40 506 1216
2019-09-19 21:30:33 GMT 43.547653 -86.884354 28,650 40 505 1216
2019-09-19 21:30:29 GMT 43.543755 -86.888908 28,600 40 505 1152
2019-09-19 21:30:26 GMT 43.536255 -86.897636 28,525 40 505 1152
2019-09-19 21:30:23 GMT 43.532684 -86.901794 28,475 40 505 1088
2019-09-19 21:30:20 GMT 43.525543 -86.910034 28,350 40 503 1024
2019-09-19 21:30:16 GMT 43.517357 -86.919579 28,325 40 502 1216
2019-09-19 21:30:13 GMT 43.512726 -86.924911 28,300 40 503 1024
2019-09-19 21:30:08 GMT 43.505585 -86.933151 28,200 40 502 1216
2019-09-19 21:30:05 GMT 43.492081 -86.948807 28,100 40 501 1280
2019-09-19 21:30:01 GMT 43.492081 -86.948807 28,100 40 501 1280
2019-09-19 21:29:58 GMT 43.479309 -86.963554 28,000 40 501 1344
2019-09-19 21:29:53 GMT 43.479309 -86.963554 27,950 40 501 1280
2019-09-19 21:29:50 GMT 43.472576 -86.971367 27,875 40 501 1344
2019-09-19 21:29:46 GMT 43.464752 -86.980392 27,775 40 501 1344
2019-09-19 21:29:43 GMT 43.459122 -86.986931 27,700 40 500 1280
2019-09-19 21:29:39 GMT 43.454838 -86.991837 27,650 40 500 1280
2019-09-19 21:29:32 GMT 43.440353 -87.008591 27,500 40 499 1152
2019-09-19 21:29:28 GMT 43.435410 -87.014275 27,450 40 498 1088
2019-09-19 21:29:24 GMT 43.424438 -87.026955 27,300 40 498 1216
2019-09-19 21:29:21 GMT 43.421265 -87.030624 27,325 40 498 1216
2019-09-19 21:29:18 GMT 43.415314 -87.037483 27,225 40 496 1280
2019-09-19 21:29:15 GMT 43.410381 -87.043175 27,175 40 496 1280
2019-09-19 21:29:10 GMT 43.401955 -87.052917 27,075 40 496 1216
2019-09-19 21:29:07 GMT 43.396683 -87.059052 27,025 40 496 1152
2019-09-19 21:29:03 GMT 43.390366 -87.066330 26,475 39 490 1152
2019-09-19 21:28:59 GMT 43.382263 -87.075607 26,800 39 494 1088
2019-09-19 21:28:56 GMT 43.377731 -87.080833 26,825 39 494 1152
2019-09-19 21:28:53 GMT 43.371090 -87.088493 26,750 40 493 1152
2019-09-19 21:28:48 GMT 43.362713 -87.098167 26,650 40 492 1152
2019-09-19 21:28:45 GMT 43.358521 -87.103012 26,600 40 492 1152
2019-09-19 21:28:39 GMT 43.346649 -87.116615 26,475 40 491 1152
2019-09-19 21:28:35 GMT 43.340744 -87.123436 26,425 39 490 1152
2019-09-19 21:28:32 GMT 43.334873 -87.130211 26,275 39 489 1152
2019-09-19 21:28:29 GMT 43.330685 -87.134987 26,325 39 489 1152
2019-09-19 21:28:26 GMT 43.321697 -87.145317 26,225 40 488 1216
2019-09-19 21:28:18 GMT 43.312016 -87.156441 26,125 40 486 1152
2019-09-19 21:28:15 GMT 43.304428 -87.165199 26,025 40 486 1152
2019-09-19 21:28:09 GMT 43.295105 -87.175873 24,750 39 475 1280
2019-09-19 21:28:06 GMT 43.290298 -87.181435 25,725 39 483 1152
2019-09-19 21:28:03 GMT 43.285156 -87.187302 25,850 39 484 1280
2019-09-19 21:28:00 GMT 43.279312 -87.194016 25,725 39 483 1152
2019-09-19 21:27:57 GMT 43.276566 -87.197144 25,275 39 478 1216
2019-09-19 21:27:53 GMT 43.262531 -87.213203 25,600 39 481 1152
2019-09-19 21:27:50 GMT 43.262531 -87.213203 25,575 39 481 1216
2019-09-19 21:27:47 GMT 43.259445 -87.216751 25,275 39 478 1216
2019-09-19 21:27:42 GMT 43.250610 -87.226913 25,400 40 480 1280
2019-09-19 21:27:38 GMT 43.244476 -87.233932 25,375 39 479 1280
2019-09-19 21:27:35 GMT 43.236649 -87.242889 25,250 39 478 1216
2019-09-19 21:27:32 GMT 43.233250 -87.246750 25,225 39 478 1216
2019-09-19 21:27:29 GMT 43.228500 -87.252243 25,175 39 477 1280
2019-09-19 21:27:26 GMT 43.222733 -87.258781 25,125 39 477 1344
2019-09-19 21:27:22 GMT 43.215317 -87.267281 25,000 39 476 1344
2019-09-19 21:27:19 GMT 43.210205 -87.273102 24,925 39 476 1344
2019-09-19 21:27:14 GMT 43.202759 -87.281601 24,875 39 475 1344
2019-09-19 21:27:11 GMT 43.195038 -87.290466 24,725 39 475 1280
2019-09-19 21:27:07 GMT 43.190277 -87.295830 24,675 39 474 1216
2019-09-19 21:27:04 GMT 43.186935 -87.299660 24,650 39 473 1152
2019-09-19 21:27:01 GMT 43.180847 -87.306564 24,575 39 472 1152
2019-09-19 21:26:57 GMT 43.173477 -87.314995 24,500 39 472 1216
2019-09-19 21:26:54 GMT 43.169102 -87.319923 24,450 39 471 1344
2019-09-19 21:26:51 GMT 43.163406 -87.326424 24,375 39 470 1472
2019-09-19 21:26:48 GMT 43.155041 -87.335945 24,250 39 470 1472
2019-09-19 21:26:41 GMT 43.145683 -87.346542 24,125 39 469 1408
2019-09-19 21:26:37 GMT 43.141029 -87.351837 24,000 39 468 1472
2019-09-19 21:26:34 GMT 43.134373 -87.359421 23,975 39 468 1472
2019-09-19 21:26:30 GMT 43.128368 -87.366226 23,850 39 467 1408
2019-09-19 21:26:27 GMT 43.122410 -87.373024 23,800 39 467 1536
2019-09-19 21:26:23 GMT 43.117401 -87.378738 23,725 39 467 1472
2019-09-19 21:26:18 GMT 43.109097 -87.388130 23,625 39 465 1472
2019-09-19 21:26:15 GMT 43.103786 -87.394211 23,550 39 466 1408
2019-09-19 21:26:12 GMT 43.099503 -87.399048 23,450 39 465 1408
2019-09-19 21:26:09 GMT 43.087555 -87.412590 23,350 39 465 1472
2019-09-19 21:26:05 GMT 43.087555 -87.412590 23,325 39 465 1472
2019-09-19 21:26:02 GMT 43.082932 -87.417831 22,500 39 462 1408
2019-09-19 21:25:59 GMT 43.076340 -87.425301 23,200 39 463 1344
2019-09-19 21:25:54 GMT 43.069061 -87.433540 23,075 39 462 1344
2019-09-19 21:25:51 GMT 43.064125 -87.439072 23,025 39 462 1408
2019-09-19 21:25:47 GMT 43.058533 -87.445419 22,550 39 460 1536
2019-09-19 21:25:44 GMT 43.051941 -87.452835 22,825 39 460 1536
2019-09-19 21:25:41 GMT 43.046677 -87.458771 22,750 39 460 1536
2019-09-19 21:25:38 GMT 43.042099 -87.463943 22,675 39 460 1536
2019-09-19 21:25:31 GMT 43.032257 -87.475060 22,550 39 459 1536
2019-09-19 21:25:27 GMT 43.025070 -87.483170 22,425 39 458 1536
2019-09-19 21:25:23 GMT 43.018570 -87.490585 22,350 39 457 1600
2019-09-19 21:25:20 GMT 43.012711 -87.497223 22,225 39 457 1600
2019-09-19 21:25:16 GMT 43.006493 -87.504204 22,150 39 457 1600
2019-09-19 21:25:12 GMT 42.999371 -87.512314 22,025 39 456 1536
2019-09-19 21:25:08 GMT 42.986382 -87.527031 21,825 39 455 1472
2019-09-19 21:25:01 GMT 42.977005 -87.537659 21,700 39 454 1536
2019-09-19 21:24:55 GMT 42.972473 -87.542770 21,625 39 453 1664
2019-09-19 21:24:49 GMT 42.963108 -87.553322 21,475 39 453 1664
2019-09-19 21:24:45 GMT 42.957939 -87.559204 21,275 39 452 1664
2019-09-19 21:24:41 GMT 42.950211 -87.567902 21,300 39 452 1600
2019-09-19 21:24:38 GMT 42.943787 -87.575157 21,150 39 450 1536
2019-09-19 21:24:35 GMT 42.938965 -87.580582 21,100 39 450 1536
2019-09-19 21:24:28 GMT 42.929352 -87.591499 20,825 39 450 1664
2019-09-19 21:24:25 GMT 42.924866 -87.596550 20,850 39 449 1728
2019-09-19 21:24:22 GMT 42.920425 -87.601593 20,775 39 449 1728
2019-09-19 21:24:19 GMT 42.914017 -87.608879 20,675 39 448 1728
2019-09-19 21:24:15 GMT 42.910217 -87.613220 20,525 40 447 1856
2019-09-19 21:24:10 GMT 42.899750 -87.625191 20,350 40 447 1728
2019-09-19 21:24:07 GMT 42.895329 -87.630287 20,350 40 447 1728
2019-09-19 21:24:04 GMT 42.892456 -87.633530 20,200 40 447 1664
2019-09-19 21:24:01 GMT 42.876984 -87.651283 20,150 40 446 1664
2019-09-19 21:23:56 GMT 42.873821 -87.654877 19,975 40 444 1792
2019-09-19 21:23:48 GMT 42.867233 -87.662468 19,850 40 444 1856
2019-09-19 21:23:45 GMT 42.860321 -87.670387 19,725 40 444 1856
2019-09-19 21:23:41 GMT 42.856247 -87.675117 19,675 40 444 1856
2019-09-19 21:23:37 GMT 42.848728 -87.683784 19,525 40 442 1920
2019-09-19 21:23:33 GMT 42.844025 -87.689163 19,425 40 442 1920
2019-09-19 21:23:30 GMT 42.838066 -87.696007 19,300 40 442 1920
2019-09-19 21:23:26 GMT 42.826801 -87.708893 19,125 40 442 1664
2019-09-19 21:23:23 GMT 42.826801 -87.708893 19,100 40 442 1600
2019-09-19 21:23:19 GMT 42.821171 -87.715370 18,875 40 438 1408
2019-09-19 21:23:15 GMT 42.814636 -87.722832 18,925 40 440 1408
2019-09-19 21:23:11 GMT 42.808739 -87.729599 18,850 40 438 1472
2019-09-19 21:23:07 GMT 42.803108 -87.735985 18,725 39 438 1536
2019-09-19 21:23:01 GMT 42.791935 -87.748566 18,525 39 436 1920
2019-09-19 21:22:58 GMT 42.787903 -87.753113 18,450 39 434 1920
2019-09-19 21:22:54 GMT 42.781631 -87.759972 18,325 38 434 1792
2019-09-19 21:22:51 GMT 42.776001 -87.766151 18,225 38 434 1728
2019-09-19 21:22:48 GMT 42.773827 -87.768562 18,175 38 432 1600
2019-09-19 21:22:45 GMT 42.766285 -87.776672 18,075 33 428 1600
2019-09-19 21:22:41 GMT 42.760651 -87.782745 17,650 26 425 1792
2019-09-19 21:22:38 GMT 42.755531 -87.787849 17,900 27 425 1792
2019-09-19 21:22:35 GMT 42.751572 -87.791496 17,850 31 427 1728
2019-09-19 21:22:30 GMT 42.742401 -87.798927 17,700 27 425 1792
2019-09-19 21:22:27 GMT 42.738586 -87.801582 17,650 25 424 1856
2019-09-19 21:22:23 GMT 42.730717 -87.806442 17,500 22 422 1856
2019-09-19 21:22:20 GMT 42.726700 -87.808540 17,425 20 421 1792
2019-09-19 21:22:17 GMT 42.718597 -87.812225 17,250 15 419 1664
2019-09-19 21:22:11 GMT 42.706882 -87.816086 17,150 10 416 1472
2019-09-19 21:22:08 GMT 42.701576 -87.817230 17,100 7 414 1344
2019-09-19 21:22:05 GMT 42.696270 -87.818062 17,025 3 412 1216
2019-09-19 21:22:00 GMT 42.686737 -87.818649 16,925 0 410 1152
2019-09-19 21:21:57 GMT 42.680695 -87.818527 16,850 358 406 1088
2019-09-19 21:21:54 GMT 42.675785 -87.818253 16,850 358 404 1088
2019-09-19 21:21:49 GMT 42.665314 -87.817551 16,750 358 402 1088
2019-09-19 21:21:45 GMT 42.658264 -87.817093 16,675 358 399 1024
2019-09-19 21:21:40 GMT 42.651627 -87.816658 16,600 358 397 1024
2019-09-19 21:21:37 GMT 42.646133 -87.816277 16,600 358 396 1024
2019-09-19 21:21:33 GMT 42.638824 -87.815826 16,475 358 390 1088
2019-09-19 21:21:30 GMT 42.630863 -87.815315 16,450 358 389 1088
2019-09-19 21:21:27 GMT 42.626175 -87.815033 16,400 358 387 1152
2019-09-19 21:21:22 GMT 42.618668 -87.814552 16,350 358 385 1216
2019-09-19 21:21:19 GMT 42.613686 -87.814232 16,275 358 383 1280
2019-09-19 21:21:16 GMT 42.605911 -87.813721 16,175 358 381 1344
2019-09-19 21:21:11 GMT 42.591568 -87.812843 16,075 358 378 1280
2019-09-19 21:21:08 GMT 42.591568 -87.812843 16,025 358 375 1152
2019-09-19 21:21:03 GMT 42.583565 -87.812317 15,925 358 373 1088
2019-09-19 21:21:00 GMT 42.579803 -87.812035 15,900 358 372 1088
2019-09-19 21:20:57 GMT 42.573277 -87.811615 15,850 358 368 960
2019-09-19 21:20:52 GMT 42.564789 -87.811035 15,775 358 365 960
2019-09-19 21:20:49 GMT 42.560429 -87.810783 15,725 358 363 1024
2019-09-19 21:20:45 GMT 42.552704 -87.810226 15,625 358 358 1024
2019-09-19 21:20:41 GMT 42.546417 -87.809822 15,575 358 356 960
2019-09-19 21:20:38 GMT 42.541809 -87.809502 15,525 358 354 960
2019-09-19 21:20:33 GMT 42.534988 -87.809036 15,475 358 348 896
2019-09-19 21:20:29 GMT 42.528534 -87.808662 15,400 358 346 896
2019-09-19 21:20:26 GMT 42.523048 -87.808289 15,275 358 339 960
2019-09-19 21:20:23 GMT 42.518280 -87.807976 15,275 358 339 960
2019-09-19 21:20:20 GMT 42.514526 -87.807732 15,225 358 336 960
2019-09-19 21:20:17 GMT 42.508255 -87.807289 15,225 358 336 960
2019-09-19 21:20:14 GMT 42.505142 -87.807106 15,200 358 333 832
2019-09-19 21:20:11 GMT 42.500519 -87.806824 15,125 359 326 1536
2019-09-19 21:20:08 GMT 42.494419 -87.806503 15,100 359 328 1088
2019-09-19 21:20:04 GMT 42.487473 -87.806290 14,925 0 325 2048
2019-09-19 21:19:57 GMT 42.477566 -87.806244 14,775 0 324 2176
2019-09-19 21:19:52 GMT 42.469482 -87.806419 14,575 2 323 2112
2019-09-19 21:19:47 GMT 42.463787 -87.806824 14,400 3 322 2112
2019-09-19 21:19:44 GMT 42.448059 -87.808418 14,175 4 322 2112
2019-09-19 21:19:38 GMT 42.444794 -87.808800 14,025 5 320 2112
2019-09-19 21:19:32 GMT 42.440369 -87.809349 13,925 5 319 2112
2019-09-19 21:19:29 GMT 42.435654 -87.809914 13,825 5 319 2112
2019-09-19 21:19:25 GMT 42.430389 -87.810600 13,600 5 318 2304
2019-09-19 21:19:18 GMT 42.419266 -87.812157 13,400 5 317 2496
2019-09-19 21:19:14 GMT 42.413139 -87.813019 13,225 5 317 2496
2019-09-19 21:19:10 GMT 42.407547 -87.813782 13,175 5 317 2496
2019-09-19 21:19:07 GMT 42.403782 -87.814293 12,975 5 316 2560
2019-09-19 21:19:03 GMT 42.397659 -87.815033 12,800 5 316 2560
2019-09-19 21:18:58 GMT 42.392097 -87.815765 12,575 5 315 2432
2019-09-19 21:18:55 GMT 42.386883 -87.816338 12,500 5 315 2432
2019-09-19 21:18:51 GMT 42.382507 -87.816902 12,025 5 315 2432
2019-09-19 21:18:48 GMT 42.376099 -87.817650 12,200 5 314 2496
2019-09-19 21:18:43 GMT 42.368870 -87.818512 12,025 5 313 2496
2019-09-19 21:18:37 GMT 42.359650 -87.819664 11,750 5 312 2432
2019-09-19 21:18:32 GMT 42.353317 -87.820427 11,575 5 311 2368
2019-09-19 21:18:29 GMT 42.350143 -87.820770 11,500 5 311 2368
2019-09-19 21:18:26 GMT 42.344707 -87.821510 11,350 5 310 2432
2019-09-19 21:18:23 GMT 42.340145 -87.822151 11,275 5 309 2432
2019-09-19 21:18:20 GMT 42.336700 -87.822601 11,150 5 309 2432
2019-09-19 21:18:17 GMT 42.332745 -87.823174 10,450 5 308 2496
2019-09-19 21:18:14 GMT 42.326752 -87.823898 10,875 4 307 2560
2019-09-19 21:18:08 GMT 42.318546 -87.824707 10,625 2 306 2624
2019-09-19 21:18:03 GMT 42.311749 -87.825157 10,425 2 305 2560
2019-09-19 21:18:00 GMT 42.307526 -87.825394 10,275 1 305 2560
2019-09-19 21:17:57 GMT 42.302715 -87.825539 10,175 0 304 2560
2019-09-19 21:17:49 GMT 42.292057 -87.825539 9,850 0 302 2432
2019-09-19 21:17:45 GMT 42.287586 -87.825409 9,725 359 302 2368
2019-09-19 21:17:41 GMT 42.281708 -87.825272 9,575 359 300 2304
2019-09-19 21:17:38 GMT 42.277531 -87.825157 9,450 359 296 2240
2019-09-19 21:17:33 GMT 42.271481 -87.824966 9,325 359 298 2176
2019-09-19 21:17:28 GMT 42.262684 -87.824707 8,900 0 294 2368
2019-09-19 21:17:22 GMT 42.256721 -87.824577 8,925 0 293 2496
2019-09-19 21:17:19 GMT 42.251835 -87.824455 8,750 0 291 2688
2019-09-19 21:17:15 GMT 42.245087 -87.824333 8,550 0 291 2688
2019-09-19 21:17:06 GMT 42.233276 -87.824142 8,175 0 289 2752
2019-09-19 21:17:01 GMT 42.225021 -87.823944 7,900 359 286 2624
2019-09-19 21:16:55 GMT 42.218643 -87.823746 7,700 359 286 2624
2019-09-19 21:16:48 GMT 42.209976 -87.823456 7,500 359 284 2816
2019-09-19 21:16:44 GMT 42.204445 -87.823303 7,200 0 282 3136
2019-09-19 21:16:41 GMT 42.202103 -87.823273 7,125 359 283 3008
2019-09-19 21:16:37 GMT 42.194778 -87.823143 6,850 0 282 3136
2019-09-19 21:16:33 GMT 42.190338 -87.823112 6,700 0 282 3328
2019-09-19 21:16:30 GMT 42.187733 -87.823044 6,550 0 282 3328
2019-09-19 21:16:27 GMT 42.181229 -87.823021 6,400 0 282 3328
2019-09-19 21:16:22 GMT 42.175461 -87.822960 6,075 0 282 3328
2019-09-19 21:16:15 GMT 42.165295 -87.822922 5,650 0 282 1152
2019-09-19 21:16:12 GMT 42.163200 -87.822853 5,600 0 282 3392
2019-09-19 21:16:09 GMT 42.160080 -87.822853 5,450 0 282 2688
2019-09-19 21:16:05 GMT 42.153282 -87.822792 5,200 0 282 2304
2019-09-19 21:16:02 GMT 42.149323 -87.822769 5,100 0 282 1792
2019-09-19 21:15:58 GMT 42.145927 -87.822723 5,000 0 282 1152
2019-09-19 21:15:52 GMT 42.136013 -87.822533 4,875 359 281 384
2019-09-19 21:15:47 GMT 42.131359 -87.822342 4,875 358 279 128
2019-09-19 21:15:41 GMT 42.122314 -87.821899 4,875 358 279 64
2019-09-19 21:15:36 GMT 42.116879 -87.821640 4,875 358 279 64
2019-09-19 21:15:30 GMT 42.107346 -87.821213 4,850 359 280 320
2019-09-19 21:15:25 GMT 42.102402 -87.820999 4,750 358 279 1856
2019-09-19 21:15:18 GMT 42.093605 -87.820686 4,750 359 279 960
2019-09-19 21:15:13 GMT 42.085602 -87.820396 4,650 359 279 1408
2019-09-19 21:15:08 GMT 42.077030 -87.819977 4,475 358 279 1664
2019-09-19 21:15:02 GMT 42.072376 -87.819786 4,400 358 279 1792
2019-09-19 21:14:58 GMT 42.066231 -87.819405 4,200 358 276 2368
2019-09-19 21:14:55 GMT 42.064137 -87.819275 4,200 358 276 2368
2019-09-19 21:14:51 GMT 42.058273 -87.818962 3,900 358 272 2304
2019-09-19 21:14:47 GMT 42.049255 -87.818275 3,750 357 268 1728
2019-09-19 21:14:41 GMT 42.044537 -87.817940 3,650 357 265 1408
2019-09-19 21:14:36 GMT 42.038452 -87.817467 3,525 358 257 1408
2019-09-19 21:14:30 GMT 42.031597 -87.817108 3,400 359 250 1408
2019-09-19 21:14:26 GMT 42.026989 -87.816917 3,275 0 244 1216
2019-09-19 21:14:18 GMT 42.018932 -87.816788 3,175 0 237 1152
2019-09-19 21:14:14 GMT 42.014137 -87.816978 3,050 4 228 1216
2019-09-19 21:14:11 GMT 42.011398 -87.817215 3,000 8 223 1472
2019-09-19 21:14:08 GMT 42.008274 -87.817680 2,900 13 220 1536
2019-09-19 21:14:02 GMT 41.997799 -87.821831 2,625 18 218 1280
2019-09-19 21:13:58 GMT 41.997799 -87.821831 2,700 35 208 576
2019-09-19 21:13:54 GMT 41.994919 -87.824081 2,700 33 209 640
2019-09-19 21:13:51 GMT 41.992119 -87.827133 2,650 42 203 512
2019-09-19 21:13:47 GMT 41.989975 -87.830261 2,550 74 182 704
2019-09-19 21:13:41 GMT 41.987373 -87.835693 2,600 67 186 576
2019-09-19 21:13:36 GMT 41.985901 -87.841499 2,550 80 179 832
2019-09-19 21:13:31 GMT 41.985260 -87.848053 2,450 84 173 1792
2019-09-19 21:13:25 GMT 41.984940 -87.853172 2,225 85 171 2624
2019-09-19 21:13:20 GMT 41.984573 -87.859161 2,050 85 170 2688
2019-09-19 21:13:17 GMT 41.984440 -87.861885 1,875 86 170 2688
2019-09-19 21:13:11 GMT 41.984161 -87.867821 1,650 87 170 2688
2019-09-19 21:13:08 GMT 41.984066 -87.870316 1,650 87 170 2688
2019-09-19 21:13:04 GMT 41.983887 -87.881012 1,275 89 167 2432
2019-09-19 21:12:59 GMT 41.983887 -87.881012 1,150 89 167 2368
2019-09-19 21:12:33 GMT 41.983891 -87.906944 0 90 120
2019-09-19 21:12:21 GMT 41.983898 -87.913834 0 90 66
2019-09-19 21:12:14 GMT 41.983910 -87.915733 0 90 35
2019-09-19 21:12:03 GMT 41.983906 -87.917229 0 90 10
2019-09-19 21:11:53 GMT 41.983921 -87.917763 0 104 9
2019-09-19 21:11:00 GMT 41.982410 -87.918243 0 0 0
2019-09-19 21:10:56 GMT 41.982388 -87.918243 0 0 0
2019-09-19 21:10:44 GMT 41.982368 -87.918221 0 0 2
2019-09-19 21:10:34 GMT 41.982388 -87.918243 0 0 2
2019-09-19 21:10:23 GMT 41.982391 -87.918236 0 0 0
2019-09-19 21:10:01 GMT 41.982410 -87.918213 0 0 5
2019-09-19 21:09:49 GMT 41.982262 -87.918243 0 0 3
2019-09-19 21:08:25 GMT 41.980473 -87.918030 0 331 8
2019-09-19 21:08:02 GMT 41.979984 -87.917542 0 0 7
2019-09-19 21:07:38 GMT 41.979702 -87.917259 0 315 4
2019-09-19 21:07:33 GMT 41.979641 -87.917168 0 315 0
2019-09-19 21:07:17 GMT 41.979515 -87.917015 0 315 4
2019-09-19 21:07:11 GMT 41.979469 -87.916992 0 315 3
2019-09-19 21:06:56 GMT 41.979366 -87.916893 0 315 1
2019-09-19 21:06:43 GMT 41.979366 -87.916847 0 0 4
2019-09-19 21:06:36 GMT 41.979275 -87.916748 0 0 6
2019-09-19 21:06:16 GMT 41.978714 -87.916092 0 320 12
2019-09-19 21:06:03 GMT 41.978119 -87.915451 0 320 12
2019-09-19 21:05:53 GMT 41.977749 -87.915092 0 320 10
2019-09-19 21:05:41 GMT 41.977341 -87.914513 0 247 12
2019-09-19 21:05:28 GMT 41.977619 -87.913521 0 261 12
2019-09-19 21:05:18 GMT 41.977512 -87.912918 0 320 11
2019-09-19 21:05:03 GMT 41.976711 -87.912376 0 326 17
2019-09-19 21:04:56 GMT 41.976246 -87.911957 0 323 20
2019-09-19 21:04:29 GMT 41.974220 -87.909897 0 320 20
2019-09-19 21:04:18 GMT 41.973545 -87.909164 0 312 21
2019-09-19 21:04:12 GMT 41.973091 -87.908493 0 318 17
2019-09-19 21:03:55 GMT 41.972271 -87.906937 0 286 18
2019-09-19 21:03:50 GMT 41.972191 -87.906609 0 278 18
2019-09-19 21:03:29 GMT 41.972088 -87.904282 0 272 16
2019-09-19 21:03:22 GMT 41.972069 -87.903786 0 272 16
2019-09-19 21:03:04 GMT 41.972092 -87.901871 0 272 18
2019-09-19 21:02:55 GMT 41.972042 -87.900925 0 270 16
2019-09-19 21:02:40 GMT 41.972065 -87.899429 0 261 14
2019-09-19 21:02:30 GMT 41.972191 -87.898643 0 241 12
2019-09-19 21:02:20 GMT 41.972454 -87.897957 0 241 12
2019-09-19 21:01:58 GMT 41.972942 -87.896729 0 234 12
2019-09-19 21:01:42 GMT 41.973370 -87.895927 0 234 10
2019-09-19 21:01:24 GMT 41.974033 -87.895302 0 194 10
2019-09-19 21:01:14 GMT 41.974442 -87.895256 0 207 8
2019-09-19 21:01:03 GMT 41.974800 -87.894997 0 258 8
2019-09-19 21:00:52 GMT 41.974827 -87.894524 0 0 7
2019-09-19 21:00:42 GMT 41.974834 -87.894196 0 0 5
2019-09-19 21:00:28 GMT 41.974834 -87.894028 0 0 3
2019-09-19 21:00:19 GMT 41.974838 -87.893959 0 0 3
2019-09-19 21:00:08 GMT 41.974834 -87.893776 0 0 5
2019-09-19 20:59:55 GMT 41.974895 -87.893486 0 0 5
2019-09-19 20:59:47 GMT 41.974995 -87.893372 0 0 5
2019-09-19 20:59:12 GMT 41.975174 -87.893341 0 0 0
2019-09-19 20:58:48 GMT 41.975163 -87.893341 0 0 0
2019-09-19 20:58:28 GMT 41.975166 -87.893341 0 0 0
2019-09-19 20:57:18 GMT 41.975155 -87.893341 0 0 0
2019-09-19 20:56:48 GMT 41.975166 -87.893341 0 0 0
2019-09-19 20:56:25 GMT 41.975163 -87.893341 0 0 0
2019-09-19 20:56:05 GMT 41.975155 -87.893341 0 0 0
2019-09-19 20:55:49 GMT 41.975166 -87.893326 0 0 0
2019-09-19 20:55:24 GMT 41.975155 -87.893326 0 0 0
2019-09-19 20:54:51 GMT 41.975151 -87.893341 0 0 0
2019-09-19 20:54:46 GMT 41.975155 -87.893341 0 0 0
2019-09-19 20:54:31 GMT 41.975166 -87.893341 0 0 0
2019-09-19 20:54:26 GMT 41.975178 -87.893326 0 0 0
2019-09-19 20:54:16 GMT 41.975174 -87.893341 0 0 0
2019-09-19 20:53:41 GMT 41.975155 -87.893341 0 0 0
2019-09-19 20:53:05 GMT 41.975163 -87.893341 0 0 0
2019-09-19 20:52:46 GMT 41.975155 -87.893341 0 0 0
2019-09-19 20:52:30 GMT 41.975163 -87.893341 0 0 0
2019-09-19 20:52:20 GMT 41.975166 -87.893341 0 0 0
2019-09-19 20:52:11 GMT 41.975163 -87.893341 0 0 0
2019-09-19 20:51:56 GMT 41.975151 -87.893341 0 0 0
2019-09-19 20:51:47 GMT 41.975155 -87.893341 0 0 0
2019-09-19 20:51:18 GMT 41.975151 -87.893341 0 0 0
2019-09-19 20:51:07 GMT 41.975025 -87.893341 0 0 4
2019-09-19 20:50:56 GMT 41.974827 -87.893326 0 0 4
2019-09-19 20:50:38 GMT 41.974583 -87.893150 0 0 4
2019-09-19 20:50:34 GMT 41.974560 -87.893097 0 0 4

Making use of Plane Finder data

You are free to use the raw flight data, aircraft information and images provided in this report for your own purposes provided the data is correctly attributed to Plane Finder. We ask that you please credit Plane Finder and link to planefinder.net in close proximity to the content.

Optionally one of the following logos (no smaller then 150x24px) can be used and must link to planefinder.net

Embedding the Plane Finder map

You are welcome to embed the Plane Finder playback map on your website to offer visitors a more interactive experience. We suggest using the following HTML code:

<iframe src="//planefinder.net/data/report/KL612-PH-BQD-7700-squawk-2019-09-20/map" width="800" height="600" seamless="seamless"></iframe>

Where our data comes from

Plane Finder has a global network of data feeds and antenna radars that receive data broadcast directly from aircraft. The primary technologies used are ADS-B and MLAT. We also show feeds from the FAA and a FLARM glider feed.

Click here to find out more about the Plane Finder network.

How we collect our data